Provisional Data: Yellow Breeches Creek near Lisburn, PA


Please select a monitoring station.
Please select start date.
Please select start date.

Toggle Unit: C/F Toggle Unit: C/F
Sample Time Temperature (C) Temperature (F) Specific Conductivity (mS/cm) pH   Turbidity (NTU+) DO (mg/L)
12/4/2020 12:00:00 AM 6.3 43.34 0.306 6.48 1.39 11.97
12/4/2020 12:15:00 AM 6.32 43.376 0.306 6.52 1.28 11.94
12/4/2020 12:30:00 AM 6.34 43.412 0.306 6.59 1.15 11.91
12/4/2020 12:45:00 AM 6.36 43.448 0.306 6.65 0.85 11.89
12/4/2020 1:00:00 AM 6.39 43.502 0.306 6.65 0.86 11.85
12/4/2020 1:15:00 AM 6.41 43.538 0.307 6.65 1.16 11.84
12/4/2020 1:30:00 AM 6.43 43.574 0.307 6.66 1.66 11.82
12/4/2020 1:45:00 AM 6.45 43.61 0.308 6.7 0.53 11.79
12/4/2020 2:00:00 AM 6.47 43.646 0.309 6.75 0.81 11.77
12/4/2020 2:15:00 AM 6.48 43.664 0.309 6.73 0.76 11.75
12/4/2020 2:30:00 AM 6.5 43.7 0.309 6.75 0.92 11.72
12/4/2020 2:45:00 AM 6.51 43.718 0.309 6.75 0.86 11.7
12/4/2020 3:00:00 AM 6.52 43.736 0.309 6.75 1.35 11.69
12/4/2020 3:15:00 AM 6.53 43.754 0.308 6.76 0.62 11.67
12/4/2020 3:30:00 AM 6.54 43.772 0.308 6.79 1.91 11.65
12/4/2020 3:45:00 AM 6.54 43.772 0.265 6.82 1.61 11.65
12/4/2020 4:00:00 AM 6.54 43.772 0.307 6.85 1.18 11.62
12/4/2020 4:15:00 AM 6.55 43.79 0.307 6.87 1.75 11.61
12/4/2020 4:30:00 AM 6.56 43.808 0.302 6.9 1.31 11.59
12/4/2020 4:45:00 AM 6.57 43.826 0.283 6.89 0.58 11.58
12/4/2020 5:00:00 AM 6.58 43.844 0.292 6.87 0.65 11.57
12/4/2020 5:15:00 AM 6.59 43.862 0.287 6.85 1.32 11.57
12/4/2020 5:30:00 AM 6.59 43.862 0.277 6.83 1.08 11.54
12/4/2020 5:45:00 AM 6.6 43.88 0.286 6.85 1.79 11.54
12/4/2020 6:00:00 AM 6.6 43.88 0.304 6.84 1.61 11.52
12/4/2020 6:15:00 AM 6.61 43.898 0.278 6.84 0.98 11.51
12/4/2020 6:30:00 AM 6.61 43.898 0.289 6.88 1.82 11.52
12/4/2020 6:45:00 AM 6.62 43.916 0.297 6.85 0.92 11.48
12/4/2020 7:00:00 AM 6.62 43.916 0.279 6.83 1.05 11.49
12/4/2020 7:15:00 AM 6.62 43.916 0.306 6.86 1.49 11.5
12/4/2020 7:30:00 AM 6.63 43.934 0.307 6.85 1.28 11.49
12/4/2020 7:45:00 AM 6.64 43.952 0.307 6.81 0.95 11.5
12/4/2020 8:00:00 AM 6.65 43.97 0.307 6.77 1.39 11.5
12/4/2020 8:15:00 AM 6.65 43.97 0.308 6.78 1.49 11.53
12/4/2020 8:30:00 AM 6.65 43.97 0.308 6.85 1 11.57
12/4/2020 8:45:00 AM 6.67 44.006 0.307 6.9 0.7 11.61
12/4/2020 9:00:00 AM 6.69 44.042 0.307 6.75 0.58 11.66
12/4/2020 9:15:00 AM 6.71 44.078 0.307 6.7 0.85 11.68
12/4/2020 9:30:00 AM 6.72 44.096 0.306 6.66 0.81 11.71
12/4/2020 9:45:00 AM 6.73 44.114 0.306 6.61 1.64 11.72
12/4/2020 10:00:00 AM 6.74 44.132 0.304 6.63 0.52 11.74
12/4/2020 10:15:00 AM 6.76 44.168 0.301 6.58 0.86 11.77
12/4/2020 10:30:00 AM 6.78 44.204 0.302 6.52 0.87 11.8
12/4/2020 10:45:00 AM 6.81 44.258 0.302 6.5 0.94 11.88
12/4/2020 11:00:00 AM 6.85 44.33 0.303 6.41 1.07 11.95
12/4/2020 11:15:00 AM 6.88 44.384 0.303 6.33 0.61 12.03
12/4/2020 11:30:00 AM 6.9 44.42 0.303 6.25 0.56 12.09
12/4/2020 11:45:00 AM 6.92 44.456 0.303 6.25 0.7 12.12
12/4/2020 12:00:00 PM 6.95 44.51 0.304 6.2 3.19 12.16
12/4/2020 12:15:00 PM 6.97 44.546 0.307 6.2 1.6 12.23
12/4/2020 12:30:00 PM 6.98 44.564 0.305 6.19 0.43 12.28
12/4/2020 12:45:00 PM 7 44.6 0.288 6.2 0.37 12.29
12/4/2020 1:00:00 PM 7.01 44.618 0.301 6.22 0.66 12.29
12/4/2020 1:15:00 PM 7.02 44.636 0.305 6.23 0.41 12.26
12/4/2020 1:30:00 PM 7.04 44.672 0.308 6.25 0.6 12.28
12/4/2020 1:45:00 PM 7.06 44.708 0.308 6.32 0.61 12.3
12/4/2020 2:00:00 PM 7.08 44.744 0.308 6.44 0.27 12.33
12/4/2020 2:15:00 PM 7.09 44.762 0.308 6.5 0.58 12.31
12/4/2020 2:30:00 PM 7.11 44.798 0.308 6.53 1.41 12.32
12/4/2020 2:45:00 PM 7.12 44.816 0.308 6.57 0.35 12.32
12/4/2020 3:00:00 PM 7.13 44.834 0.282 6.61 0.45 12.32
12/4/2020 3:15:00 PM 7.15 44.87 0.284 6.65 0.42 12.34
12/4/2020 3:30:00 PM 7.15 44.87 0.304 6.69 0.71 12.32
12/4/2020 3:45:00 PM 7.16 44.888 0.304 6.72 0.31 12.28
12/4/2020 4:00:00 PM 7.16 44.888 0.305 6.74 1.04 12.25
12/4/2020 4:15:00 PM 7.16 44.888 0.305 6.76 0.55 12.2
12/4/2020 4:30:00 PM 7.16 44.888 0.303 6.78 0.52 12.15
12/4/2020 4:45:00 PM 7.16 44.888 0.304 6.77 0.6 12.11
12/4/2020 5:00:00 PM 7.16 44.888 0.306 6.79 0.43 12.04
12/4/2020 5:15:00 PM 7.17 44.906 0.306 6.82 1.04 12
12/4/2020 5:30:00 PM 7.17 44.906 0.306 6.79 0.59 11.96
12/4/2020 5:45:00 PM 7.17 44.906 0.306 6.81 1.53 11.9
12/4/2020 6:00:00 PM 7.18 44.924 0.28 6.81 0.32 11.87
12/4/2020 6:15:00 PM 7.19 44.942 0.306 6.79 1.02 11.84
12/4/2020 6:30:00 PM 7.19 44.942 0.294 6.77 0.92 11.8
12/4/2020 6:45:00 PM 7.2 44.96 0.306 6.76 0.6 11.77
12/4/2020 7:00:00 PM 7.21 44.978 0.27 6.76 1.01 11.73
12/4/2020 7:15:00 PM 7.22 44.996 0.261 6.75 1.09 11.71
12/4/2020 7:30:00 PM 7.23 45.014 0.264 6.76 0.46 11.67
12/4/2020 7:45:00 PM 7.24 45.032 0.278 6.74 0.92 11.62
12/4/2020 8:00:00 PM 7.24 45.032 0.267 6.74 1.02 11.59
12/4/2020 8:15:00 PM 7.25 45.05 0.3 6.72 1.09 11.55
12/4/2020 8:30:00 PM 7.26 45.068 0.288 6.72 0.75 11.53
12/4/2020 8:45:00 PM 7.27 45.086 0.306 6.74 0.75 11.5
12/4/2020 9:00:00 PM 7.27 45.086 0.305 6.76 1.63 11.48
12/4/2020 9:15:00 PM 7.28 45.104 0.261 6.77 1.45 11.46
12/4/2020 9:30:00 PM 7.29 45.122 0.263 6.78 1 11.44
12/4/2020 9:45:00 PM 7.3 45.14 0.263 6.77 2.39 11.42
12/4/2020 10:00:00 PM 7.31 45.158 0.295 6.77 1.03 11.4
12/4/2020 10:15:00 PM 7.32 45.176 0.307 6.78 0.96 11.4
12/4/2020 10:30:00 PM 7.33 45.194 0.308 6.8 1.94 11.37
12/4/2020 10:45:00 PM 7.34 45.212 0.308 6.8 0.87 11.36
12/4/2020 11:00:00 PM 7.35 45.23 0.29 6.8 1.16 11.34
12/4/2020 11:15:00 PM 7.36 45.248 0.309 6.81 1.07 11.33
12/4/2020 11:30:00 PM 7.37 45.266 0.309 6.8 1.25 11.32
12/4/2020 11:45:00 PM 7.37 45.266 0.309 6.8 1.74 11.31
12/5/2020 12:00:00 AM 7.38 45.284 0.309 6.82 1.02 11.28
12/5/2020 12:15:00 AM 7.38 45.284 0.309 6.84 0.63 11.27
12/5/2020 12:30:00 AM 7.38 45.284 0.309 6.86 0.89 11.23
12/5/2020 12:45:00 AM 7.39 45.302 0.309 6.86 1.2 11.25
12/5/2020 1:00:00 AM 7.39 45.302 0.309 6.86 1.17 11.24
12/5/2020 1:15:00 AM 7.4 45.32 0.31 6.85 0.9 11.23
12/5/2020 1:30:00 AM 7.41 45.338 0.31 6.83 1.09 11.22
12/5/2020 1:45:00 AM 7.42 45.356 0.311 6.82 1.31 11.2
12/5/2020 2:00:00 AM 7.43 45.374 0.312 6.8 1.21 11.18
12/5/2020 2:15:00 AM 7.44 45.392 0.312 6.79 0.69 11.16
12/5/2020 2:30:00 AM 7.44 45.392 0.312 6.77 0.99 11.17
12/5/2020 2:45:00 AM 7.45 45.41 0.312 6.76 1.01 11.16
12/5/2020 3:00:00 AM 7.46 45.428 0.311 6.75 1.26 11.15
12/5/2020 3:15:00 AM 7.46 45.428 0.311 6.74 0.98 11.14
12/5/2020 3:30:00 AM 7.47 45.446 0.311 6.75 0.61 11.13
12/5/2020 3:45:00 AM 7.47 45.446 0.311 6.73 1.12 11.11
12/5/2020 4:00:00 AM 7.48 45.464 0.311 6.73 1.15 11.1
12/5/2020 4:15:00 AM 7.49 45.482 0.311 6.73 1.48 11.09
12/5/2020 4:30:00 AM 7.49 45.482 0.312 6.73 1.06 11.1
12/5/2020 4:45:00 AM 7.49 45.482 0.312 6.76 2.14 11.08
12/5/2020 5:00:00 AM 7.49 45.482 0.312 6.78 1.82 11.07
12/5/2020 5:15:00 AM 7.49 45.482 0.312 6.79 2.94 11.06
12/5/2020 5:30:00 AM 7.48 45.464 0.312 6.83 2.12 11.06
12/5/2020 5:45:00 AM 7.47 45.446 0.312 6.87 0.94 11.06
12/5/2020 6:00:00 AM 7.46 45.428 0.312 6.92 1.12 11.04
12/5/2020 6:15:00 AM 7.45 45.41 0.312 6.92 1.15 11.06
12/5/2020 6:30:00 AM 7.45 45.41 0.312 6.9 3.37 11.05
12/5/2020 6:45:00 AM 7.45 45.41 0.312 6.9 2.42 11.04
12/5/2020 7:00:00 AM 7.45 45.41 0.312 6.88 2.29 11.04
12/5/2020 7:15:00 AM 7.45 45.41 0.313 6.87 3.93 11.01
12/5/2020 7:30:00 AM 7.45 45.41 0.313 6.87 1.41 11.03
12/5/2020 7:45:00 AM 7.45 45.41 0.313 6.86 1.6 11.04
12/5/2020 8:00:00 AM 7.45 45.41 0.313 6.85 2.47 11.06
12/5/2020 8:15:00 AM 7.46 45.428 0.313 6.85 1.49 11.08
12/5/2020 8:30:00 AM 7.47 45.446 0.313 6.83 1.52 11.12
12/5/2020 8:45:00 AM 7.48 45.464 0.313 6.81 1 11.18
12/5/2020 9:00:00 AM 7.49 45.482 0.312 6.78 1.19 11.27
12/5/2020 9:15:00 AM 7.5 45.5 0.313 6.76 1.15 11.33
12/5/2020 9:30:00 AM 7.5 45.5 0.313 6.75 1.92 11.37
12/5/2020 9:45:00 AM 7.51 45.518 0.314 6.74 0.98 11.38
12/5/2020 10:00:00 AM 7.52 45.536 0.314 6.73 0.99 11.41
12/5/2020 10:15:00 AM 7.54 45.572 0.315 6.73 2.99 11.46
12/5/2020 10:30:00 AM 7.56 45.608 0.316 6.71 1.18 11.52
12/5/2020 10:45:00 AM 7.57 45.626 0.316 6.71 0.96 11.58
12/5/2020 11:00:00 AM 7.57 45.626 0.317 6.72 0.81 11.6
12/5/2020 11:15:00 AM 7.6 45.68 0.317 6.71 1.14 11.67
12/5/2020 11:30:00 AM 7.62 45.716 0.317 6.7 1.51 11.77
12/5/2020 11:45:00 AM 7.66 45.788 0.317 6.71 0.96 11.89
12/5/2020 12:00:00 PM 7.7 45.86 0.317 6.71 1.76 12.01
12/5/2020 12:15:00 PM 7.68 45.824 0.317 6.77 1.09 12.06
12/5/2020 12:30:00 PM 7.68 45.824 0.317 6.79 0.97 12.07
12/5/2020 12:45:00 PM 7.7 45.86 0.318 6.8 1.3 12.12
12/5/2020 1:00:00 PM 7.72 45.896 0.318 6.84 1.53 12.24
12/5/2020 1:15:00 PM 7.73 45.914 0.319 6.89 0.93 12.28
12/5/2020 1:30:00 PM 7.74 45.932 0.319 6.92 1.08 12.33
12/5/2020 1:45:00 PM 7.74 45.932 0.319 6.94 1.21 12.35
12/5/2020 2:00:00 PM 7.74 45.932 0.319 6.99 1.29 12.38
12/5/2020 2:15:00 PM 7.75 45.95 0.319 6.99 1.11 12.46
12/5/2020 2:30:00 PM 7.75 45.95 0.319 7.04 1.06 12.48
12/5/2020 2:45:00 PM 7.74 45.932 0.319 7.07 0.74 12.48
12/5/2020 3:00:00 PM 7.73 45.914 0.319 7.08 1.1 12.48
12/5/2020 3:15:00 PM 7.72 45.896 0.319 7.1 1.05 12.45
12/5/2020 3:30:00 PM 7.7 45.86 0.319 7.14 0.94 12.43
12/5/2020 3:45:00 PM 7.68 45.824 0.32 7.15 0.86 12.37
12/5/2020 4:00:00 PM 7.66 45.788 0.32 7.14 0.97 12.31
12/5/2020 4:15:00 PM 7.64 45.752 0.32 7.15 0.86 12.25
12/5/2020 4:30:00 PM 7.62 45.716 0.32 7.16 1.35 12.19
12/5/2020 4:45:00 PM 7.61 45.698 0.32 7.16 1.21 12.14
12/5/2020 5:00:00 PM 7.58 45.644 0.32 7.15 1.12 12.08
12/5/2020 5:15:00 PM 7.55 45.59 0.32 7.16 1.04 12.04
12/5/2020 5:30:00 PM 7.53 45.554 0.32 7.14 1.32 11.97
12/5/2020 5:45:00 PM 7.52 45.536 0.32 7.14 1.13 11.93
12/5/2020 6:00:00 PM 7.5 45.5 0.319 7.15 0.41 11.9
12/5/2020 6:15:00 PM 7.48 45.464 0.319 7.14 1.06 11.85
12/5/2020 6:30:00 PM 7.46 45.428 0.319 7.15 1.11 11.79
12/5/2020 6:45:00 PM 7.44 45.392 0.319 7.16 1.04 11.76
12/5/2020 7:00:00 PM 7.42 45.356 0.319 7.15 1 11.7
12/5/2020 7:15:00 PM 7.41 45.338 0.319 7.14 1.23 11.66
12/5/2020 7:30:00 PM 7.39 45.302 0.318 7.14 1.32 11.65
12/5/2020 7:45:00 PM 7.38 45.284 0.318 7.13 0.84 11.59
12/5/2020 8:00:00 PM 7.36 45.248 0.318 7.11 0.91 11.55
12/5/2020 8:15:00 PM 7.34 45.212 0.318 7.12 3.13 11.53
12/5/2020 8:30:00 PM 7.32 45.176 0.318 7.13 1.5 11.5
12/5/2020 8:45:00 PM 7.31 45.158 0.317 7.15 1.37 11.47
12/5/2020 9:00:00 PM 7.3 45.14 0.317 7.17 1.1 11.45
12/5/2020 9:15:00 PM 7.29 45.122 0.317 7.19 1.03 11.44
12/5/2020 9:30:00 PM 7.27 45.086 0.317 7.21 1.07 11.42
12/5/2020 9:45:00 PM 7.26 45.068 0.317 7.25 1.8 11.39
12/5/2020 10:00:00 PM 7.24 45.032 0.317 7.27 2.41 11.4
12/5/2020 10:15:00 PM 7.22 44.996 0.318 7.31 2.8 11.39
12/5/2020 10:30:00 PM 7.19 44.942 0.318 7.4 1.04 11.36
12/5/2020 10:45:00 PM 7.16 44.888 0.318 7.48 2.89 11.37
12/5/2020 11:00:00 PM 7.12 44.816 0.318 7.52 1.51 11.36
12/5/2020 11:15:00 PM 7.09 44.762 0.318 7.53 1.15 11.36
12/5/2020 11:30:00 PM 7.07 44.726 0.317 7.57 1.86 11.35
12/5/2020 11:45:00 PM 7.05 44.69 0.317 7.61 2.03 11.34
12/6/2020 12:00:00 AM 7.04 44.672 0.317 7.59 2.01 11.33
12/6/2020 12:15:00 AM 7.01 44.618 0.317 7.59 2.74 11.32
12/6/2020 12:30:00 AM 6.99 44.582 0.317 7.58 3.17 11.32
12/6/2020 12:45:00 AM 6.97 44.546 0.318 7.6 3.27 11.31
12/6/2020 1:00:00 AM 6.95 44.51 0.318 7.63 2.14 11.32
12/6/2020 1:15:00 AM 6.92 44.456 0.319 7.65 2.85 11.32
12/6/2020 1:30:00 AM 6.89 44.402 0.319 7.67 2.39 11.31
12/6/2020 1:45:00 AM 6.86 44.348 0.319 7.67 2.03 11.29
12/6/2020 2:00:00 AM 6.82 44.276 0.319 7.69 2.39 11.31
12/6/2020 2:15:00 AM 6.79 44.222 0.319 7.69 1.56 11.31
12/6/2020 2:30:00 AM 6.75 44.15 0.318 7.7 1.85 11.32
12/6/2020 2:45:00 AM 6.71 44.078 0.318 7.71 0.96 11.33
12/6/2020 3:00:00 AM 6.68 44.024 0.317 7.71 1.24 11.34
12/6/2020 3:15:00 AM 6.64 43.952 0.317 7.72 1.69 11.35
12/6/2020 3:30:00 AM 6.61 43.898 0.317 7.73 1.37 11.33
12/6/2020 3:45:00 AM 6.57 43.826 0.317 7.73 1.22 11.36
12/6/2020 4:00:00 AM 6.54 43.772 0.317 7.73 3.92 11.35
12/6/2020 4:15:00 AM 6.5 43.7 0.317 7.71 1.75 11.36
12/6/2020 4:30:00 AM 6.47 43.646 0.318 7.71 1.71 11.35
12/6/2020 4:45:00 AM 6.44 43.592 0.318 7.71 1.43 11.37
12/6/2020 5:00:00 AM 6.42 43.556 0.317 7.69 0.83 11.36
12/6/2020 5:15:00 AM 6.41 43.538 0.317 7.63 1.5 11.38
12/6/2020 5:30:00 AM 6.39 43.502 0.317 7.61 1.52 11.4
12/6/2020 5:45:00 AM 6.36 43.448 0.316 7.6 1.6 11.39
12/6/2020 6:00:00 AM 6.33 43.394 0.316 7.6 0.84 11.41
12/6/2020 6:15:00 AM 6.3 43.34 0.315 7.64 2.3 11.42
12/6/2020 6:30:00 AM 6.26 43.268 0.315 7.66 1.96 11.41
12/6/2020 6:45:00 AM 6.22 43.196 0.315 7.68 1.1 11.42
12/6/2020 7:00:00 AM 6.2 43.16 0.316 7.7 1.39 11.44
12/6/2020 7:15:00 AM 6.17 43.106 0.316 7.71 1.42 11.44
12/6/2020 7:30:00 AM 6.14 43.052 0.317 7.7 1.87 11.47
12/6/2020 7:45:00 AM 6.12 43.016 0.317 7.7 1.68 11.47
12/6/2020 8:00:00 AM 6.11 42.998 0.317 7.68 1.37 11.52
12/6/2020 8:15:00 AM 6.1 42.98 0.317 7.61 1.94 11.57
12/6/2020 8:30:00 AM 6.09 42.962 0.316 7.58 1.89 11.65
12/6/2020 8:45:00 AM 6.06 42.908 0.316 7.58 1.58 11.71
12/6/2020 9:00:00 AM 6.07 42.926 0.315 7.6 1.19 11.78
12/6/2020 9:15:00 AM 6.09 42.962 0.315 7.51 1.13 11.86
12/6/2020 9:30:00 AM 6.16 43.088 0.315 7.4 1.18 11.95
12/6/2020 9:45:00 AM 6.22 43.196 0.315 7.33 0.92 12.1
12/6/2020 10:00:00 AM 6.24 43.232 0.315 7.31 1.6 12.24
12/6/2020 10:15:00 AM 6.26 43.268 0.315 7.31 1.54 12.29
12/6/2020 10:30:00 AM 6.26 43.268 0.316 7.26 0.83 12.37
12/6/2020 10:45:00 AM 6.28 43.304 0.316 7.2 0.86 12.44
12/6/2020 11:00:00 AM 6.32 43.376 0.316 7.13 0.94 12.53
12/6/2020 11:15:00 AM 6.37 43.466 0.315 7.05 0.99 12.62
12/6/2020 11:30:00 AM 6.41 43.538 0.315 7.07 1.06 12.7
12/6/2020 11:45:00 AM 6.41 43.538 0.314 7.12 0.86 12.77
12/6/2020 12:00:00 PM 6.45 43.61 0.314 7.09 0.83 12.83
12/6/2020 12:15:00 PM 6.48 43.664 0.313 7.06 0.65 12.88
12/6/2020 12:30:00 PM 6.54 43.772 0.313 7.02 0.8 12.96
12/6/2020 12:45:00 PM 6.57 43.826 0.313 7.06 0.78 13.02
12/6/2020 1:00:00 PM 6.61 43.898 0.312 7.11 2.04 13.08
12/6/2020 1:15:00 PM 6.64 43.952 0.312 7.05 0.79 13.12
12/6/2020 1:30:00 PM 6.69 44.042 0.312 6.96 1.26 13.17
12/6/2020 1:45:00 PM 6.72 44.096 0.312 7.08 0.95 13.21
12/6/2020 2:00:00 PM 6.74 44.132 0.312 7.07 0.96 13.23
12/6/2020 2:15:00 PM 6.76 44.168 0.311 7.04 1.35 13.27
12/6/2020 2:30:00 PM 6.75 44.15 0.311 7.17 0.85 13.25
12/6/2020 2:45:00 PM 6.75 44.15 0.31 7.14 1.05 13.25
12/6/2020 3:00:00 PM 6.75 44.15 0.31 7.23 0.86 13.28
12/6/2020 3:15:00 PM 6.74 44.132 0.31 7.24 0.95 13.25
12/6/2020 3:30:00 PM 6.71 44.078 0.309 7.33 0.58 13.19
12/6/2020 3:45:00 PM 6.67 44.006 0.309 7.46 0.96 13.15
12/6/2020 4:00:00 PM 6.63 43.934 0.309 7.55 0.8 13.07
12/6/2020 4:15:00 PM 6.58 43.844 0.309 7.64 0.92 13.02
12/6/2020 4:30:00 PM 6.53 43.754 0.309 7.69 0.88 12.96
12/6/2020 4:45:00 PM 6.49 43.682 0.309 7.76 1.02 12.88
12/6/2020 5:00:00 PM 6.45 43.61 0.292 7.79 0.69 12.81
12/6/2020 5:15:00 PM 6.41 43.538 0.298 7.83 1.01 12.72
12/6/2020 5:30:00 PM 6.36 43.448 0.308 7.88 0.69 12.66
12/6/2020 5:45:00 PM 6.33 43.394 0.304 7.88 0.82 12.61
12/6/2020 6:00:00 PM 6.29 43.322 0.301 7.92 0.94 12.54
12/6/2020 6:15:00 PM 6.25 43.25 0.308 7.93 0.48 12.51
12/6/2020 6:30:00 PM 6.21 43.178 0.307 7.96 0.62 12.44
12/6/2020 6:45:00 PM 6.18 43.124 0.307 7.95 0.79 12.38
12/6/2020 7:00:00 PM 6.15 43.07 0.308 7.94 1 12.32
12/6/2020 7:15:00 PM 6.12 43.016 0.307 7.95 0.98 12.29
12/6/2020 7:30:00 PM 6.09 42.962 0.307 7.97 0.82 12.26
12/6/2020 7:45:00 PM 6.05 42.89 0.308 7.97 1.12 12.22
12/6/2020 8:00:00 PM 6.02 42.836 0.307 7.97 1.42 12.19
12/6/2020 8:15:00 PM 5.99 42.782 0.307 7.97 2.08 12.15
12/6/2020 8:30:00 PM 5.96 42.728 0.307 7.99 0.78 12.11
12/6/2020 8:45:00 PM 5.92 42.656 0.307 7.99 0.62 12.09
12/6/2020 9:00:00 PM 5.89 42.602 0.307 7.99 0.73 12.09
12/6/2020 9:15:00 PM 5.84 42.512 0.307 7.99 1.05 12.05
12/6/2020 9:30:00 PM 5.81 42.458 0.307 8 0.79 12.04
12/6/2020 9:45:00 PM 5.78 42.404 0.307 8 1.22 12.01
12/6/2020 10:00:00 PM 5.75 42.35 0.307 8 1.51 12.01
12/6/2020 10:15:00 PM 5.71 42.278 0.308 7.99 1.3 11.99
12/6/2020 10:30:00 PM 5.69 42.242 0.308 8 1.63 11.99
12/6/2020 10:45:00 PM 5.67 42.206 0.308 7.99 1.18 11.97
12/6/2020 11:00:00 PM 5.64 42.152 0.301 8 1.1 11.97
12/6/2020 11:15:00 PM 5.62 42.116 0.307 7.99 1.1 11.96
12/6/2020 11:30:00 PM 5.59 42.062 0.309 7.99 1.12 11.95
12/6/2020 11:45:00 PM 5.57 42.026 0.308 7.99 1 11.96
12/7/2020 12:00:00 AM 5.54 41.972 0.308 8 0.77 11.95
12/7/2020 12:15:00 AM 5.51 41.918 0.308 8 0.9 11.94
12/7/2020 12:30:00 AM 5.48 41.864 0.307 8 0.99 11.93
12/7/2020 12:45:00 AM 5.46 41.828 0.308 8 1.23 11.93
12/7/2020 1:00:00 AM 5.43 41.774 0.308 8 2.3 11.92
12/7/2020 1:15:00 AM 5.41 41.738 0.309 7.99 1.15 11.92
12/7/2020 1:30:00 AM 5.39 41.702 0.309 7.99 0.97 11.91
12/7/2020 1:45:00 AM 5.36 41.648 0.31 7.99 0.98 11.89
12/7/2020 2:00:00 AM 5.33 41.594 0.31 7.98 1.05 11.91
12/7/2020 2:15:00 AM 5.31 41.558 0.31 7.98 1.27 11.93
12/7/2020 2:30:00 AM 5.29 41.522 0.31 7.98 1.31 11.9
12/7/2020 2:45:00 AM 5.26 41.468 0.308 7.98 0.8 11.92
12/7/2020 3:00:00 AM 5.22 41.396 0.309 7.98 1.04 11.9
12/7/2020 3:15:00 AM 5.18 41.324 0.292 7.98 1.25 11.93
12/7/2020 3:30:00 AM 5.14 41.252 0.304 7.98 1.06 11.93
12/7/2020 3:45:00 AM 5.1 41.18 0.301 7.98 0.92 11.93
12/7/2020 4:00:00 AM 5.06 41.108 0.308 7.97 1.32 11.94
12/7/2020 4:15:00 AM 5.03 41.054 0.301 7.97 1.03 11.96
12/7/2020 4:30:00 AM 4.99 40.982 0.309 7.97 1.13 11.96
12/7/2020 4:45:00 AM 4.95 40.91 0.298 7.96 1.32 11.97
12/7/2020 5:00:00 AM 4.92 40.856 0.31 7.96 1.9 11.97
12/7/2020 5:15:00 AM 4.88 40.784 0.31 7.96 1.17 11.95
12/7/2020 5:30:00 AM 4.84 40.712 0.281 7.96 0.71 11.96
12/7/2020 5:45:00 AM 4.8 40.64 0.308 7.95 1.32 11.98
12/7/2020 6:00:00 AM 4.77 40.586 0.308 7.95 1.08 12.01
12/7/2020 6:15:00 AM 4.72 40.496 0.309 7.95 0.83 12.02
12/7/2020 6:30:00 AM 4.67 40.406 0.308 7.95 1.45 12
12/7/2020 6:45:00 AM 4.62 40.316 0.309 7.95 1.71 12.03
12/7/2020 7:00:00 AM 4.59 40.262 0.309 7.95 1.24 12.05
12/7/2020 7:15:00 AM 4.55 40.19 0.309 7.94 1.37 12.05
12/7/2020 7:30:00 AM 4.52 40.136 0.31 7.94 1.03 12.03
12/7/2020 7:45:00 AM 4.51 40.118 0.31 7.93 1.44 12.1
12/7/2020 8:00:00 AM 4.49 40.082 0.31 7.93 0.89 12.16
12/7/2020 8:15:00 AM 4.49 40.082 0.31 7.92 0.97 12.24
12/7/2020 8:30:00 AM 4.49 40.082 0.31 7.92 0.8 12.32
12/7/2020 8:45:00 AM 4.51 40.118 0.31 7.9 1.08 12.41
12/7/2020 9:00:00 AM 4.52 40.136 0.31 7.88 1 12.5
12/7/2020 9:15:00 AM 4.53 40.154 0.31 7.86 0.7 12.58
12/7/2020 9:30:00 AM 4.54 40.172 0.309 7.84 0.85 12.67
12/7/2020 9:45:00 AM 4.57 40.226 0.309 7.79 0.96 12.75
12/7/2020 10:00:00 AM 4.61 40.298 0.309 7.75 0.71 12.8
12/7/2020 10:15:00 AM 4.65 40.37 0.309 7.71 0.74 12.94
12/7/2020 10:30:00 AM 4.71 40.478 0.31 7.62 1.07 13.02
12/7/2020 10:45:00 AM 4.75 40.55 0.31 7.58 1.11 13.11
12/7/2020 11:00:00 AM 4.78 40.604 0.31 7.59 0.66 13.15
12/7/2020 11:15:00 AM 4.83 40.694 0.311 7.54 1.99 13.2
12/7/2020 11:30:00 AM 4.86 40.748 0.31 7.55 0.73 13.26
12/7/2020 11:45:00 AM 4.9 40.82 0.31 7.51 0.95 13.34
12/7/2020 12:00:00 PM 4.96 40.928 0.31 7.49 0.95 13.36
12/7/2020 12:15:00 PM 4.99 40.982 0.31 7.49 0.72 13.44
12/7/2020 12:30:00 PM 5.02 41.036 0.309 7.41 0.5 13.49
12/7/2020 12:45:00 PM 5.05 41.09 0.309 7.4 0.49 13.55
12/7/2020 1:00:00 PM 5.08 41.144 0.309 7.3 0.75 13.59
12/7/2020 1:15:00 PM 5.1 41.18 0.309 7.28 0.74 13.62
12/7/2020 1:30:00 PM 5.12 41.216 0.309 7.26 0.85 13.65
12/7/2020 1:45:00 PM 5.14 41.252 0.309 7.2 0.46 13.65
12/7/2020 2:00:00 PM 5.16 41.288 0.309 7.12 1.03 13.66
12/7/2020 2:15:00 PM 5.17 41.306 0.309 7.09 1.12 13.7
12/7/2020 2:30:00 PM 5.17 41.306 0.309 7.11 0.56 13.71
12/7/2020 2:45:00 PM 5.18 41.324 0.309 7.02 0.75 13.7
12/7/2020 3:00:00 PM 5.16 41.288 0.309 7.05 0.83 13.71
12/7/2020 3:15:00 PM 5.15 41.27 0.309 7.05 0.67 13.68
12/7/2020 3:30:00 PM 5.12 41.216 0.308 7.13 0.76 13.64
12/7/2020 3:45:00 PM 5.09 41.162 0.308 7.12 1.6 13.61
12/7/2020 4:00:00 PM 5.06 41.108 0.308 7.22 2.09 13.54
12/7/2020 4:15:00 PM 5.03 41.054 0.308 7.32 2.03 13.5
12/7/2020 4:30:00 PM 4.99 40.982 0.308 7.44 0.99 13.44
12/7/2020 4:45:00 PM 4.96 40.928 0.308 7.51 0.88 13.39
12/7/2020 5:00:00 PM 4.94 40.892 0.307 7.62 1.02 13.31
12/7/2020 5:15:00 PM 4.93 40.874 0.308 7.66 0.81 13.24
12/7/2020 5:30:00 PM 4.9 40.82 0.274 7.75 0.78 13.18
12/7/2020 5:45:00 PM 4.87 40.766 0.295 7.89 0.71 13.13
12/7/2020 6:00:00 PM 4.84 40.712 0.307 7.95 0.91 13.04
12/7/2020 6:15:00 PM 4.82 40.676 0.307 7.98 0.54 13.01
12/7/2020 6:30:00 PM 4.79 40.622 0.307 8.01 1.28 12.94
12/7/2020 6:45:00 PM 4.76 40.568 0.306 8.02 2.62 12.89
12/7/2020 7:00:00 PM 4.74 40.532 0.306 8.04 0.38 12.88
12/7/2020 7:15:00 PM 4.72 40.496 0.306 8.04 1.4 12.8
12/7/2020 7:30:00 PM 4.69 40.442 0.306 8.04 1.08 12.77
12/7/2020 7:45:00 PM 4.67 40.406 0.307 8.03 0.74 12.74
12/7/2020 8:00:00 PM 4.65 40.37 0.307 8.03 0.93 12.69
12/7/2020 8:15:00 PM 4.63 40.334 0.307 8.01 0.82 12.67
12/7/2020 8:30:00 PM 4.61 40.298 0.307 8 0.83 12.64
12/7/2020 8:45:00 PM 4.6 40.28 0.306 8 1.26 12.62
12/7/2020 9:00:00 PM 4.58 40.244 0.306 7.99 0.99 12.6
12/7/2020 9:15:00 PM 4.57 40.226 0.306 8 0.88 12.57
12/7/2020 9:30:00 PM 4.55 40.19 0.306 7.99 0.85 12.54
12/7/2020 9:45:00 PM 4.54 40.172 0.294 7.97 1.01 12.5
12/7/2020 10:00:00 PM 4.53 40.154 0.307 7.96 1.03 12.49
12/7/2020 10:15:00 PM 4.53 40.154 0.307 7.95 0.95 12.47
12/7/2020 10:30:00 PM 4.52 40.136 0.308 7.94 0.85 12.45
12/7/2020 10:45:00 PM 4.51 40.118 0.304 7.93 1.05 12.45
12/7/2020 11:00:00 PM 4.51 40.118 0.309 7.93 1.15 12.42
12/7/2020 11:15:00 PM 4.5 40.1 0.309 7.94 0.94 12.4
12/7/2020 11:30:00 PM 4.5 40.1 0.298 7.93 1.14 12.37
12/7/2020 11:45:00 PM 4.49 40.082 0.309 7.92 0.84 12.37
12/8/2020 12:00:00 AM 4.49 40.082 0.307 7.92 1.5 12.36
12/8/2020 12:15:00 AM 4.47 40.046 0.309 7.93 0.86 12.34
12/8/2020 12:30:00 AM 4.46 40.028 0.309 7.93 1.2 12.35
12/8/2020 12:45:00 AM 4.46 40.028 0.309 7.93 0.89 12.32
12/8/2020 1:00:00 AM 4.44 39.992 0.309 7.92 0.77 12.32
12/8/2020 1:15:00 AM 4.44 39.992 0.309 7.92 1.05 12.32
12/8/2020 1:30:00 AM 4.43 39.974 0.31 7.91 1.85 12.31
12/8/2020 1:45:00 AM 4.42 39.956 0.311 7.91 0.8 12.29
12/8/2020 2:00:00 AM 4.42 39.956 0.311 7.89 1.26 12.27
12/8/2020 2:15:00 AM 4.41 39.938 0.312 7.88 0.83 12.27
12/8/2020 2:30:00 AM 4.4 39.92 0.312 7.87 1.27 12.27
12/8/2020 2:45:00 AM 4.39 39.902 0.312 7.86 1.44 12.26
12/8/2020 3:00:00 AM 4.39 39.902 0.307 7.84 1.66 12.24
12/8/2020 3:15:00 AM 4.39 39.902 0.311 7.8 0.61 12.25
12/8/2020 3:30:00 AM 4.38 39.884 0.307 7.77 1.01 12.25
12/8/2020 3:45:00 AM 4.38 39.884 0.312 7.75 1.21 12.26
12/8/2020 4:00:00 AM 4.36 39.848 0.309 7.74 0.97 12.23
12/8/2020 4:15:00 AM 4.35 39.83 0.311 7.75 0.84 12.26
12/8/2020 4:30:00 AM 4.32 39.776 0.312 7.74 1.79 12.26
12/8/2020 4:45:00 AM 4.32 39.776 0.303 7.71 0.68 12.24
12/8/2020 5:00:00 AM 4.31 39.758 0.313 7.68 1.25 12.25
12/8/2020 5:15:00 AM 4.29 39.722 0.304 7.67 0.92 12.28
12/8/2020 5:30:00 AM 4.27 39.686 0.304 7.66 1.14 12.27
12/8/2020 5:45:00 AM 4.25 39.65 0.313 7.68 0.98 12.25
12/8/2020 6:00:00 AM 4.23 39.614 0.292 7.69 1.37 12.28
12/8/2020 6:15:00 AM 4.21 39.578 0.313 7.73 1.12 12.28
12/8/2020 6:30:00 AM 4.18 39.524 0.312 7.76 1.23 12.28
12/8/2020 6:45:00 AM 4.15 39.47 0.312 7.76 1.17 12.29
12/8/2020 7:00:00 AM 4.12 39.416 0.312 7.78 1.08 12.29
12/8/2020 7:15:00 AM 4.1 39.38 0.313 7.78 1.26 12.3
12/8/2020 7:30:00 AM 4.07 39.326 0.313 7.79 1.32 12.32
12/8/2020 7:45:00 AM 4.05 39.29 0.313 7.78 0.92 12.33
12/8/2020 8:00:00 AM 4.04 39.272 0.314 7.76 0.92 12.38
12/8/2020 8:15:00 AM 4.03 39.254 0.314 7.67 0.76 12.43
12/8/2020 8:30:00 AM 4.03 39.254 0.314 7.62 0.62 12.5
12/8/2020 8:45:00 AM 4.01 39.218 0.314 7.59 0.67 12.55
12/8/2020 9:00:00 AM 4.01 39.218 0.314 7.5 0.66 12.63
12/8/2020 9:15:00 AM 4.02 39.236 0.314 7.45 0.58 12.72
12/8/2020 9:30:00 AM 4.04 39.272 0.314 7.43 0.89 12.85
12/8/2020 9:45:00 AM 4.04 39.272 0.314 7.36 0.78 12.92
12/8/2020 10:00:00 AM 4.06 39.308 0.314 7.33 0.48 13
12/8/2020 10:15:00 AM 4.08 39.344 0.314 7.26 0.56 13.09
12/8/2020 10:30:00 AM 4.1 39.38 0.314 7.19 0.66 13.15
12/8/2020 10:45:00 AM 4.13 39.434 0.315 6.98 0.59 13.23
12/8/2020 11:00:00 AM 4.17 39.506 0.315 6.85 0.66 13.27
12/8/2020 11:15:00 AM 4.21 39.578 0.315 6.72 0.59 13.34
12/8/2020 11:30:00 AM 4.24 39.632 0.315 6.6 0.34 13.4
12/8/2020 11:45:00 AM 4.28 39.704 0.315 6.52 0.66 13.47
12/8/2020 12:00:00 PM 4.33 39.794 0.315 6.4 0.43 13.51
12/8/2020 12:15:00 PM 4.37 39.866 0.315 6.33 1.32 13.58
12/8/2020 12:30:00 PM 4.41 39.938 0.314 6.2 0.74 13.61
12/8/2020 12:45:00 PM 4.44 39.992 0.314 6.13 0.43 13.7
12/8/2020 1:00:00 PM 4.47 40.046 0.314 6.07 0.52 13.71
12/8/2020 1:15:00 PM 4.49 40.082 0.313 6.04 0.93 13.74
12/8/2020 1:30:00 PM 4.52 40.136 0.313 5.96 0.54 13.78
12/8/2020 1:45:00 PM 4.56 40.208 0.313 5.96 0.74 13.83
12/8/2020 2:00:00 PM 4.57 40.226 0.313 5.85 0.67 13.85
12/8/2020 2:15:00 PM 4.58 40.244 0.313 5.92 0.59 13.85
12/8/2020 2:30:00 PM 4.6 40.28 0.313 5.69 0.67 13.85
12/8/2020 2:45:00 PM 4.61 40.298 0.313 5.38 0.84 13.83
12/8/2020 3:00:00 PM 4.61 40.298 0.313 5.41 0.35 13.85
12/8/2020 3:15:00 PM 4.61 40.298 0.313 5.61 0.48 13.81
12/8/2020 3:30:00 PM 4.6 40.28 0.312 5.68 0.61 13.8
12/8/2020 3:45:00 PM 4.58 40.244 0.312 5.68 0.48 13.76
12/8/2020 4:00:00 PM 4.56 40.208 0.311 5.78 0.44 13.71
12/8/2020 4:15:00 PM 4.53 40.154 0.311 5.99 1.09 13.66
12/8/2020 4:30:00 PM 4.51 40.118 0.311 6.15 2.42 13.59
12/8/2020 4:45:00 PM 4.48 40.064 0.311 6.13 0.75 13.54
12/8/2020 5:00:00 PM 4.45 40.01 0.311 6.15 0.45 13.47
12/8/2020 5:15:00 PM 4.42 39.956 0.285 6.11 0.09 13.41
12/8/2020 5:30:00 PM 4.4 39.92 0.311 6.25 0.49 13.34
12/8/2020 5:45:00 PM 4.38 39.884 0.288 6.48 0.48 13.29
12/8/2020 6:00:00 PM 4.36 39.848 0.307 6.6 0.6 13.25
12/8/2020 6:15:00 PM 4.34 39.812 0.31 6.61 0.62 13.21
12/8/2020 6:30:00 PM 4.32 39.776 0.31 6.67 0.59 13.16
12/8/2020 6:45:00 PM 4.31 39.758 0.31 6.75 0.81 13.12
12/8/2020 7:00:00 PM 4.3 39.74 0.31 6.86 0.91 13.06
12/8/2020 7:15:00 PM 4.29 39.722 0.31 6.98 0.68 13.02
12/8/2020 7:30:00 PM 4.29 39.722 0.31 7.07 0.81 12.99
12/8/2020 7:45:00 PM 4.27 39.686 0.31 7.21 0.65 12.94
12/8/2020 8:00:00 PM 4.27 39.686 0.31 7.35 1.37 12.93
12/8/2020 8:15:00 PM 4.26 39.668 0.31 7.47 0.66 12.88
12/8/2020 8:30:00 PM 4.24 39.632 0.31 7.55 0.72 12.86
12/8/2020 8:45:00 PM 4.23 39.614 0.303 7.62 1.04 12.82
12/8/2020 9:00:00 PM 4.22 39.596 0.31 7.7 0.69 12.8
12/8/2020 9:15:00 PM 4.22 39.596 0.31 7.58 0.75 12.78
12/8/2020 9:30:00 PM 4.22 39.596 0.31 7.54 0.38 12.74
12/8/2020 9:45:00 PM 4.22 39.596 0.31 7.53 0.79 12.75
12/8/2020 10:00:00 PM 4.21 39.578 0.3 7.57 0.66 12.69
12/8/2020 10:15:00 PM 4.21 39.578 0.302 7.6 1.28 12.67
12/8/2020 10:30:00 PM 4.21 39.578 0.311 7.62 0.95 12.68
12/8/2020 10:45:00 PM 4.21 39.578 0.307 7.67 0.69 12.66
12/8/2020 11:00:00 PM 4.21 39.578 0.298 7.68 1.17 12.63
12/8/2020 11:15:00 PM 4.21 39.578 0.314 7.71 0.84 12.62
12/8/2020 11:30:00 PM 4.21 39.578 0.314 7.77 0.52 12.58
12/8/2020 11:45:00 PM 4.2 39.56 0.315 7.8 0.69 12.59
12/9/2020 12:00:00 AM 4.2 39.56 0.314 7.82 0.69 12.57
12/9/2020 12:15:00 AM 4.2 39.56 0.312 7.84 0.7 12.54
12/9/2020 12:30:00 AM 4.19 39.542 0.314 7.85 0.89 12.54
12/9/2020 12:45:00 AM 4.18 39.524 0.313 7.88 0.45 12.53
12/9/2020 1:00:00 AM 4.17 39.506 0.313 7.9 0.69 12.53
12/9/2020 1:15:00 AM 4.16 39.488 0.313 7.91 0.77 12.52
12/9/2020 1:30:00 AM 4.15 39.47 0.313 7.91 1.57 12.51
12/9/2020 1:45:00 AM 4.15 39.47 0.313 7.91 0.49 12.47
12/9/2020 2:00:00 AM 4.14 39.452 0.313 7.89 0.66 12.49
12/9/2020 2:15:00 AM 4.14 39.452 0.313 7.9 0.72 12.47
12/9/2020 2:30:00 AM 4.14 39.452 0.313 7.9 0.79 12.45
12/9/2020 2:45:00 AM 4.13 39.434 0.313 7.9 1.12 12.48
12/9/2020 3:00:00 AM 4.13 39.434 0.313 7.89 1.05 12.47
12/9/2020 3:15:00 AM 4.13 39.434 0.313 7.89 0.71 12.45
12/9/2020 3:30:00 AM 4.11 39.398 0.312 7.88 0.63 12.45
12/9/2020 3:45:00 AM 4.12 39.416 0.312 7.85 1.46 12.45
12/9/2020 4:00:00 AM 4.11 39.398 0.311 7.84 0.53 12.45
12/9/2020 4:15:00 AM 4.11 39.398 0.31 7.81 1.28 12.43
12/9/2020 4:30:00 AM 4.11 39.398 0.311 7.76 0.82 12.43
12/9/2020 4:45:00 AM 4.1 39.38 0.29 7.74 0.89 12.43
12/9/2020 5:00:00 AM 4.11 39.398 0.312 7.7 1.91 12.41
12/9/2020 5:15:00 AM 4.11 39.398 0.312 7.65 0.81 12.43
12/9/2020 5:30:00 AM 4.11 39.398 0.312 7.64 1.19 12.42
12/9/2020 5:45:00 AM 4.11 39.398 0.312 7.61 0.94 12.43
12/9/2020 6:00:00 AM 4.11 39.398 0.312 7.56 0.67 12.42
12/9/2020 6:15:00 AM 4.12 39.416 0.312 7.56 0.77 12.42
12/9/2020 6:30:00 AM 4.11 39.398 0.312 7.53 1.1 12.4
12/9/2020 6:45:00 AM 4.11 39.398 0.312 7.51 0.73 12.41
12/9/2020 7:00:00 AM 4.1 39.38 0.312 7.52 1.33 12.41
12/9/2020 7:15:00 AM 4.1 39.38 0.312 7.5 0.44 12.42
12/9/2020 7:30:00 AM 4.1 39.38 0.313 7.49 0.78 12.41
12/9/2020 7:45:00 AM 4.1 39.38 0.313 7.46 0.8 12.41
12/9/2020 8:00:00 AM 4.11 39.398 0.314 7.41 1.73 12.43
12/9/2020 8:15:00 AM 4.11 39.398 0.314 7.38 0.41 12.43
12/9/2020 8:30:00 AM 4.12 39.416 0.314 7.33 0.92 12.47
12/9/2020 8:45:00 AM 4.13 39.434 0.315 7.32 0.83 12.5
12/9/2020 9:00:00 AM 4.13 39.434 0.315 7.25 0.41 12.54
12/9/2020 9:15:00 AM 4.14 39.452 0.315 7.21 1.09 12.57
12/9/2020 9:30:00 AM 4.15 39.47 0.314 7.16 0.31 12.6
12/9/2020 9:45:00 AM 4.16 39.488 0.314 7.11 0.48 12.61
12/9/2020 10:00:00 AM 4.16 39.488 0.314 7.05 0.69 12.66
12/9/2020 10:15:00 AM 4.18 39.524 0.314 7.05 0.96 12.68
12/9/2020 10:30:00 AM 4.19 39.542 0.315 6.98 0.66 12.74
12/9/2020 10:45:00 AM 4.21 39.578 0.315 6.89 0.62 12.81
12/9/2020 11:00:00 AM 4.25 39.65 0.315 6.8 0.46 12.87
12/9/2020 11:15:00 AM 4.29 39.722 0.316 6.64 0.55 12.99
12/9/2020 11:30:00 AM 4.33 39.794 0.316 6.5 0.52 13.08
12/9/2020 11:45:00 AM 4.36 39.848 0.316 6.44 0.42 13.18
12/9/2020 12:00:00 PM 4.39 39.902 0.316 6.33 0.58 13.24
12/9/2020 12:15:00 PM 4.43 39.974 0.316 6.22 0.54 13.31
12/9/2020 12:30:00 PM 4.48 40.064 0.316 6.11 0.35 13.4
12/9/2020 12:45:00 PM 4.54 40.172 0.316 6.01 0.49 13.47
12/9/2020 1:00:00 PM 4.58 40.244 0.315 5.96 0.62 13.53
12/9/2020 1:15:00 PM 4.63 40.334 0.316 5.88 0.34 13.53
12/9/2020 1:30:00 PM 4.68 40.424 0.315 5.83 1.25 13.63
12/9/2020 1:45:00 PM 4.73 40.514 0.315 5.72 0.59 13.7
12/9/2020 2:00:00 PM 4.78 40.604 0.315 5.65 0.62 13.76
12/9/2020 2:15:00 PM 4.81 40.658 0.315 5.56 0.45 13.78
12/9/2020 2:30:00 PM 4.84 40.712 0.315 5.41 0.47 13.79
12/9/2020 2:45:00 PM 4.87 40.766 0.315 5.36 0.72 13.8
12/9/2020 3:00:00 PM 4.9 40.82 0.315 5.34 0.63 13.78
12/9/2020 3:15:00 PM 4.92 40.856 0.315 5.3 0.54 13.77
12/9/2020 3:30:00 PM 4.95 40.91 0.315 5.28 0.25 13.71
12/9/2020 3:45:00 PM 4.97 40.946 0.315 5.27 0.6 13.69
12/9/2020 4:00:00 PM 4.98 40.964 0.314 5.28 0.49 13.65
12/9/2020 4:15:00 PM 5 41 0.314 5.3 0.35 13.61
12/9/2020 4:30:00 PM 5.01 41.018 0.314 5.33 0.59 13.53
12/9/2020 4:45:00 PM 5.01 41.018 0.314 5.37 0.43 13.46
12/9/2020 5:00:00 PM 5.02 41.036 0.314 5.49 0.57 13.38
12/9/2020 5:15:00 PM 5.02 41.036 0.302 5.55 3 13.3
12/9/2020 5:30:00 PM 5.02 41.036 0.298 5.6 0.24 13.23
12/9/2020 5:45:00 PM 5.02 41.036 0.314 5.76 0.39 13.18
12/9/2020 6:00:00 PM 5.02 41.036 0.312 5.88 0.43 13.11
12/9/2020 6:15:00 PM 5.03 41.054 0.314 5.97 0.74 13.06
12/9/2020 6:30:00 PM 5.03 41.054 0.307 6 0.4 13.01
12/9/2020 6:45:00 PM 5.03 41.054 0.294 6.12 0.5 12.93
12/9/2020 7:00:00 PM 5.04 41.072 0.306 6.08 0.71 12.87
12/9/2020 7:15:00 PM 5.04 41.072 0.313 6.02 0.69 12.82
12/9/2020 7:30:00 PM 5.05 41.09 0.306 5.95 0.69 12.79
12/9/2020 7:45:00 PM 5.06 41.108 0.314 5.89 0.75 12.71
12/9/2020 8:00:00 PM 5.07 41.126 0.314 5.92 0.57 12.69
12/9/2020 8:15:00 PM 5.08 41.144 0.314 5.87 0.65 12.65
12/9/2020 8:30:00 PM 5.09 41.162 0.314 5.86 0.78 12.59
12/9/2020 8:45:00 PM 5.1 41.18 0.315 5.87 0.76 12.56
12/9/2020 9:00:00 PM 5.11 41.198 0.315 5.91 1.35 12.51
12/9/2020 9:15:00 PM 5.12 41.216 0.315 5.93 0.73 12.47
12/9/2020 9:30:00 PM 5.13 41.234 0.315 5.93 0.55 12.46
12/9/2020 9:45:00 PM 5.14 41.252 0.315 5.9 0.56 12.43
12/9/2020 10:00:00 PM 5.15 41.27 0.315 5.91 1.22 12.37
12/9/2020 10:15:00 PM 5.17 41.306 0.315 5.89 1.1 12.35
12/9/2020 10:30:00 PM 5.18 41.324 0.316 5.92 1.02 12.35
12/9/2020 10:45:00 PM 5.2 41.36 0.317 5.98 0.53 12.3
12/9/2020 11:00:00 PM 5.22 41.396 0.317 6 0.74 12.28
12/9/2020 11:15:00 PM 5.24 41.432 0.318 6.02 1.17 12.27
12/9/2020 11:30:00 PM 5.26 41.468 0.319 6.03 0.62 12.23
12/9/2020 11:45:00 PM 5.28 41.504 0.319 6.05 0.45 12.21
12/10/2020 12:00:00 AM 5.3 41.54 0.318 6.09 1.16 12.21
12/10/2020 12:15:00 AM 5.31 41.558 0.318 6.1 3.67 12.18
12/10/2020 12:30:00 AM 5.33 41.594 0.318 6.1 0.69 12.14
12/10/2020 12:45:00 AM 5.34 41.612 0.318 6.01 3.89 12.14
12/10/2020 1:00:00 AM 5.36 41.648 0.317 5.96 0.8 12.12
12/10/2020 1:15:00 AM 5.38 41.684 0.317 5.89 1.42 12.12
12/10/2020 1:30:00 AM 5.39 41.702 0.318 5.86 0.7 12.07
12/10/2020 1:45:00 AM 5.41 41.738 0.318 5.82 0.54 12.08
12/10/2020 2:00:00 AM 5.43 41.774 0.319 5.8 0.71 12.02
12/10/2020 2:15:00 AM 5.44 41.792 0.319 5.85 0.84 11.51
12/10/2020 2:30:00 AM 5.46 41.828 0.32 5.94 2.86 11.92
12/10/2020 2:45:00 AM 5.46 41.828 0.32 6.09 0.69 12.01
12/10/2020 3:00:00 AM 5.47 41.846 0.32 6.25 0.58 12
12/10/2020 3:15:00 AM 5.49 41.882 0.319 6.38 1.43 12
12/10/2020 3:30:00 AM 5.51 41.918 0.319 6.35 0.27 11.99
12/10/2020 3:45:00 AM 5.52 41.936 0.318 6.39 0.55 11.97
12/10/2020 4:00:00 AM 5.52 41.936 0.318 6.5 0.56 11.94
12/10/2020 4:15:00 AM 5.53 41.954 0.318 6.59 1.44 11.97
12/10/2020 4:30:00 AM 5.55 41.99 0.318 6.56 0.79 11.95
12/10/2020 4:45:00 AM 5.56 42.008 0.318 6.51 1.49 11.94
12/10/2020 5:00:00 AM 5.57 42.026 0.318 6.53 0.34 11.93
12/10/2020 5:15:00 AM 5.59 42.062 0.318 6.46 0.42 11.92
12/10/2020 5:30:00 AM 5.59 42.062 0.318 6.41 0.83 11.9
12/10/2020 5:45:00 AM 5.59 42.062 0.318 6.51 0.52 11.91
12/10/2020 6:00:00 AM 5.6 42.08 0.318 6.62 1.09 11.9
12/10/2020 6:15:00 AM 5.6 42.08 0.317 6.6 0.46 11.89
12/10/2020 6:30:00 AM 5.61 42.098 0.317 6.56 0.94 11.89
12/10/2020 6:45:00 AM 5.6 42.08 0.317 6.53 0.49 11.89
12/10/2020 7:00:00 AM 5.6 42.08 0.317 6.5 1.16 11.9
12/10/2020 7:15:00 AM 5.61 42.098 0.316 6.57 0.79 11.88
12/10/2020 7:30:00 AM 5.61 42.098 0.317 6.53 1.14 11.89
12/10/2020 7:45:00 AM 5.61 42.098 0.317 6.46 0.85 11.9
12/10/2020 8:00:00 AM 5.62 42.116 0.318 6.34 0.66 11.92
12/10/2020 8:15:00 AM 5.64 42.152 0.318 6.28 2.19 11.94
12/10/2020 8:30:00 AM 5.66 42.188 0.318 6.16 0.56 11.97
12/10/2020 8:45:00 AM 5.69 42.242 0.318 6.11 0.3 12.07
12/10/2020 9:00:00 AM 5.71 42.278 0.318 6.08 0.52 12.17
12/10/2020 9:15:00 AM 5.73 42.314 0.318 6.04 0.48 12.21
12/10/2020 9:30:00 AM 5.77 42.386 0.317 5.9 0.23 12.29
12/10/2020 9:45:00 AM 5.82 42.476 0.317 5.85 0.35 12.39
12/10/2020 10:00:00 AM 5.83 42.494 0.317 5.78 0.67 12.5
12/10/2020 10:15:00 AM 5.91 42.638 0.317 5.71 0.31 12.57
12/10/2020 10:30:00 AM 5.94 42.692 0.317 5.66 0.41 12.65
12/10/2020 10:45:00 AM 6.02 42.836 0.317 5.54 0.59 12.79
12/10/2020 11:00:00 AM 6.05 42.89 0.318 5.49 0.23 12.84
12/10/2020 11:15:00 AM 6.09 42.962 0.318 5.47 0.25 12.91
12/10/2020 11:30:00 AM 6.14 43.052 0.318 5.51 0.15 12.95
12/10/2020 11:45:00 AM 6.18 43.124 0.319 5.43 0.84 13.04
12/10/2020 12:00:00 PM 6.24 43.232 0.319 5.45 0.21 13.1
12/10/2020 12:15:00 PM 6.3 43.34 0.319 5.39 0.19 13.16
12/10/2020 12:30:00 PM 6.35 43.43 0.318 5.28 0.57 13.21
12/10/2020 12:45:00 PM 6.39 43.502 0.318 5.32 0.5 13.26
12/10/2020 1:00:00 PM 6.43 43.574 0.319 5.31 0.32 13.31
12/10/2020 1:15:00 PM 6.47 43.646 0.317 5.23 0.31 13.35
12/10/2020 1:30:00 PM 6.52 43.736 0.317 5.2 0.31 13.36
12/10/2020 1:45:00 PM 6.56 43.808 0.317 5.25 0.4 13.42
12/10/2020 2:00:00 PM 6.59 43.862 0.317 5.3 0.38 13.43
12/10/2020 2:15:00 PM 6.63 43.934 0.318 5.34 0.72 13.44
12/10/2020 2:30:00 PM 6.65 43.97 0.318 5.27 0.3 13.44
12/10/2020 2:45:00 PM 6.68 44.024 0.318 5.45 1.01 13.46
12/10/2020 3:00:00 PM 6.69 44.042 0.318 5.35 0.42 13.44
12/10/2020 3:15:00 PM 6.7 44.06 0.317 5.47 0.54 13.42
12/10/2020 3:30:00 PM 6.7 44.06 0.317 5.8 0.34 13.36
12/10/2020 3:45:00 PM 6.69 44.042 0.317 5.66 0.25 13.32
12/10/2020 4:00:00 PM 6.68 44.024 0.317 5.43 0.59 13.26
12/10/2020 4:15:00 PM 6.66 43.988 0.317 5.46 0.43 13.2
12/10/2020 4:30:00 PM 6.63 43.934 0.317 5.63 0.22 13.1
12/10/2020 4:45:00 PM 6.6 43.88 0.316 5.92 0.39 13.04
12/10/2020 5:00:00 PM 6.57 43.826 0.317 6.32 0.57 12.95
12/10/2020 5:15:00 PM 6.54 43.772 0.316 6.74 0.2 12.86
12/10/2020 5:30:00 PM 6.51 43.718 0.316 7.04 0.2 12.8
12/10/2020 5:45:00 PM 6.48 43.664 0.316 7.3 0.27 12.73
12/10/2020 6:00:00 PM 6.44 43.592 0.316 7.6 0.42 12.67
12/10/2020 6:15:00 PM 6.42 43.556 0.316 7.66 0.3 12.59
12/10/2020 6:30:00 PM 6.39 43.502 0.31 7.75 0.39 12.54
12/10/2020 6:45:00 PM 6.34 43.412 0.311 7.84 0.55 12.49
12/10/2020 7:00:00 PM 6.32 43.376 0.31 7.85 0.6 12.44
12/10/2020 7:15:00 PM 6.29 43.322 0.312 7.9 0.89 12.41
12/10/2020 7:30:00 PM 6.26 43.268 0.313 7.94 0.55 12.34
12/10/2020 7:45:00 PM 6.23 43.214 0.313 7.98 0.58 12.34
12/10/2020 8:00:00 PM 6.2 43.16 0.313 7.98 2.35 12.29
12/10/2020 8:15:00 PM 6.17 43.106 0.313 7.99 0.95 12.25
12/10/2020 8:30:00 PM 6.14 43.052 0.314 8 0.75 12.22
12/10/2020 8:45:00 PM 6.11 42.998 0.313 8.01 0.3 12.2
12/10/2020 9:00:00 PM 6.08 42.944 0.312 8.02 0.68 12.15
12/10/2020 9:15:00 PM 6.05 42.89 0.314 8.01 0.45 12.13
12/10/2020 9:30:00 PM 6.03 42.854 0.315 8.01 0.57 12.1
12/10/2020 9:45:00 PM 6 42.8 0.314 8.01 0.45 12.08
12/10/2020 10:00:00 PM 5.97 42.746 0.314 8.01 0.77 12.04
12/10/2020 10:15:00 PM 5.94 42.692 0.314 8.01 0.41 12.03
12/10/2020 10:30:00 PM 5.92 42.656 0.315 8 0.62 12.02
12/10/2020 10:45:00 PM 5.89 42.602 0.315 8 0.83 12
12/10/2020 11:00:00 PM 5.87 42.566 0.315 7.99 0.51 11.98
12/10/2020 11:15:00 PM 5.85 42.53 0.316 7.99 0.59 11.98
12/10/2020 11:30:00 PM 5.83 42.494 0.316 7.99 0.75 11.96
12/10/2020 11:45:00 PM 5.81 42.458 0.316 7.99 0.69 11.96
12/11/2020 12:00:00 AM 5.79 42.422 0.316 7.99 0.92 11.94
12/11/2020 12:15:00 AM 5.77 42.386 0.316 7.99 1.61 11.93
12/11/2020 12:30:00 AM 5.74 42.332 0.316 8 0.51 11.91
12/11/2020 12:45:00 AM 5.72 42.296 0.316 8 1.28 11.91
12/11/2020 1:00:00 AM 5.7 42.26 0.316 7.99 1.65 11.92
12/11/2020 1:15:00 AM 5.67 42.206 0.316 7.98 1.84 11.91
12/11/2020 1:30:00 AM 5.65 42.17 0.316 7.99 1.98 11.88
12/11/2020 1:45:00 AM 5.63 42.134 0.317 7.99 1.28 11.89
12/11/2020 2:00:00 AM 5.61 42.098 0.318 7.98 1.97 11.87
12/11/2020 2:15:00 AM 5.58 42.044 0.318 7.99 1.19 11.85
12/11/2020 2:30:00 AM 5.57 42.026 0.319 7.98 0.91 11.88
12/11/2020 2:45:00 AM 5.56 42.008 0.317 7.97 0.82 11.87
12/11/2020 3:00:00 AM 5.53 41.954 0.32 7.97 0.93 11.85
12/11/2020 3:15:00 AM 5.51 41.918 0.32 7.97 0.46 11.86
12/11/2020 3:30:00 AM 5.48 41.864 0.319 7.97 0.79 11.87
12/11/2020 3:45:00 AM 5.46 41.828 0.319 7.97 0.49 11.84
12/11/2020 4:00:00 AM 5.43 41.774 0.319 7.97 0.66 11.86
12/11/2020 4:15:00 AM 5.4 41.72 0.318 7.97 0.42 11.88
12/11/2020 4:30:00 AM 5.38 41.684 0.318 7.96 0.4 11.89
12/11/2020 4:45:00 AM 5.35 41.63 0.319 7.96 0.71 11.89
12/11/2020 5:00:00 AM 5.33 41.594 0.319 7.96 3.14 11.88
12/11/2020 5:15:00 AM 5.3 41.54 0.319 7.96 0.94 11.89
12/11/2020 5:30:00 AM 5.28 41.504 0.319 7.96 0.9 11.88
12/11/2020 5:45:00 AM 5.25 41.45 0.319 7.95 1.16 11.88
12/11/2020 6:00:00 AM 5.22 41.396 0.319 7.94 0.78 11.9
12/11/2020 6:15:00 AM 5.19 41.342 0.319 7.95 2.24 11.9
12/11/2020 6:30:00 AM 5.16 41.288 0.32 7.94 0.77 11.91
12/11/2020 6:45:00 AM 5.14 41.252 0.316 7.95 0.76 11.92
12/11/2020 7:00:00 AM 5.1 41.18 0.319 7.94 0.29 11.93
12/11/2020 7:15:00 AM 5.07 41.126 0.318 7.94 0.55 11.94
12/11/2020 7:30:00 AM 5.05 41.09 0.318 7.93 0.49 11.96
12/11/2020 7:45:00 AM 5.02 41.036 0.319 7.93 0.53 12
12/11/2020 8:00:00 AM 5 41 0.319 7.93 0.66 12.03
12/11/2020 8:15:00 AM 5 41 0.318 7.9 0.65 12.09
12/11/2020 8:30:00 AM 5 41 0.318 7.89 0.82 12.15
12/11/2020 8:45:00 AM 5.01 41.018 0.32 7.87 0.86 12.25
12/11/2020 9:00:00 AM 5.03 41.054 0.319 7.84 0.68 12.32
12/11/2020 9:15:00 AM 5.04 41.072 0.319 7.78 0.72 12.42
12/11/2020 9:30:00 AM 5.06 41.108 0.319 7.7 0.62 12.52
12/11/2020 9:45:00 AM 5.09 41.162 0.319 7.59 0.21 12.62
12/11/2020 10:00:00 AM 5.13 41.234 0.318 7.47 1.06 12.72
12/11/2020 10:15:00 AM 5.17 41.306 0.318 7.33 0.48 12.8
12/11/2020 10:30:00 AM 5.22 41.396 0.315 7.16 0.27 12.87
12/11/2020 10:45:00 AM 5.28 41.504 0.319 6.96 0.19 12.95
12/11/2020 11:00:00 AM 5.35 41.63 0.319 6.7 0.48 13.03
12/11/2020 11:15:00 AM 5.41 41.738 0.319 6.43 1.03 13.09
12/11/2020 11:30:00 AM 5.48 41.864 0.319 6.23 0.25 13.17
12/11/2020 11:45:00 AM 5.54 41.972 0.319 6.13 0.63 13.23
12/11/2020 12:00:00 PM 5.62 42.116 0.319 5.99 0.8 13.29
12/11/2020 12:15:00 PM 5.68 42.224 0.293 5.88 0.67 13.35
12/11/2020 12:30:00 PM 5.74 42.332 0.319 5.79 0.52 13.42
12/11/2020 12:45:00 PM 5.81 42.458 0.318 5.65 0.58 13.5
12/11/2020 1:00:00 PM 5.87 42.566 0.318 5.64 0.01 13.55
12/11/2020 1:15:00 PM 5.94 42.692 0.318 5.6 0.67 13.58
12/11/2020 1:30:00 PM 6 42.8 0.317 5.6 0.59 13.63
12/11/2020 1:45:00 PM 6.07 42.926 0.317 5.61 0.61 13.71
12/11/2020 2:00:00 PM 6.14 43.052 0.317 5.59 0.34 13.74
12/11/2020 2:15:00 PM 6.2 43.16 0.317 5.6 0.22 13.78
12/11/2020 2:30:00 PM 6.23 43.214 0.317 5.58 0.69 13.78
12/11/2020 2:45:00 PM 6.26 43.268 0.317 5.54 0.65 13.77
12/11/2020 3:00:00 PM 6.29 43.322 0.317 5.54 0.51 13.73
12/11/2020 3:15:00 PM 6.32 43.376 0.316 5.5 0.91 13.72
12/11/2020 3:30:00 PM 6.34 43.412 0.316 5.38 0.25 13.67
12/11/2020 3:45:00 PM 6.36 43.448 0.316 5.41 0.25 13.62
12/11/2020 4:00:00 PM 6.37 43.466 0.315 5.4 0.59 13.57
12/11/2020 4:15:00 PM 6.37 43.466 0.315 5.41 0.49 13.51
12/11/2020 4:30:00 PM 6.37 43.466 0.315 5.32 0.51 13.41
12/11/2020 4:45:00 PM 6.36 43.448 0.314 5.23 0.56 13.34
12/11/2020 5:00:00 PM 6.35 43.43 0.314 5.39 0.33 13.23
12/11/2020 5:15:00 PM 6.33 43.394 0.314 5.57 0.65 13.14
12/11/2020 5:30:00 PM 6.32 43.376 0.314 5.77 0.41 13.06
12/11/2020 5:45:00 PM 6.31 43.358 0.314 5.95 0.58 12.99
12/11/2020 6:00:00 PM 6.3 43.34 0.313 6.23 0.44 12.92
12/11/2020 6:15:00 PM 6.28 43.304 0.311 6.42 0.56 12.86
12/11/2020 6:30:00 PM 6.27 43.286 0.313 6.69 0.51 12.78
12/11/2020 6:45:00 PM 6.25 43.25 0.305 6.93 0.48 12.73
12/11/2020 7:00:00 PM 6.23 43.214 0.312 7.06 0.64 12.66
12/11/2020 7:15:00 PM 6.2 43.16 0.312 7.18 0.43 12.6
12/11/2020 7:30:00 PM 6.17 43.106 0.312 7.36 0.61 12.55
12/11/2020 7:45:00 PM 6.15 43.07 0.294 7.56 0.36 12.49
12/11/2020 8:00:00 PM 6.13 43.034 0.313 7.59 0.41 12.42
12/11/2020 8:15:00 PM 6.1 42.98 0.289 7.69 1.54 12.39
12/11/2020 8:30:00 PM 6.09 42.962 0.311 7.71 0.41 12.34
12/11/2020 8:45:00 PM 6.07 42.926 0.308 7.75 0.41 12.3
12/11/2020 9:00:00 PM 6.05 42.89 0.307 7.79 0.4 12.24
12/11/2020 9:15:00 PM 6.03 42.854 0.309 7.79 0.49 12.22
12/11/2020 9:30:00 PM 6.01 42.818 0.31 7.78 0.56 12.19
12/11/2020 9:45:00 PM 6 42.8 0.31 7.84 0.58 12.14
12/11/2020 10:00:00 PM 5.98 42.764 0.308 7.86 0.74 12.11
12/11/2020 10:15:00 PM 5.96 42.728 0.311 7.86 0.37 12.08
12/11/2020 10:30:00 PM 5.95 42.71 0.312 7.89 0.65 12.07
12/11/2020 10:45:00 PM 5.94 42.692 0.313 7.88 0.7 12.03
12/11/2020 11:00:00 PM 5.93 42.674 0.314 7.89 0.91 12.01
12/11/2020 11:15:00 PM 5.93 42.674 0.316 7.9 0.68 11.98
12/11/2020 11:30:00 PM 5.92 42.656 0.301 7.91 0.6 11.96
12/11/2020 11:45:00 PM 5.91 42.638 0.317 7.91 1.01 11.94
12/12/2020 12:00:00 AM 5.9 42.62 0.317 7.91 0.48 11.91
12/12/2020 12:15:00 AM 5.9 42.62 0.318 7.92 0.49 11.91
12/12/2020 12:30:00 AM 5.89 42.602 0.317 7.92 0.68 11.88
12/12/2020 12:45:00 AM 5.87 42.566 0.317 7.92 0.62 11.88
12/12/2020 1:00:00 AM 5.86 42.548 0.316 7.93 1.03 11.87
12/12/2020 1:15:00 AM 5.84 42.512 0.299 7.94 1.03 11.85
12/12/2020 1:30:00 AM 5.84 42.512 0.293 7.94 1.12 11.83
12/12/2020 1:45:00 AM 5.83 42.494 0.309 7.93 1.28 11.83
12/12/2020 2:00:00 AM 5.83 42.494 0.316 7.94 1.11 11.8
12/12/2020 2:15:00 AM 5.82 42.476 0.317 7.93 0.75 11.81
12/12/2020 2:30:00 AM 5.8 42.44 0.317 7.92 0.72 11.79
12/12/2020 2:45:00 AM 5.8 42.44 0.317 7.91 1.3 11.78
12/12/2020 3:00:00 AM 5.79 42.422 0.316 7.91 0.68 11.78
12/12/2020 3:15:00 AM 5.78 42.404 0.288 7.91 0.59 11.77
12/12/2020 3:30:00 AM 5.78 42.404 0.316 7.91 0.74 11.76
12/12/2020 3:45:00 AM 5.77 42.386 0.315 7.9 0.73 11.75
12/12/2020 4:00:00 AM 5.76 42.368 0.315 7.87 0.59 11.76
12/12/2020 4:15:00 AM 5.74 42.332 0.315 7.88 1.05 11.75
12/12/2020 4:30:00 AM 5.73 42.314 0.312 7.88 0.76 11.74
12/12/2020 4:45:00 AM 5.71 42.278 0.302 7.89 0.36 11.73
12/12/2020 5:00:00 AM 5.69 42.242 0.315 7.9 1.23 11.74
12/12/2020 5:15:00 AM 5.67 42.206 0.274 7.89 0.81 11.72
12/12/2020 5:30:00 AM 5.66 42.188 0.316 7.89 1.5 11.73
12/12/2020 5:45:00 AM 5.64 42.152 0.306 7.89 1.17 11.73
12/12/2020 6:00:00 AM 5.64 42.152 0.315 7.88 1.87 11.74
12/12/2020 6:15:00 AM 5.64 42.152 0.315 7.86 0.95 11.74
12/12/2020 6:30:00 AM 5.63 42.134 0.315 7.84 0.63 11.73
12/12/2020 6:45:00 AM 5.62 42.116 0.275 7.84 1.58 11.73
12/12/2020 7:00:00 AM 5.62 42.116 0.315 7.81 0.51 11.76
12/12/2020 7:15:00 AM 5.62 42.116 0.315 7.79 0.53 11.75
12/12/2020 7:30:00 AM 5.62 42.116 0.315 7.76 0.82 11.75
12/12/2020 7:45:00 AM 5.62 42.116 0.315 7.75 1.03 11.75
12/12/2020 8:00:00 AM 5.63 42.134 0.315 7.71 1.17 11.79
12/12/2020 8:15:00 AM 5.64 42.152 0.316 7.66 0.71 11.82
12/12/2020 8:30:00 AM 5.65 42.17 0.316 7.61 0.77 11.85
12/12/2020 8:45:00 AM 5.67 42.206 0.316 7.55 1.1 11.9
12/12/2020 9:00:00 AM 5.69 42.242 0.317 7.5 0.75 11.96
12/12/2020 9:15:00 AM 5.71 42.278 0.316 7.4 0.71 12.02
12/12/2020 9:30:00 AM 5.74 42.332 0.316 7.23 1.65 12.09
12/12/2020 9:45:00 AM 5.77 42.386 0.316 7.11 0.94 12.14
12/12/2020 10:00:00 AM 5.79 42.422 0.316 6.98 0.97 12.21
12/12/2020 10:15:00 AM 5.82 42.476 0.316 6.82 0.73 12.27
12/12/2020 10:30:00 AM 5.86 42.548 0.316 6.65 0.5 12.32
12/12/2020 10:45:00 AM 5.91 42.638 0.316 6.46 0.36 12.39
12/12/2020 11:00:00 AM 5.94 42.692 0.316 6.28 0.33 12.43
12/12/2020 11:15:00 AM 5.99 42.782 0.317 6.12 0.82 12.5
12/12/2020 11:30:00 AM 6.04 42.872 0.317 5.98 1.12 12.54
12/12/2020 11:45:00 AM 6.08 42.944 0.313 5.88 6.09 12.61
12/12/2020 12:00:00 PM 6.12 43.016 0.317 5.83 0.45 12.65
12/12/2020 12:15:00 PM 6.17 43.106 0.316 5.75 0.53 12.69
12/12/2020 12:30:00 PM 6.21 43.178 0.317 5.7 0.74 12.76
12/12/2020 12:45:00 PM 6.26 43.268 0.316 5.68 0.35 12.83
12/12/2020 1:00:00 PM 6.31 43.358 0.316 5.73 0.7 12.87
12/12/2020 1:15:00 PM 6.34 43.412 0.315 5.68 0.34 12.92
12/12/2020 1:30:00 PM 6.39 43.502 0.315 5.62 0.2 12.96
12/12/2020 1:45:00 PM 6.44 43.592 0.315 5.55 0.74 13
12/12/2020 2:00:00 PM 6.48 43.664 0.275 5.52 1.5 13.04
12/12/2020 2:15:00 PM 6.53 43.754 0.315 5.5 4.96 13.1
12/12/2020 2:30:00 PM 6.55 43.79 0.315 5.5 1.59 13.11
12/12/2020 2:45:00 PM 6.59 43.862 0.315 5.49 0.55 13.16
12/12/2020 3:00:00 PM 6.62 43.916 0.315 5.47 0.58 13.18
12/12/2020 3:15:00 PM 6.65 43.97 0.315 5.53 0.3 13.17
12/12/2020 3:30:00 PM 6.67 44.006 0.315 5.54 0.86 13.16
12/12/2020 3:45:00 PM 6.69 44.042 0.314 5.46 0.55 13.16
12/12/2020 4:00:00 PM 6.7 44.06 0.314 5.42 0.4 13.12
12/12/2020 4:15:00 PM 6.7 44.06 0.313 5.48 0.36 13.06
12/12/2020 4:30:00 PM 6.7 44.06 0.313 5.5 0.28 12.98
12/12/2020 4:45:00 PM 6.7 44.06 0.312 5.44 0.41 12.89
12/12/2020 5:00:00 PM 6.69 44.042 0.313 5.5 0.48 12.84
12/12/2020 5:15:00 PM 6.68 44.024 0.284 5.59 0.25 12.76
12/12/2020 5:30:00 PM 6.67 44.006 0.313 5.7 0.6 12.68
12/12/2020 5:45:00 PM 6.66 43.988 0.298 5.87 2.27 12.62
12/12/2020 6:00:00 PM 6.65 43.97 0.313 5.97 0.33 12.55
12/12/2020 6:15:00 PM 6.64 43.952 0.313 6.05 0.66 12.48
12/12/2020 6:30:00 PM 6.64 43.952 0.302 6.07 0.49 12.45
12/12/2020 6:45:00 PM 6.63 43.934 0.307 6.1 0.99 12.39
12/12/2020 7:00:00 PM 6.63 43.934 0.285 6.05 0.61 12.32
12/12/2020 7:15:00 PM 6.63 43.934 0.292 6.07 1.5 12.27
12/12/2020 7:30:00 PM 6.63 43.934 0.312 6.05 0.81 12.22
12/12/2020 7:45:00 PM 6.64 43.952 0.306 6 0.98 12.16
12/12/2020 8:00:00 PM 6.64 43.952 0.312 5.97 0.4 12.11
12/12/2020 8:15:00 PM 6.65 43.97 0.312 5.95 0.68 12.07
12/12/2020 8:30:00 PM 6.66 43.988 0.312 5.93 0.85 12.02
12/12/2020 8:45:00 PM 6.67 44.006 0.312 5.93 0.28 11.96
12/12/2020 9:00:00 PM 6.69 44.042 0.312 5.92 0.46 11.91
12/12/2020 9:15:00 PM 6.7 44.06 0.312 5.91 4.83 11.88
12/12/2020 9:30:00 PM 6.72 44.096 0.312 5.89 0.44 11.84
12/12/2020 9:45:00 PM 6.73 44.114 0.311 5.89 0.64 11.8
12/12/2020 10:00:00 PM 6.73 44.114 0.311 6.03 0.95 11.78
12/12/2020 10:15:00 PM 6.75 44.15 0.311 6.08 0.59 11.75
12/12/2020 10:30:00 PM 6.77 44.186 0.312 6.09 0.96 11.71
12/12/2020 10:45:00 PM 6.79 44.222 0.312 6.07 1.51 11.69
12/12/2020 11:00:00 PM 6.81 44.258 0.313 6.05 1.76 11.66
12/12/2020 11:15:00 PM 6.82 44.276 0.313 6.09 0.72 11.63
12/12/2020 11:30:00 PM 6.84 44.312 0.314 6.14 1.37 11.6
12/12/2020 11:45:00 PM 6.86 44.348 0.314 6.15 0.57 11.57
12/13/2020 12:00:00 AM 6.87 44.366 0.314 6.21 0.89 11.55
12/13/2020 12:15:00 AM 6.88 44.384 0.314 6.33 0.5 11.53
12/13/2020 12:30:00 AM 6.9 44.42 0.314 6.4 0.27 11.51
12/13/2020 12:45:00 AM 6.92 44.456 0.314 6.4 1.38 11.48
12/13/2020 1:00:00 AM 6.94 44.492 0.313 6.34 0.57 11.46
12/13/2020 1:15:00 AM 6.95 44.51 0.309 6.33 0.71 11.45
12/13/2020 1:30:00 AM 6.96 44.528 0.314 6.37 0.66 11.42
12/13/2020 1:45:00 AM 6.98 44.564 0.313 6.36 1.18 11.42
12/13/2020 2:00:00 AM 6.97 44.546 0.315 6.63 1.05 11.39
12/13/2020 2:15:00 AM 6.97 44.546 0.294 6.78 0.88 11.38
12/13/2020 2:30:00 AM 6.96 44.528 0.315 7.05 0.64 11.35
12/13/2020 2:45:00 AM 6.97 44.546 0.316 7.13 0.62 11.35
12/13/2020 3:00:00 AM 6.98 44.564 0.313 7.1 0.68 11.33
12/13/2020 3:15:00 AM 6.99 44.582 0.316 7.12 1.01 11.32
12/13/2020 3:30:00 AM 6.99 44.582 0.315 7.19 0.74 11.31
12/13/2020 3:45:00 AM 6.99 44.582 0.313 7.22 1.8 11.31
12/13/2020 4:00:00 AM 6.99 44.582 0.315 7.29 1.55 11.29
12/13/2020 4:15:00 AM 6.98 44.564 0.315 7.3 2.51 11.29
12/13/2020 4:30:00 AM 6.99 44.582 0.314 7.33 2.19 11.27
12/13/2020 4:45:00 AM 6.98 44.564 0.314 7.36 1.72 11.26
12/13/2020 5:00:00 AM 6.97 44.546 0.315 7.44 1.36 11.25
12/13/2020 5:15:00 AM 6.96 44.528 0.316 7.52 0.85 11.25
12/13/2020 5:30:00 AM 6.95 44.51 0.316 7.57 1.11 11.24
12/13/2020 5:45:00 AM 6.95 44.51 0.281 7.56 1.55 11.25
12/13/2020 6:00:00 AM 6.94 44.492 0.317 7.57 0.86 11.23
12/13/2020 6:15:00 AM 6.94 44.492 0.316 7.54 1.07 11.24
12/13/2020 6:30:00 AM 6.95 44.51 0.316 7.48 0.76 11.23
12/13/2020 6:45:00 AM 6.96 44.528 0.316 7.42 0.76 11.23
12/13/2020 7:00:00 AM 6.96 44.528 0.315 7.36 1.59 11.22
12/13/2020 7:15:00 AM 6.96 44.528 0.316 7.34 1.95 11.23
12/13/2020 7:30:00 AM 6.94 44.492 0.316 7.36 0.68 11.22
12/13/2020 7:45:00 AM 6.92 44.456 0.315 7.41 1.22 11.25
12/13/2020 8:00:00 AM 6.9 44.42 0.307 7.47 1.7 11.28
12/13/2020 8:15:00 AM 6.9 44.42 0.316 7.44 1.57 11.33
12/13/2020 8:30:00 AM 6.91 44.438 0.317 7.28 0.69 11.4
12/13/2020 8:45:00 AM 6.92 44.456 0.317 7.14 2.95 11.45
12/13/2020 9:00:00 AM 6.93 44.474 0.315 6.95 4.62 11.53
12/13/2020 9:15:00 AM 6.96 44.528 0.316 6.65 1.29 11.62
12/13/2020 9:30:00 AM 7.01 44.618 0.316 6.43 0.66 11.77
12/13/2020 9:45:00 AM 7.07 44.726 0.316 6.2 1.19 11.89
12/13/2020 10:00:00 AM 7.11 44.798 0.316 6.03 0.72 12
12/13/2020 10:15:00 AM 7.18 44.924 0.315 5.9 0.79 12.09
12/13/2020 10:30:00 AM 7.23 45.014 0.315 5.8 0.43 12.17
12/13/2020 10:45:00 AM 7.3 45.14 0.316 5.75 0.6 12.28
12/13/2020 11:00:00 AM 7.35 45.23 0.316 5.74 0.95 12.39
12/13/2020 11:15:00 AM 7.41 45.338 0.316 5.72 1.12 12.44
12/13/2020 11:30:00 AM 7.46 45.428 0.317 5.69 0.74 12.53
12/13/2020 11:45:00 AM 7.49 45.482 0.317 5.7 0.3 12.59
12/13/2020 12:00:00 PM 7.55 45.59 0.317 5.69 0.4 12.68
12/13/2020 12:15:00 PM 7.6 45.68 0.317 5.7 0.32 12.75
12/13/2020 12:30:00 PM 7.64 45.752 0.317 5.7 0.58 12.86
12/13/2020 12:45:00 PM 7.68 45.824 0.317 5.71 0.39 12.92
12/13/2020 1:00:00 PM 7.71 45.878 0.317 5.71 0.5 12.98
12/13/2020 1:15:00 PM 7.73 45.914 0.317 5.72 1.39 13.01
12/13/2020 1:30:00 PM 7.78 46.004 0.316 5.71 0.47 13.05
12/13/2020 1:45:00 PM 7.83 46.094 0.317 5.7 0.38 13.1
12/13/2020 2:00:00 PM 7.87 46.166 0.317 5.66 0.69 13.14
12/13/2020 2:15:00 PM 7.93 46.274 0.317 5.69 0.4 13.18
12/13/2020 2:30:00 PM 7.96 46.328 0.317 5.63 0.45 13.22
12/13/2020 2:45:00 PM 7.99 46.382 0.317 5.73 0.49 13.19
12/13/2020 3:00:00 PM 8 46.4 0.317 5.73 0.6 13.15
12/13/2020 3:15:00 PM 8 46.4 0.318 5.75 0.37 13.15
12/13/2020 3:30:00 PM 8.02 46.436 0.317 5.78 0.45 13.12
12/13/2020 3:45:00 PM 8.02 46.436 0.317 5.76 0.78 13.07
12/13/2020 4:00:00 PM 8.02 46.436 0.317 5.79 0.65 13.04
12/13/2020 4:15:00 PM 8 46.4 0.317 5.8 0.7 12.96
12/13/2020 4:30:00 PM 7.99 46.382 0.317 5.86 0.42 12.85
12/13/2020 4:45:00 PM 7.97 46.346 0.317 5.89 0.55 12.74
12/13/2020 5:00:00 PM 7.95 46.31 0.317 5.98 0.83 12.64
12/13/2020 5:15:00 PM 7.92 46.256 0.315 6.28 0.66 12.55
12/13/2020 5:30:00 PM 7.89 46.202 0.31 6.65 0.36 12.48
12/13/2020 5:45:00 PM 7.85 46.13 0.284 7.06 0.41 12.39
12/13/2020 6:00:00 PM 7.82 46.076 0.306 7.32 1.53 12.33
12/13/2020 6:15:00 PM 7.78 46.004 0.281 7.64 0.38 12.25
12/13/2020 6:30:00 PM 7.75 45.95 0.289 7.8 0.58 12.19
12/13/2020 6:45:00 PM 7.71 45.878 0.271 7.91 0.56 12.14
12/13/2020 7:00:00 PM 7.67 45.806 0.311 7.95 0.38 12.09
12/13/2020 7:15:00 PM 7.63 45.734 0.302 7.91 0.56 12.03
12/13/2020 7:30:00 PM 7.59 45.662 0.314 7.93 0.34 11.94
12/13/2020 7:45:00 PM 7.55 45.59 0.307 7.99 3.3 11.9
12/13/2020 8:00:00 PM 7.5 45.5 0.306 8.01 0.4 11.86
12/13/2020 8:15:00 PM 7.46 45.428 0.315 7.99 0.69 11.8
12/13/2020 8:30:00 PM 7.42 45.356 0.314 8 0.46 11.76
12/13/2020 8:45:00 PM 7.38 45.284 0.314 8.01 1.74 11.7
12/13/2020 9:00:00 PM 7.34 45.212 0.314 8.02 0.5 11.65
12/13/2020 9:15:00 PM 7.3 45.14 0.314 8.02 0.48 11.63
12/13/2020 9:30:00 PM 7.26 45.068 0.314 8.01 2.58 11.6
12/13/2020 9:45:00 PM 7.23 45.014 0.313 8.02 0.75 11.56
12/13/2020 10:00:00 PM 7.19 44.942 0.313 8.02 0.67 11.53
12/13/2020 10:15:00 PM 7.16 44.888 0.313 8.01 0.97 11.53
12/13/2020 10:30:00 PM 7.12 44.816 0.313 8.01 0.46 11.5
12/13/2020 10:45:00 PM 7.09 44.762 0.314 8 0.92 11.47
12/13/2020 11:00:00 PM 7.06 44.708 0.3 7.99 0.8 11.46
12/13/2020 11:15:00 PM 7.03 44.654 0.298 8 0.77 11.46
12/13/2020 11:30:00 PM 7.01 44.618 0.29 8 0.46 11.45
12/13/2020 11:45:00 PM 6.97 44.546 0.313 7.99 0.81 11.42
12/14/2020 12:00:00 AM 6.95 44.51 0.307 7.99 0.64 11.42
12/14/2020 12:15:00 AM 6.92 44.456 0.302 7.99 0.89 11.42
12/14/2020 12:30:00 AM 6.91 44.438 0.31 7.98 0.55 11.41
12/14/2020 12:45:00 AM 6.89 44.402 0.289 7.98 1.06 11.39
12/14/2020 1:00:00 AM 6.87 44.366 0.313 7.97 0.54 11.38
12/14/2020 1:15:00 AM 6.86 44.348 0.314 7.96 0.93 11.38
12/14/2020 1:30:00 AM 6.86 44.348 0.315 7.94 0.52 11.37
12/14/2020 1:45:00 AM 6.85 44.33 0.315 7.94 0.6 11.35
12/14/2020 2:00:00 AM 6.85 44.33 0.301 7.93 0.83 11.34
12/14/2020 2:15:00 AM 6.84 44.312 0.315 7.91 1.03 11.35
12/14/2020 2:30:00 AM 6.84 44.312 0.317 7.9 0.55 11.33
12/14/2020 2:45:00 AM 6.83 44.294 0.318 7.88 0.99 11.33
12/14/2020 3:00:00 AM 6.83 44.294 0.318 7.87 4.76 11.3
12/14/2020 3:15:00 AM 6.82 44.276 0.318 7.86 0.31 11.3
12/14/2020 3:30:00 AM 6.82 44.276 0.318 7.85 0.6 11.3
12/14/2020 3:45:00 AM 6.82 44.276 0.317 7.84 0.62 11.31
12/14/2020 4:00:00 AM 6.81 44.258 0.317 7.82 0.85 11.28
12/14/2020 4:15:00 AM 6.81 44.258 0.288 7.79 0.52 11.29
12/14/2020 4:30:00 AM 6.81 44.258 0.316 7.78 1 11.3
12/14/2020 4:45:00 AM 6.81 44.258 0.316 7.77 0.76 11.29
12/14/2020 5:00:00 AM 6.81 44.258 0.313 7.74 0.98 11.28
12/14/2020 5:15:00 AM 6.8 44.24 0.317 7.72 0.72 11.28
12/14/2020 5:30:00 AM 6.79 44.222 0.317 7.67 0.8 11.27
12/14/2020 5:45:00 AM 6.78 44.204 0.311 7.67 1.22 11.29
12/14/2020 6:00:00 AM 6.77 44.186 0.301 7.69 0.87 11.29
12/14/2020 6:15:00 AM 6.75 44.15 0.306 7.67 0.53 11.31
12/14/2020 6:30:00 AM 6.75 44.15 0.314 7.65 1.02 11.28
12/14/2020 6:45:00 AM 6.74 44.132 0.313 7.63 0.91 11.31
12/14/2020 7:00:00 AM 6.73 44.114 0.313 7.62 0.86 11.31
12/14/2020 7:15:00 AM 6.72 44.096 0.313 7.6 1.69 11.32
12/14/2020 7:30:00 AM 6.71 44.078 0.302 7.59 0.96 11.31
12/14/2020 7:45:00 AM 6.7 44.06 0.313 7.56 0.8 11.33
12/14/2020 8:00:00 AM 6.69 44.042 0.313 7.58 4.13 11.33
12/14/2020 8:15:00 AM 6.68 44.024 0.311 7.56 0.88 11.34
12/14/2020 8:30:00 AM 6.66 43.988 0.312 7.57 0.79 11.35
12/14/2020 8:45:00 AM 6.64 43.952 0.308 7.56 0.89 11.38
12/14/2020 9:00:00 AM 6.62 43.916 0.311 7.57 1.07 11.4
12/14/2020 9:15:00 AM 6.59 43.862 0.293 7.58 1.33 11.42
12/14/2020 9:30:00 AM 6.57 43.826 0.311 7.61 0.96 11.45
12/14/2020 9:45:00 AM 6.53 43.754 0.311 7.64 0.75 11.46
12/14/2020 10:00:00 AM 6.5 43.7 0.309 7.69 1.22 11.5
12/14/2020 10:15:00 AM 6.45 43.61 0.307 7.71 0.82 11.54
12/14/2020 10:30:00 AM 6.41 43.538 0.308 7.75 1.49 11.57
12/14/2020 10:45:00 AM 6.36 43.448 0.308 7.76 0.76 11.6
12/14/2020 11:00:00 AM 6.32 43.376 0.309 7.76 1.27 11.63
12/14/2020 11:15:00 AM 6.28 43.304 0.309 7.74 1.33 11.67
12/14/2020 11:30:00 AM 6.25 43.25 0.309 7.75 1.68 11.73
12/14/2020 11:45:00 AM 6.2 43.16 0.31 7.74 1.05 11.77
12/14/2020 12:00:00 PM 6.17 43.106 0.309 7.75 0.8 11.82
12/14/2020 12:15:00 PM 6.15 43.07 0.309 7.75 1.04 11.86
12/14/2020 12:30:00 PM 6.15 43.07 0.309 7.76 1.79 11.93
12/14/2020 12:45:00 PM 6.15 43.07 0.308 7.74 0.96 12.01
12/14/2020 1:00:00 PM 6.14 43.052 0.308 7.74 1 12.07
12/14/2020 1:15:00 PM 6.13 43.034 0.289 7.71 0.47 12.12
12/14/2020 1:30:00 PM 6.14 43.052 0.303 7.68 1.1 12.18
12/14/2020 1:45:00 PM 6.16 43.088 0.291 7.67 0.54 12.28
12/14/2020 2:00:00 PM 6.17 43.106 0.275 7.66 1.55 12.37
12/14/2020 2:15:00 PM 6.18 43.124 0.286 7.66 0.66 12.41
12/14/2020 2:30:00 PM 6.2 43.16 0.295 7.63 0.72 12.49
12/14/2020 2:45:00 PM 6.21 43.178 0.304 7.62 0.6 12.52
12/14/2020 3:00:00 PM 6.21 43.178 0.297 7.61 0.48 12.55
12/14/2020 3:15:00 PM 6.21 43.178 0.309 7.55 0.59 12.54
12/14/2020 3:30:00 PM 6.22 43.196 0.305 7.52 0.91 12.57
12/14/2020 3:45:00 PM 6.24 43.232 0.3 7.46 0.62 12.63
12/14/2020 4:00:00 PM 6.24 43.232 0.266 7.44 1.29 12.63
12/14/2020 4:15:00 PM 6.24 43.232 0.278 7.43 1.02 12.61
12/14/2020 4:30:00 PM 6.24 43.232 0.284 7.43 1.29 12.56
12/14/2020 4:45:00 PM 6.22 43.196 0.286 7.46 0.75 12.52
12/14/2020 5:00:00 PM 6.2 43.16 0.29 7.48 1.06 12.48
12/14/2020 5:15:00 PM 6.18 43.124 0.263 7.49 1.37 12.45
12/14/2020 5:30:00 PM 6.17 43.106 0.306 7.48 1.14 12.38
12/14/2020 5:45:00 PM 6.16 43.088 0.29 7.5 0.86 12.36
12/14/2020 6:00:00 PM 6.16 43.088 0.276 7.49 0.83 12.3
12/14/2020 6:15:00 PM 6.15 43.07 0.282 7.44 0.83 12.27
12/14/2020 6:30:00 PM 6.14 43.052 0.258 7.39 1.49 12.24
12/14/2020 6:45:00 PM 6.13 43.034 0.287 7.34 0.87 12.2
12/14/2020 7:00:00 PM 6.12 43.016 0.253 7.28 1.09 12.15
12/14/2020 7:15:00 PM 6.11 42.998 0.273 7.21 1.2 12.12
12/14/2020 7:30:00 PM 6.09 42.962 0.258 7.16 1.77 12.02
12/14/2020 7:45:00 PM 6.06 42.908 0.263 7.15 0.68 12.03
12/14/2020 8:00:00 PM 6.02 42.836 0.263 7.14 1.18 11.99
12/14/2020 8:15:00 PM 5.97 42.746 0.269 7.14 1.56 11.97
12/14/2020 8:30:00 PM 5.95 42.71 0.275 7.13 1.47 11.95
12/14/2020 8:45:00 PM 5.91 42.638 0.294 7.15 2.02 11.92
12/14/2020 9:00:00 PM 5.87 42.566 0.264 7.21 1.29 11.92
12/14/2020 9:15:00 PM 5.83 42.494 0.255 7.24 2 11.92
12/14/2020 9:30:00 PM 5.82 42.476 0.285 7.25 3.03 11.91
12/14/2020 9:45:00 PM 5.8 42.44 0.28 7.24 1.25 11.89
12/14/2020 10:00:00 PM 5.78 42.404 0.297 7.26 3.23 11.88
12/14/2020 10:15:00 PM 5.75 42.35 0.303 7.27 1.31 11.87
12/14/2020 10:30:00 PM 5.73 42.314 0.301 7.28 1.65 11.87
12/14/2020 10:45:00 PM 5.7 42.26 0.304 7.25 1.11 11.85
12/14/2020 11:00:00 PM 5.68 42.224 0.306 7.22 1.74 11.88
12/14/2020 11:15:00 PM 5.64 42.152 0.304 7.2 2.42 11.88
12/14/2020 11:30:00 PM 5.61 42.098 0.31 7.2 1.91 11.91
12/14/2020 11:45:00 PM 5.58 42.044 0.299 7.2 1.26 11.91
12/15/2020 12:00:00 AM 5.56 42.008 0.287 7.19 1.44 11.92
12/15/2020 12:15:00 AM 5.54 41.972 0.267 7.18 1.57 11.93
12/15/2020 12:30:00 AM 5.52 41.936 0.293 7.19 1.33 11.94
12/15/2020 12:45:00 AM 5.49 41.882 0.293 7.21 1.45 11.93
12/15/2020 1:00:00 AM 5.44 41.792 0.312 7.23 1.25 11.94
12/15/2020 1:15:00 AM 5.41 41.738 0.314 7.26 1.51 11.95
12/15/2020 1:30:00 AM 5.39 41.702 0.309 7.32 1.2 11.96
12/15/2020 1:45:00 AM 5.34 41.612 0.314 7.38 1.67 11.97
12/15/2020 2:00:00 AM 5.3 41.54 0.282 7.39 1.57 11.98
12/15/2020 2:15:00 AM 5.27 41.486 0.286 7.42 2.25 11.98
12/15/2020 2:30:00 AM 5.24 41.432 0.261 7.5 1.29 12
12/15/2020 2:45:00 AM 5.19 41.342 0.274 7.57 1.82 12.01
12/15/2020 3:00:00 AM 5.17 41.306 0.277 7.59 0.97 12.01
12/15/2020 3:15:00 AM 5.14 41.252 0.289 7.61 2.63 12.02
12/15/2020 3:30:00 AM 5.1 41.18 0.296 7.7 0.85 12.02
12/15/2020 3:45:00 AM 5.06 41.108 0.279 7.75 1.31 12.04
12/15/2020 4:00:00 AM 5.03 41.054 0.311 7.77 3.59 12.04
12/15/2020 4:15:00 AM 5 41 0.285 7.75 1.64 12.04
12/15/2020 4:30:00 AM 4.96 40.928 0.281 7.73 2.56 12.07
12/15/2020 4:45:00 AM 4.92 40.856 0.277 7.73 2.59 12.07
12/15/2020 5:00:00 AM 4.88 40.784 0.264 7.74 4.55 12.07
12/15/2020 5:15:00 AM 4.84 40.712 0.267 7.72 3.12 12.1
12/15/2020 5:30:00 AM 4.8 40.64 0.267 7.74 1.6 12.11
12/15/2020 5:45:00 AM 4.76 40.568 0.274 7.78 1.03 12.12
12/15/2020 6:00:00 AM 4.73 40.514 0.291 7.79 2.54 12.15
12/15/2020 6:15:00 AM 4.69 40.442 0.274 7.78 2.31 12.16
12/15/2020 6:30:00 AM 4.66 40.388 0.311 7.78 2.41 12.17
12/15/2020 6:45:00 AM 4.62 40.316 0.312 7.78 2.81 12.19
12/15/2020 7:00:00 AM 4.59 40.262 0.273 7.79 1.76 12.19
12/15/2020 7:15:00 AM 4.56 40.208 0.301 7.8 1.66 12.2
12/15/2020 7:30:00 AM 4.53 40.154 0.313 7.8 2.8 12.22
12/15/2020 7:45:00 AM 4.51 40.118 0.311 7.79 1.31 12.22
12/15/2020 8:00:00 AM 4.49 40.082 0.281 7.78 2.07 12.27
12/15/2020 8:15:00 AM 4.49 40.082 0.307 7.78 2.99 12.33
12/15/2020 8:30:00 AM 4.48 40.064 0.278 7.77 2.46 12.4
12/15/2020 8:45:00 AM 4.47 40.046 0.279 7.77 1.21 12.47
12/15/2020 9:00:00 AM 4.49 40.082 0.31 7.75 1.52 12.55
12/15/2020 9:15:00 AM 4.53 40.154 0.31 7.72 2.06 12.64
12/15/2020 9:30:00 AM 4.56 40.208 0.281 7.7 1.17 12.76
12/15/2020 9:45:00 AM 4.6 40.28 0.29 7.66 1.28 12.86
12/15/2020 10:00:00 AM 4.63 40.334 0.295 7.62 2.63 12.95
12/15/2020 10:15:00 AM 4.64 40.352 0.309 7.61 1.16 13.02
12/15/2020 10:30:00 AM 4.67 40.406 0.281 7.58 2.89 13.12
12/15/2020 10:45:00 AM 4.72 40.496 0.304 7.54 1.56 13.2
12/15/2020 11:00:00 AM 4.77 40.586 0.308 7.5 1.21 13.27
12/15/2020 11:15:00 AM 4.8 40.64 0.308 7.49 1.16 13.34
12/15/2020 11:30:00 AM 4.83 40.694 0.306 7.47 1.85 13.44
12/15/2020 11:45:00 AM 4.86 40.748 0.314 7.47 0.88 13.49
12/15/2020 12:00:00 PM 4.89 40.802 0.309 7.46 1.06 13.55
12/15/2020 12:15:00 PM 4.92 40.856 0.292 7.46 0.9 13.61
12/15/2020 12:30:00 PM 4.95 40.91 0.304 7.47 1.29 13.67
12/15/2020 12:45:00 PM 4.97 40.946 0.288 7.44 1.16 13.73
12/15/2020 1:00:00 PM 5 41 0.3 7.42 1.31 13.77
12/15/2020 1:15:00 PM 5.01 41.018 0.304 7.41 1.04 13.83
12/15/2020 1:30:00 PM 5.04 41.072 0.304 7.38 1.04 13.88
12/15/2020 1:45:00 PM 5.07 41.126 0.303 7.37 0.63 13.93
12/15/2020 2:00:00 PM 5.08 41.144 0.303 7.39 0.62 13.97
12/15/2020 2:15:00 PM 5.1 41.18 0.303 7.38 1.3 14.01
12/15/2020 2:30:00 PM 5.11 41.198 0.29 7.36 0.83 14.02
12/15/2020 2:45:00 PM 5.11 41.198 0.302 7.32 0.78 14.02
12/15/2020 3:00:00 PM 5.11 41.198 0.301 7.38 1 14.04
12/15/2020 3:15:00 PM 5.11 41.198 0.301 7.42 0.91 14.06
12/15/2020 3:30:00 PM 5.09 41.162 0.296 7.44 0.93 14.04
12/15/2020 3:45:00 PM 5.08 41.144 0.3 7.46 0.58 14
12/15/2020 4:00:00 PM 5.07 41.126 0.3 7.52 0.95 13.94
12/15/2020 4:15:00 PM 5.05 41.09 0.283 7.5 0.7 13.89
12/15/2020 4:30:00 PM 5.04 41.072 0.274 7.49 0.86 13.83
12/15/2020 4:45:00 PM 5.02 41.036 0.297 7.49 0.83 13.78
12/15/2020 5:00:00 PM 5 41 0.278 7.62 1 13.69
12/15/2020 5:15:00 PM 4.98 40.964 0.297 7.71 3 13.63
12/15/2020 5:30:00 PM 4.96 40.928 0.285 7.84 0.77 13.57
12/15/2020 5:45:00 PM 4.94 40.892 0.286 7.84 1.37 13.5
12/15/2020 6:00:00 PM 4.92 40.856 0.29 7.89 1.58 13.46
12/15/2020 6:15:00 PM 4.9 40.82 0.291 7.91 2.24 13.4
12/15/2020 6:30:00 PM 4.88 40.784 0.287 7.96 0.92 13.32
12/15/2020 6:45:00 PM 4.87 40.766 0.289 7.96 1.39 13.3
12/15/2020 7:00:00 PM 4.84 40.712 0.285 7.98 1.05 13.25
12/15/2020 7:15:00 PM 4.83 40.694 0.291 7.97 0.94 13.2
12/15/2020 7:30:00 PM 4.8 40.64 0.275 7.98 0.64 13.14
12/15/2020 7:45:00 PM 4.78 40.604 0.282 7.96 1.12 13.1
12/15/2020 8:00:00 PM 4.75 40.55 0.299 7.97 1.27 13.03
12/15/2020 8:15:00 PM 4.73 40.514 0.299 7.96 0.75 13.01
12/15/2020 8:30:00 PM 4.7 40.46 0.299 7.96 1.09 12.97
12/15/2020 8:45:00 PM 4.68 40.424 0.299 7.96 0.93 12.94
12/15/2020 9:00:00 PM 4.66 40.388 0.299 7.96 0.97 12.89
12/15/2020 9:15:00 PM 4.64 40.352 0.296 7.94 1.57 12.88
12/15/2020 9:30:00 PM 4.62 40.316 0.278 7.95 1.01 12.82
12/15/2020 9:45:00 PM 4.6 40.28 0.3 7.94 1.97 12.81
12/15/2020 10:00:00 PM 4.59 40.262 0.3 7.95 0.7 12.77
12/15/2020 10:15:00 PM 4.58 40.244 0.294 7.95 1.63 12.76
12/15/2020 10:30:00 PM 4.56 40.208 0.29 7.95 1.36 12.75
12/15/2020 10:45:00 PM 4.57 40.226 0.302 7.93 0.77 12.71
12/15/2020 11:00:00 PM 4.57 40.226 0.303 7.89 1.21 12.71
12/15/2020 11:15:00 PM 4.56 40.208 0.302 7.89 1.15 12.69
12/15/2020 11:30:00 PM 4.54 40.172 0.301 7.88 3.28 12.68
12/15/2020 11:45:00 PM 4.53 40.154 0.3 7.89 0.93 12.67
12/16/2020 12:00:00 AM 4.51 40.118 0.3 7.9 0.68 12.65
12/16/2020 12:15:00 AM 4.5 40.1 0.3 7.91 1.15 12.65
12/16/2020 12:30:00 AM 4.48 40.064 0.299 7.91 1.45 12.64
12/16/2020 12:45:00 AM 4.47 40.046 0.27 7.91 1.21 12.62
12/16/2020 1:00:00 AM 4.46 40.028 0.299 7.89 1.27 12.61
12/16/2020 1:15:00 AM 4.45 40.01 0.3 7.89 0.68 12.61
12/16/2020 1:30:00 AM 4.43 39.974 0.294 7.88 1.22 12.59
12/16/2020 1:45:00 AM 4.42 39.956 0.3 7.87 0.76 12.58
12/16/2020 2:00:00 AM 4.4 39.92 0.298 7.88 1.27 12.58
12/16/2020 2:15:00 AM 4.37 39.866 0.299 7.88 1.23 12.56
12/16/2020 2:30:00 AM 4.34 39.812 0.298 7.88 1.19 12.57
12/16/2020 2:45:00 AM 4.31 39.758 0.297 7.88 0.93 12.58
12/16/2020 3:00:00 AM 4.28 39.704 0.296 7.89 2.45 12.59
12/16/2020 3:15:00 AM 4.24 39.632 0.284 7.91 0.53 12.58
12/16/2020 3:30:00 AM 4.22 39.596 0.296 7.9 1.48 12.59
12/16/2020 3:45:00 AM 4.2 39.56 0.291 7.9 1.34 12.6
12/16/2020 4:00:00 AM 4.18 39.524 0.296 7.89 2.63 12.59
12/16/2020 4:15:00 AM 4.16 39.488 0.26 7.89 1.69 12.6
12/16/2020 4:30:00 AM 4.12 39.416 0.297 7.88 2.17 12.59
12/16/2020 4:45:00 AM 4.1 39.38 0.297 7.88 1.59 12.59
12/16/2020 5:00:00 AM 4.08 39.344 0.297 7.88 0.89 12.6
12/16/2020 5:15:00 AM 4.05 39.29 0.296 7.87 1.18 12.59
12/16/2020 5:30:00 AM 4.02 39.236 0.295 7.86 2.15 12.61
12/16/2020 5:45:00 AM 3.99 39.182 0.295 7.87 1.37 12.62
12/16/2020 6:00:00 AM 3.96 39.128 0.295 7.87 0.68 12.63
12/16/2020 6:15:00 AM 3.94 39.092 0.292 7.86 1.41 12.63
12/16/2020 6:30:00 AM 3.92 39.056 0.295 7.86 1.32 12.61
12/16/2020 6:45:00 AM 3.9 39.02 0.258 7.87 1.33 12.63
12/16/2020 7:00:00 AM 3.88 38.984 0.284 7.86 2.57 12.64
12/16/2020 7:15:00 AM 3.87 38.966 0.296 7.84 0.87 12.64
12/16/2020 7:30:00 AM 3.86 38.948 0.294 7.84 0.99 12.65
12/16/2020 7:45:00 AM 3.85 38.93 0.279 7.83 1.4 12.65
12/16/2020 8:00:00 AM 3.84 38.912 0.279 7.83 0.58 12.66
12/16/2020 8:15:00 AM 3.83 38.894 0.263 7.83 1.31 12.67
12/16/2020 8:30:00 AM 3.82 38.876 0.295 7.82 1.06 12.71
12/16/2020 8:45:00 AM 3.81 38.858 0.295 7.82 0.68 12.76
12/16/2020 9:00:00 AM 3.8 38.84 0.294 7.81 2.28 12.82
12/16/2020 9:15:00 AM 3.79 38.822 0.293 7.82 0.88 12.83
12/16/2020 9:30:00 AM 3.77 38.786 0.294 7.84 0.95 12.89
12/16/2020 9:45:00 AM 3.77 38.786 0.294 7.83 0.92 12.92
12/16/2020 10:00:00 AM 3.76 38.768 0.287 7.83 1.06 12.99
12/16/2020 10:15:00 AM 3.75 38.75 0.288 7.83 0.95 13.01
12/16/2020 10:30:00 AM 3.75 38.75 0.296 7.82 0.78 13.06
12/16/2020 10:45:00 AM 3.74 38.732 0.297 7.82 0.66 13.11
12/16/2020 11:00:00 AM 3.74 38.732 0.289 7.82 0.57 13.18
12/16/2020 11:15:00 AM 3.73 38.714 0.267 7.81 0.99 13.21
12/16/2020 11:30:00 AM 3.7 38.66 0.278 7.83 0.75 13.25
12/16/2020 11:45:00 AM 3.64 38.552 0.281 7.84 2.97 13.29
12/16/2020 12:00:00 PM 3.6 38.48 0.281 7.87 0.51 13.38
12/16/2020 12:15:00 PM 3.55 38.39 0.279 7.85 0.99 13.43
12/16/2020 12:30:00 PM 3.51 38.318 0.293 7.86 0.78 13.48
12/16/2020 12:45:00 PM 3.49 38.282 0.285 7.89 0.7 13.56
12/16/2020 1:00:00 PM 3.48 38.264 0.282 7.91 1.25 13.61
12/16/2020 1:15:00 PM 3.46 38.228 0.287 7.91 0.74 13.7
12/16/2020 1:30:00 PM 3.41 38.138 0.263 7.9 1.05 13.75
12/16/2020 1:45:00 PM 3.39 38.102 0.26 7.91 0.39 13.75
12/16/2020 2:00:00 PM 3.34 38.012 0.244 7.93 0.64 13.79
12/16/2020 2:15:00 PM 3.28 37.904 0.273 7.93 1.05 13.78
12/16/2020 2:30:00 PM 3.22 37.796 0.288 7.93 0.65 13.77
12/16/2020 2:45:00 PM 3.08 37.544 0.28 7.95 0.76 13.76
12/16/2020 3:00:00 PM 2.95 37.31 0.285 7.93 0.37 13.77
12/16/2020 3:15:00 PM 2.87 37.166 0.28 7.91 0.48 13.77
12/16/2020 3:30:00 PM 2.79 37.022 0.268 7.88 0.58 13.74
12/16/2020 3:45:00 PM 2.71 36.878 0.274 7.87 0.6 13.71
12/16/2020 4:00:00 PM 2.62 36.716 0.283 7.84 0.46 13.73
12/16/2020 4:15:00 PM 2.48 36.464 0.256 7.82 0.5 13.7
12/16/2020 4:30:00 PM 2.26 36.068 0.281 7.75 1.32 13.69
12/16/2020 4:45:00 PM 2.01 35.618 0.269 7.75 0.46 13.68
12/16/2020 5:00:00 PM 1.89 35.402 0.246 7.72 1.49 13.66
12/16/2020 5:15:00 PM 1.7 35.06 0.286 7.69 0.5 13.66
12/16/2020 5:30:00 PM 1.6 34.88 0.273 7.67 1.38 13.64
12/16/2020 5:45:00 PM 1.41 34.538 0.287 7.65 1.08 13.62
12/16/2020 6:00:00 PM 1.39 34.502 0.284 7.59 0.51 13.62
12/16/2020 6:15:00 PM 1.42 34.556 0.278 7.56 0.48 13.61
12/16/2020 6:30:00 PM 1.44 34.592 0.272 7.53 0.62 13.62
12/16/2020 6:45:00 PM 1.38 34.484 0.285 7.51 0.44 13.62
12/16/2020 7:00:00 PM 1.34 34.412 0.259 7.49 0.87 13.61
12/16/2020 7:15:00 PM 1.27 34.286 0.283 7.48 0.45 13.61
12/16/2020 7:30:00 PM 1.2 34.16 0.275 7.45 0.71 13.62
12/16/2020 7:45:00 PM 1.09 33.962 0.281 7.44 0.44 13.6
12/16/2020 8:00:00 PM 1.1 33.98 0.284 7.41 0.37 13.61
12/16/2020 8:15:00 PM 1.07 33.926 0.261 7.39 0.68 13.61
12/16/2020 8:30:00 PM 1.03 33.854 0.284 7.35 0.61 13.62
12/16/2020 8:45:00 PM 1.03 33.854 0.284 7.31 0.37 13.63
12/16/2020 9:00:00 PM 0.99 33.782 0.274 7.28 1.57 13.64
12/16/2020 9:15:00 PM 0.88 33.584 0.255 7.26 0.48 13.63
12/16/2020 9:30:00 PM 0.85 33.53 0.285 7.22 0.29 13.65
12/16/2020 9:45:00 PM 0.82 33.476 0.285 7.17 1.22 13.66
12/16/2020 10:00:00 PM 0.81 33.458 0.286 7.14 0.4 13.67
12/16/2020 10:15:00 PM 0.77 33.386 0.287 7.1 0.53 13.67
12/16/2020 10:30:00 PM 0.63 33.134 0.288 7.08 0.18 13.7
12/16/2020 10:45:00 PM 0.45 32.81 0.288 7.07 0.56 13.71
12/16/2020 11:00:00 PM 0.35 32.63 0.288 7.03 0.52 13.71
12/16/2020 11:15:00 PM 0.23 32.414 0.288 6.99 0.38 13.74
12/16/2020 11:30:00 PM 0.21 32.378 0.288 6.94 0.46 13.74
12/16/2020 11:45:00 PM 0.17 32.306 0.288 6.9 0.52 13.79
12/17/2020 12:00:00 AM 0.12 32.216 0.287 6.87 0.41 13.82
12/17/2020 12:15:00 AM 0.07 32.126 0.287 6.83 0.58 13.86
12/17/2020 12:30:00 AM 0.04 32.072 0.288 6.8 0.29 13.86
12/17/2020 12:45:00 AM 0.02 32.036 0.288 6.75 0.5 13.91
12/17/2020 1:00:00 AM 0.03 32.054 0.289 6.71 1.05 13.91
12/17/2020 1:15:00 AM 0.03 32.054 0.29 6.67 1.17 13.93
12/17/2020 1:30:00 AM 0.02 32.036 0.272 6.66 0.99 13.95
12/17/2020 1:45:00 AM 0.02 32.036 0.265 6.62 0.45 13.97
12/17/2020 2:00:00 AM 0.02 32.036 0.29 6.6 0.59 14.01
12/17/2020 2:15:00 AM 0.02 32.036 0.265 6.57 0.44 14
12/17/2020 2:30:00 AM 0.02 32.036 0.261 6.55 0.19 14.04
12/17/2020 2:45:00 AM 0.03 32.054 0.26 6.53 0.23 14.03
12/17/2020 3:00:00 AM 0.02 32.036 0.268 6.51 0.79 14.07
12/17/2020 3:15:00 AM 0.03 32.054 0.27 6.49 0.38 14.07
12/17/2020 3:30:00 AM 0.04 32.072 0.264 6.47 0.34 14.08
12/17/2020 3:45:00 AM 0.03 32.054 0.282 6.45 1.25 14.09
12/17/2020 4:00:00 AM 0.04 32.072 0.288 6.43 0.53 14.09
12/17/2020 4:15:00 AM 0.04 32.072 0.283 6.4 0.39 14.09
12/17/2020 4:30:00 AM 0.05 32.09 0.288 6.38 1.54 14.09
12/17/2020 4:45:00 AM 0.06 32.108 0.288 6.35 0.19 14.09
12/17/2020 5:00:00 AM 0.04 32.072 0.273 6.34 0.4 14.1
12/17/2020 5:15:00 AM 0.03 32.054 0.255 6.33 0.82 14.15
12/17/2020 5:30:00 AM 0.05 32.09 0.268 6.32 0.24 14.15
12/17/2020 5:45:00 AM 0.04 32.072 0.271 6.3 0.63 14.15
12/17/2020 6:00:00 AM 0.05 32.09 0.287 6.3 0.84 14.16
12/17/2020 6:15:00 AM 0.05 32.09 0.286 6.29 0.62 14.17
12/17/2020 6:30:00 AM 0.06 32.108 0.289 6.28 0.37 14.17
12/17/2020 6:45:00 AM 0.05 32.09 0.29 6.28 5.08 14.18
12/17/2020 7:00:00 AM 0.05 32.09 0.258 6.28 0.38 14.2
12/17/2020 7:15:00 AM 0.05 32.09 0.29 6.28 0.53 14.21
12/17/2020 7:30:00 AM 0.05 32.09 0.292 6.27 0.5 14.21
12/17/2020 7:45:00 AM 0.06 32.108 0.292 6.26 0.97 14.22
12/17/2020 8:00:00 AM 0.05 32.09 0.293 6.27 0.61 14.25
12/17/2020 8:15:00 AM 0.07 32.126 0.277 6.26 0.65 14.29
12/17/2020 8:30:00 AM 0.06 32.108 0.272 6.26 0.74 14.34
12/17/2020 8:45:00 AM 0.07 32.126 0.266 6.26 0.23 14.39
12/17/2020 9:00:00 AM 0.08 32.144 0.29 6.26 0.31 14.43
12/17/2020 9:15:00 AM 0.1 32.18 0.291 6.25 0.43 14.49
12/17/2020 9:30:00 AM 0.12 32.216 0.277 6.24 1.4 14.52
12/17/2020 9:45:00 AM 0.13 32.234 0.288 6.23 0.58 14.59
12/17/2020 10:00:00 AM 0.15 32.27 0.282 6.24 0.75 14.64
12/17/2020 10:15:00 AM 0.18 32.324 0.248 6.24 0.49 14.69
12/17/2020 10:30:00 AM 0.2 32.36 0.286 6.23 0.27 14.72
12/17/2020 10:45:00 AM 0.23 32.414 0.266 6.24 0.32 14.75
12/17/2020 11:00:00 AM 0.26 32.468 0.248 6.22 0.4 14.78
12/17/2020 11:15:00 AM 0.29 32.522 0.291 6.22 0.34 14.85
12/17/2020 11:30:00 AM 0.34 32.612 0.291 6.21 0.37 14.92
12/17/2020 11:45:00 AM 0.39 32.702 0.29 6.21 0.52 14.96
12/17/2020 12:00:00 PM 0.43 32.774 0.267 6.21 0.21 15.02
12/17/2020 12:15:00 PM 0.46 32.828 0.27 6.21 0.9 15.04
12/17/2020 12:30:00 PM 0.48 32.864 0.272 6.23 0.49 15.09
12/17/2020 12:45:00 PM 0.53 32.954 0.281 6.23 0.22 15.11
12/17/2020 1:00:00 PM 0.57 33.026 0.282 6.21 0.77 15.15
12/17/2020 1:15:00 PM 0.6 33.08 0.273 6.22 0.27 15.16
12/17/2020 1:30:00 PM 0.66 33.188 0.268 6.22 0.48 15.18
12/17/2020 1:45:00 PM 0.7 33.26 0.246 6.23 0.24 15.18
12/17/2020 2:00:00 PM 0.72 33.296 0.248 6.22 0.41 15.19
12/17/2020 2:15:00 PM 0.76 33.368 0.245 6.25 0.38 15.22
12/17/2020 2:30:00 PM 0.78 33.404 0.253 6.26 0.47 15.23
12/17/2020 2:45:00 PM 0.8 33.44 0.258 6.28 0.12 15.22
12/17/2020 3:00:00 PM 0.84 33.512 0.265 6.29 0.47 15.2
12/17/2020 3:15:00 PM 0.85 33.53 0.288 6.3 5.88 15.21
12/17/2020 3:30:00 PM 0.89 33.602 0.289 6.31 1.55 15.17
12/17/2020 3:45:00 PM 0.88 33.584 0.289 6.32 1.75 15.16
12/17/2020 4:00:00 PM 0.91 33.638 0.289 6.33 1.86 15.14
12/17/2020 4:15:00 PM 0.92 33.656 0.29 6.35 1.32 15.11
12/17/2020 4:30:00 PM 0.91 33.638 0.29 6.36 1.27 15.06
12/17/2020 4:45:00 PM 0.92 33.656 0.29 6.37 1.51 15
12/17/2020 5:00:00 PM 0.93 33.674 0.291 6.41 0.8 14.95
12/17/2020 5:15:00 PM 0.97 33.746 0.292 6.41 0.38 14.89
12/17/2020 5:30:00 PM 0.98 33.764 0.29 6.43 0.78 14.84
12/17/2020 5:45:00 PM 1 33.8 0.292 6.46 0.31 14.8
12/17/2020 6:00:00 PM 1.02 33.836 0.292 6.48 0.44 14.76
12/17/2020 6:15:00 PM 1.03 33.854 0.289 6.51 0.52 14.7
12/17/2020 6:30:00 PM 1.04 33.872 0.292 6.53 0.26 14.66
12/17/2020 6:45:00 PM 1.07 33.926 0.292 6.57 0.41 14.62
12/17/2020 7:00:00 PM 1.1 33.98 0.293 6.62 0.74 14.59
12/17/2020 7:15:00 PM 1.13 34.034 0.293 6.64 0.23 14.54
12/17/2020 7:30:00 PM 1.16 34.088 0.294 6.68 0.32 14.51
12/17/2020 7:45:00 PM 1.19 34.142 0.294 6.7 0.49 14.48
12/17/2020 8:00:00 PM 1.21 34.178 0.295 6.73 0.44 14.44
12/17/2020 8:15:00 PM 1.24 34.232 0.295 6.75 0.78 14.41
12/17/2020 8:30:00 PM 1.27 34.286 0.295 6.76 0.18 14.38
12/17/2020 8:45:00 PM 1.3 34.34 0.295 6.76 0.23 14.32
12/17/2020 9:00:00 PM 1.34 34.412 0.295 6.75 0.43 14.3
12/17/2020 9:15:00 PM 1.35 34.43 0.295 6.75 0.41 14.26
12/17/2020 9:30:00 PM 1.38 34.484 0.273 6.76 0.35 14.22
12/17/2020 9:45:00 PM 1.4 34.52 0.276 6.76 0.34 14.19
12/17/2020 10:00:00 PM 1.43 34.574 0.297 6.77 0.42 14.16
12/17/2020 10:15:00 PM 1.45 34.61 0.298 6.77 0.75 14.13
12/17/2020 10:30:00 PM 1.48 34.664 0.28 6.77 0.36 14.1
12/17/2020 10:45:00 PM 1.52 34.736 0.296 6.79 0.31 14.08
12/17/2020 11:00:00 PM 1.54 34.772 0.284 6.79 0.33 14.05
12/17/2020 11:15:00 PM 1.59 34.862 0.275 6.8 0.76 14.02
12/17/2020 11:30:00 PM 1.61 34.898 0.299 6.81 0.44 13.99
12/17/2020 11:45:00 PM 1.64 34.952 0.276 6.83 0.41 13.98
12/18/2020 12:00:00 AM 1.67 35.006 0.302 6.84 0.1 13.96
12/18/2020 12:15:00 AM 1.69 35.042 0.285 6.84 0.43 13.94
12/18/2020 12:30:00 AM 1.73 35.114 0.303 6.85 1.06 13.92
12/18/2020 12:45:00 AM 1.75 35.15 0.306 6.86 0.51 13.9
12/18/2020 1:00:00 AM 1.77 35.186 0.307 6.87 0.09 13.87
12/18/2020 1:15:00 AM 1.79 35.222 0.3 6.89 0.14 13.84
12/18/2020 1:30:00 AM 1.81 35.258 0.304 6.9 0.54 13.84
12/18/2020 1:45:00 AM 1.83 35.294 0.3 6.92 0.25 13.8
12/18/2020 2:00:00 AM 1.84 35.312 0.276 6.94 0.34 13.81
12/18/2020 2:15:00 AM 1.84 35.312 0.294 6.95 0.62 13.78
12/18/2020 2:30:00 AM 1.85 35.33 0.293 6.98 0.14 13.78
12/18/2020 2:45:00 AM 1.86 35.348 0.268 7 0.44 13.76
12/18/2020 3:00:00 AM 1.87 35.366 0.3 7.03 0.48 13.75
12/18/2020 3:15:00 AM 1.88 35.384 0.301 7.07 0.96 13.75
12/18/2020 3:30:00 AM 1.89 35.402 0.303 7.09 0.98 13.73
12/18/2020 3:45:00 AM 1.89 35.402 0.3 7.12 0.37 13.74
12/18/2020 4:00:00 AM 1.9 35.42 0.3 7.13 0.25 13.73
12/18/2020 4:15:00 AM 1.91 35.438 0.303 7.14 0.24 13.72
12/18/2020 4:30:00 AM 1.92 35.456 0.299 7.14 0.54 13.69
12/18/2020 4:45:00 AM 1.92 35.456 0.293 7.14 0.28 13.7
12/18/2020 5:00:00 AM 1.93 35.474 0.303 7.14 0.59 13.69
12/18/2020 5:15:00 AM 1.93 35.474 0.304 7.14 0.41 13.69
12/18/2020 5:30:00 AM 1.93 35.474 0.303 7.15 0.14 13.67
12/18/2020 5:45:00 AM 1.94 35.492 0.293 7.16 0.61 13.66
12/18/2020 6:00:00 AM 1.95 35.51 0.277 7.15 0.28 13.66
12/18/2020 6:15:00 AM 1.95 35.51 0.293 7.15 0.17 13.66
12/18/2020 6:30:00 AM 1.96 35.528 0.28 7.13 1.07 13.66
12/18/2020 6:45:00 AM 1.97 35.546 0.278 7.13 0.43 13.65
12/18/2020 7:00:00 AM 1.99 35.582 0.268 7.12 0.06 13.63
12/18/2020 7:15:00 AM 2 35.6 0.276 7.12 0.54 13.62
12/18/2020 7:30:00 AM 2.02 35.636 0.282 7.12 1.1 13.59
12/18/2020 7:45:00 AM 2.04 35.672 0.267 7.12 0.51 13.62
12/18/2020 8:00:00 AM 2.06 35.708 0.271 7.13 0.52 13.6
12/18/2020 8:15:00 AM 2.08 35.744 0.275 7.15 0.32 13.61
12/18/2020 8:30:00 AM 2.1 35.78 0.264 7.16 1.52 13.63
12/18/2020 8:45:00 AM 2.13 35.834 0.266 7.17 0.2 13.67
12/18/2020 9:00:00 AM 2.17 35.906 0.263 7.18 0.76 13.73
12/18/2020 9:15:00 AM 2.21 35.978 0.269 7.2 0.34 13.8
12/18/2020 9:30:00 AM 2.25 36.05 0.296 7.2 0.57 13.84
12/18/2020 9:45:00 AM 2.3 36.14 0.272 7.21 0.8 13.9
12/18/2020 10:00:00 AM 2.34 36.212 0.305 7.21 0.44 13.94
12/18/2020 10:15:00 AM 2.38 36.284 0.295 7.22 0.15 14
12/18/2020 10:30:00 AM 2.43 36.374 0.295 7.22 0.5 14.04
12/18/2020 10:45:00 AM 2.48 36.464 0.3 7.23 0.44 14.09
12/18/2020 11:00:00 AM 2.53 36.554 0.307 7.25 0.63 14.13
12/18/2020 11:15:00 AM 2.58 36.644 0.307 7.26 0.3 14.2
12/18/2020 11:30:00 AM 2.63 36.734 0.307 7.28 0.49 14.22
12/18/2020 11:45:00 AM 2.68 36.824 0.307 7.29 0.32 14.3
12/18/2020 12:00:00 PM 2.73 36.914 0.299 7.3 0.67 14.34
12/18/2020 12:15:00 PM 2.79 37.022 0.301 7.32 0.72 14.41
12/18/2020 12:30:00 PM 2.84 37.112 0.3 7.32 0.69 14.46
12/18/2020 12:45:00 PM 2.88 37.184 0.3 7.35 0.51 14.51
12/18/2020 1:00:00 PM 2.92 37.256 0.3 7.38 0.52 14.53
12/18/2020 1:15:00 PM 2.96 37.328 0.301 7.39 0.66 14.58
12/18/2020 1:30:00 PM 2.99 37.382 0.301 7.39 0.48 14.57
12/18/2020 1:45:00 PM 3.02 37.436 0.301 7.41 0.23 14.61
12/18/2020 2:00:00 PM 3.04 37.472 0.301 7.42 0.53 14.61
12/18/2020 2:15:00 PM 3.06 37.508 0.3 7.45 0.17 14.62
12/18/2020 2:30:00 PM 3.08 37.544 0.3 7.46 0.38 14.64
12/18/2020 2:45:00 PM 3.1 37.58 0.3 7.5 0.32 14.62
12/18/2020 3:00:00 PM 3.12 37.616 0.299 7.5 0.67 14.64
12/18/2020 3:15:00 PM 3.14 37.652 0.298 7.54 0.31 14.63
12/18/2020 3:30:00 PM 3.13 37.634 0.298 7.55 0.41 14.66
12/18/2020 3:45:00 PM 3.11 37.598 0.298 7.58 0.16 14.63
12/18/2020 4:00:00 PM 3.09 37.562 0.298 7.6 0.76 14.59
12/18/2020 4:15:00 PM 3.08 37.544 0.298 7.61 0.3 14.56
12/18/2020 4:30:00 PM 3.05 37.49 0.298 7.6 0.36 14.5
12/18/2020 4:45:00 PM 3.03 37.454 0.297 7.59 0.39 14.45
12/18/2020 5:00:00 PM 3 37.4 0.299 7.66 0.62 14.36
12/18/2020 5:15:00 PM 2.97 37.346 0.284 7.63 0.5 14.32
12/18/2020 5:30:00 PM 2.95 37.31 0.299 7.66 0.8 14.28
12/18/2020 5:45:00 PM 2.93 37.274 0.299 7.64 0.32 14.22
12/18/2020 6:00:00 PM 2.92 37.256 0.259 7.69 0.47 14.2
12/18/2020 6:15:00 PM 2.88 37.184 0.286 7.71 0.73 14.16
12/18/2020 6:30:00 PM 2.85 37.13 0.281 7.74 0.48 14.1
12/18/2020 6:45:00 PM 2.81 37.058 0.283 7.79 0.28 14.04
12/18/2020 7:00:00 PM 2.76 36.968 0.28 7.82 0.26 14.02
12/18/2020 7:15:00 PM 2.74 36.932 0.3 7.88 0.43 13.97
12/18/2020 7:30:00 PM 2.71 36.878 0.293 7.88 0.79 13.94
12/18/2020 7:45:00 PM 2.67 36.806 0.281 7.86 0.68 13.9
12/18/2020 8:00:00 PM 2.62 36.716 0.283 7.87 0.94 13.87
12/18/2020 8:15:00 PM 2.58 36.644 0.283 7.9 0.35 13.87
12/18/2020 8:30:00 PM 2.54 36.572 0.28 7.91 0.59 13.84
12/18/2020 8:45:00 PM 2.5 36.5 0.303 7.92 0.71 13.82
12/18/2020 9:00:00 PM 2.47 36.446 0.302 7.96 1.21 13.78
12/18/2020 9:15:00 PM 2.43 36.374 0.298 7.94 0.59 13.77
12/18/2020 9:30:00 PM 2.41 36.338 0.299 7.96 0.24 13.74
12/18/2020 9:45:00 PM 2.37 36.266 0.3 7.95 0.73 13.74
12/18/2020 10:00:00 PM 2.34 36.212 0.3 7.94 0.56 13.73
12/18/2020 10:15:00 PM 2.31 36.158 0.305 7.93 0.17 13.7
12/18/2020 10:30:00 PM 2.28 36.104 0.299 7.93 0.73 13.71
12/18/2020 10:45:00 PM 2.24 36.032 0.302 7.94 0.63 13.71
12/18/2020 11:00:00 PM 2.21 35.978 0.255 7.94 0.5 13.7
12/18/2020 11:15:00 PM 2.17 35.906 0.303 7.94 0.85 13.68
12/18/2020 11:30:00 PM 2.14 35.852 0.3 7.94 0.31 13.67
12/18/2020 11:45:00 PM 2.1 35.78 0.282 7.94 0.59 13.7
12/19/2020 12:00:00 AM 2.06 35.708 0.295 7.94 0.94 13.7
12/19/2020 12:15:00 AM 2.03 35.654 0.3 7.94 1.02 13.71
12/19/2020 12:30:00 AM 1.99 35.582 0.299 7.95 0.76 13.69
12/19/2020 12:45:00 AM 1.94 35.492 0.299 7.94 0.33 13.71
12/19/2020 1:00:00 AM 1.91 35.438 0.299 7.94 0.75 13.7
12/19/2020 1:15:00 AM 1.87 35.366 0.302 7.95 0.29 13.71
12/19/2020 1:30:00 AM 1.83 35.294 0.31 7.94 0.62 13.71
12/19/2020 1:45:00 AM 1.79 35.222 0.303 7.94 0.38 13.72
12/19/2020 2:00:00 AM 1.76 35.168 0.302 7.95 0.45 13.71
12/19/2020 2:15:00 AM 1.72 35.096 0.308 7.95 0.65 13.72
12/19/2020 2:30:00 AM 1.69 35.042 0.307 7.95 0.33 13.73
12/19/2020 2:45:00 AM 1.65 34.97 0.274 7.95 0.18 13.74
12/19/2020 3:00:00 AM 1.61 34.898 0.303 7.95 0.38 13.75
12/19/2020 3:15:00 AM 1.56 34.808 0.269 7.95 0.89 13.77
12/19/2020 3:30:00 AM 1.52 34.736 0.266 7.96 0.49 13.77
12/19/2020 3:45:00 AM 1.46 34.628 0.257 7.95 0.38 13.78
12/19/2020 4:00:00 AM 1.43 34.574 0.248 7.96 0.53 13.79
12/19/2020 4:15:00 AM 1.38 34.484 0.26 7.95 0.63 13.8
12/19/2020 4:30:00 AM 1.34 34.412 0.262 7.95 0.72 13.8
12/19/2020 4:45:00 AM 1.3 34.34 0.243 7.95 0.59 13.83
12/19/2020 5:00:00 AM 1.25 34.25 0.275 7.94 0.64 13.84
12/19/2020 5:15:00 AM 1.22 34.196 0.261 7.95 0.55 13.84
12/19/2020 5:30:00 AM 1.16 34.088 0.273 7.95 0.75 13.85
12/19/2020 5:45:00 AM 1.12 34.016 0.275 7.95 0.97 13.87
12/19/2020 6:00:00 AM 1.08 33.944 0.28 7.95 0.37 13.89
12/19/2020 6:15:00 AM 1.04 33.872 0.252 7.95 0.93 13.91
12/19/2020 6:30:00 AM 0.99 33.782 0.279 7.94 0.58 13.93
12/19/2020 6:45:00 AM 0.94 33.692 0.279 7.94 0.27 13.95
12/19/2020 7:00:00 AM 0.91 33.638 0.245 7.94 0.77 13.96
12/19/2020 7:15:00 AM 0.87 33.566 0.256 7.95 0.72 13.99
12/19/2020 7:30:00 AM 0.84 33.512 0.245 7.95 0.15 13.99
12/19/2020 7:45:00 AM 0.81 33.458 0.248 7.94 0.36 14
12/19/2020 8:00:00 AM 0.79 33.422 0.25 7.94 0.6 14.05
12/19/2020 8:15:00 AM 0.77 33.386 0.253 7.95 0.54 14.09
12/19/2020 8:30:00 AM 0.77 33.386 0.256 7.94 0.16 14.11
12/19/2020 8:45:00 AM 0.75 33.35 0.262 7.95 0.49 14.2
12/19/2020 9:00:00 AM 0.75 33.35 0.262 7.95 0.64 14.26
12/19/2020 9:15:00 AM 0.76 33.368 0.275 7.96 0.61 14.32
12/19/2020 9:30:00 AM 0.78 33.404 0.286 7.95 0.77 14.41
12/19/2020 9:45:00 AM 0.82 33.476 0.258 7.94 0.47 14.48
12/19/2020 10:00:00 AM 0.86 33.548 0.261 7.94 1 14.53
12/19/2020 10:15:00 AM 0.9 33.62 0.272 7.93 0.43 14.57
12/19/2020 10:30:00 AM 0.95 33.71 0.284 7.91 2.23 14.65
12/19/2020 10:45:00 AM 1 33.8 0.308 7.89 5.34 14.69
12/19/2020 11:00:00 AM 1.07 33.926 0.309 7.87 3.2 14.75
12/19/2020 11:15:00 AM 1.13 34.034 0.309 7.84 0.99 14.78
12/19/2020 11:30:00 AM 1.2 34.16 0.306 7.8 1.96 14.85
12/19/2020 11:45:00 AM 1.27 34.286 0.315 7.78 1.15 14.9
12/19/2020 12:00:00 PM 1.34 34.412 0.313 7.75 0.68 14.95
12/19/2020 12:15:00 PM 1.41 34.538 0.313 7.72 2.61 15
12/19/2020 12:30:00 PM 1.48 34.664 0.307 7.67 0.72 15.04
12/19/2020 12:45:00 PM 1.55 34.79 0.306 7.64 1.27 15.07
12/19/2020 1:00:00 PM 1.62 34.916 0.316 7.61 0.92 15.12
12/19/2020 1:15:00 PM 1.69 35.042 0.317 7.57 0.48 15.13
12/19/2020 1:30:00 PM 1.75 35.15 0.317 7.55 0.19 15.16
12/19/2020 1:45:00 PM 1.8 35.24 0.309 7.51 0.28 15.2
12/19/2020 2:00:00 PM 1.86 35.348 0.308 7.48 0.67 15.21
12/19/2020 2:15:00 PM 1.91 35.438 0.31 7.46 0.79 15.22
12/19/2020 2:30:00 PM 1.96 35.528 0.312 7.45 0.05 15.23
12/19/2020 2:45:00 PM 2.01 35.618 0.313 7.44 0.49 15.21
12/19/2020 3:00:00 PM 2.04 35.672 0.308 7.45 0.23 15.21
12/19/2020 3:15:00 PM 2.08 35.744 0.286 7.43 2.06 15.23
12/19/2020 3:30:00 PM 2.1 35.78 0.304 7.46 0.36 15.22
12/19/2020 3:45:00 PM 2.12 35.816 0.303 7.47 0.46 15.18
12/19/2020 4:00:00 PM 2.13 35.834 0.303 7.46 0.4 15.15
12/19/2020 4:15:00 PM 2.13 35.834 0.302 7.47 0.45 15.1
12/19/2020 4:30:00 PM 2.14 35.852 0.302 7.47 0.54 15.04
12/19/2020 4:45:00 PM 2.14 35.852 0.295 7.47 0.22 14.97
12/19/2020 5:00:00 PM 2.15 35.87 0.277 7.46 0.5 14.88
12/19/2020 5:15:00 PM 2.14 35.852 0.283 7.44 0.53 14.82
12/19/2020 5:30:00 PM 2.13 35.834 0.288 7.46 0.33 14.77
12/19/2020 5:45:00 PM 2.11 35.798 0.284 7.49 0.33 14.72
12/19/2020 6:00:00 PM 2.09 35.762 0.3 7.48 0.7 14.67
12/19/2020 6:15:00 PM 2.06 35.708 0.275 7.51 0.25 14.62
12/19/2020 6:30:00 PM 2.04 35.672 0.284 7.6 0.45 14.57
12/19/2020 6:45:00 PM 2.01 35.618 0.263 7.62 0.58 14.54
12/19/2020 7:00:00 PM 1.98 35.564 0.265 7.67 0.24 14.48
12/19/2020 7:15:00 PM 1.96 35.528 0.269 7.75 0.71 14.43
12/19/2020 7:30:00 PM 1.94 35.492 0.276 7.77 0.45 14.39
12/19/2020 7:45:00 PM 1.92 35.456 0.268 7.8 0.49 14.39
12/19/2020 8:00:00 PM 1.9 35.42 0.294 7.84 0.6 14.32
12/19/2020 8:15:00 PM 1.88 35.384 0.266 7.84 0.5 14.28
12/19/2020 8:30:00 PM 1.88 35.384 0.268 7.85 0.31 14.24
12/19/2020 8:45:00 PM 1.88 35.384 0.276 7.87 1.05 14.2
12/19/2020 9:00:00 PM 1.86 35.348 0.274 7.87 0.44 14.17
12/19/2020 9:15:00 PM 1.84 35.312 0.289 7.86 0.85 14.14
12/19/2020 9:30:00 PM 1.83 35.294 0.282 7.85 2.02 14.1
12/19/2020 9:45:00 PM 1.82 35.276 0.282 7.86 0.5 14.08
12/19/2020 10:00:00 PM 1.81 35.258 0.282 7.86 0.17 14.05
12/19/2020 10:15:00 PM 1.8 35.24 0.282 7.85 0.13 14.03
12/19/2020 10:30:00 PM 1.79 35.222 0.28 7.84 0.56 14.02
12/19/2020 10:45:00 PM 1.79 35.222 0.296 7.84 0.31 14
12/19/2020 11:00:00 PM 1.78 35.204 0.304 7.85 0.32 13.99
12/19/2020 11:15:00 PM 1.78 35.204 0.303 7.86 0.9 13.94
12/19/2020 11:30:00 PM 1.79 35.222 0.303 7.89 1.85 13.93
12/19/2020 11:45:00 PM 1.79 35.222 0.295 7.87 0.27 13.92
12/20/2020 12:00:00 AM 1.8 35.24 0.291 7.89 0.21 13.9
12/20/2020 12:15:00 AM 1.8 35.24 0.305 7.89 0.76 13.88
12/20/2020 12:30:00 AM 1.82 35.276 0.304 7.86 0.33 13.86
12/20/2020 12:45:00 AM 1.82 35.276 0.304 7.84 0.4 13.84
12/20/2020 1:00:00 AM 1.83 35.294 0.304 7.83 0.63 13.84
12/20/2020 1:15:00 AM 1.84 35.312 0.302 7.83 0.15 13.83
12/20/2020 1:30:00 AM 1.85 35.33 0.3 7.83 0.14 13.79
12/20/2020 1:45:00 AM 1.86 35.348 0.303 7.84 0.37 13.79
12/20/2020 2:00:00 AM 1.87 35.366 0.305 7.83 0.34 13.76
12/20/2020 2:15:00 AM 1.87 35.366 0.307 7.85 0.59 13.73
12/20/2020 2:30:00 AM 1.88 35.384 0.304 7.82 0.28 13.73
12/20/2020 2:45:00 AM 1.89 35.402 0.309 7.8 1.16 13.7
12/20/2020 3:00:00 AM 1.9 35.42 0.307 7.79 0.67 13.7
12/20/2020 3:15:00 AM 1.9 35.42 0.307 7.79 1.33 13.69
12/20/2020 3:30:00 AM 1.91 35.438 0.304 7.81 0.93 13.67
12/20/2020 3:45:00 AM 1.93 35.474 0.306 7.8 0.26 13.66
12/20/2020 4:00:00 AM 1.93 35.474 0.303 7.78 0.47 13.66
12/20/2020 4:15:00 AM 1.94 35.492 0.298 7.77 0.92 13.64
12/20/2020 4:30:00 AM 1.95 35.51 0.276 7.75 1.55 13.64
12/20/2020 4:45:00 AM 1.96 35.528 0.305 7.76 0.58 13.63
12/20/2020 5:00:00 AM 1.96 35.528 0.305 7.76 0.53 13.61
12/20/2020 5:15:00 AM 1.97 35.546 0.31 7.73 0.89 13.6
12/20/2020 5:30:00 AM 1.98 35.564 0.284 7.69 0.36 13.6
12/20/2020 5:45:00 AM 1.98 35.564 0.274 7.68 0.44 13.6
12/20/2020 6:00:00 AM 1.98 35.564 0.28 7.71 0.65 13.59
12/20/2020 6:15:00 AM 1.98 35.564 0.278 7.71 0.38 13.59
12/20/2020 6:30:00 AM 1.99 35.582 0.277 7.71 0.91 13.57
12/20/2020 6:45:00 AM 1.99 35.582 0.308 7.66 0.86 13.58
12/20/2020 7:00:00 AM 1.99 35.582 0.311 7.68 0.29 13.57
12/20/2020 7:15:00 AM 2 35.6 0.306 7.7 1.24 13.54
12/20/2020 7:30:00 AM 1.99 35.582 0.309 7.7 0.71 13.54
12/20/2020 7:45:00 AM 2 35.6 0.307 7.65 0.56 13.55
12/20/2020 8:00:00 AM 2.01 35.618 0.312 7.63 0.2 13.55
12/20/2020 8:15:00 AM 2.02 35.636 0.313 7.64 0.55 13.55
12/20/2020 8:30:00 AM 2.03 35.654 0.324 7.65 0.46 13.57
12/20/2020 8:45:00 AM 2.05 35.69 0.319 7.63 0.49 13.59
12/20/2020 9:00:00 AM 2.06 35.708 0.291 7.58 0.5 13.65
12/20/2020 9:15:00 AM 2.09 35.762 0.323 7.57 1.13 13.68
12/20/2020 9:30:00 AM 2.1 35.78 0.319 7.56 0.28 13.73
12/20/2020 9:45:00 AM 2.13 35.834 0.322 7.54 0.53 13.78
12/20/2020 10:00:00 AM 2.17 35.906 0.32 7.51 0.43 13.81
12/20/2020 10:15:00 AM 2.19 35.942 0.318 7.48 0.83 13.89
12/20/2020 10:30:00 AM 2.23 36.014 0.302 7.47 0.8 13.9
12/20/2020 10:45:00 AM 2.28 36.104 0.313 7.43 0.41 13.95
12/20/2020 11:00:00 AM 2.33 36.194 0.314 7.44 0.34 14.01
12/20/2020 11:15:00 AM 2.38 36.284 0.314 7.43 3.6 14.07
12/20/2020 11:30:00 AM 2.43 36.374 0.314 7.41 0.41 14.12
12/20/2020 11:45:00 AM 2.48 36.464 0.314 7.35 1.02 14.16
12/20/2020 12:00:00 PM 2.54 36.572 0.314 7.32 0.56 14.18
12/20/2020 12:15:00 PM 2.62 36.716 0.313 7.29 0.6 14.26
12/20/2020 12:30:00 PM 2.69 36.842 0.312 7.27 1.09 14.32
12/20/2020 12:45:00 PM 2.77 36.986 0.312 7.27 0.95 14.37
12/20/2020 1:00:00 PM 2.83 37.094 0.3 7.26 0.48 14.44
12/20/2020 1:15:00 PM 2.9 37.22 0.306 7.26 0.81 14.46
12/20/2020 1:30:00 PM 2.95 37.31 0.31 7.26 0.46 14.5
12/20/2020 1:45:00 PM 3.01 37.418 0.303 7.25 0.93 14.53
12/20/2020 2:00:00 PM 3.06 37.508 0.31 7.25 0.65 14.53
12/20/2020 2:15:00 PM 3.11 37.598 0.308 7.24 0.16 14.55
12/20/2020 2:30:00 PM 3.17 37.706 0.287 7.25 0.23 14.58
12/20/2020 2:45:00 PM 3.23 37.814 0.284 7.27 0.66 14.58
12/20/2020 3:00:00 PM 3.28 37.904 0.264 7.28 0.74 14.59
12/20/2020 3:15:00 PM 3.31 37.958 0.258 7.29 0.52 14.56
12/20/2020 3:30:00 PM 3.35 38.03 0.252 7.3 0.52 14.54
12/20/2020 3:45:00 PM 3.37 38.066 0.253 7.29 1.15 14.47
12/20/2020 4:00:00 PM 3.4 38.12 0.253 7.31 0.22 14.43
12/20/2020 4:15:00 PM 3.42 38.156 0.253 7.31 0.48 14.37
12/20/2020 4:30:00 PM 3.42 38.156 0.259 7.31 0.49 14.32
12/20/2020 4:45:00 PM 3.43 38.174 0.267 7.31 1.42 14.25
12/20/2020 5:00:00 PM 3.44 38.192 0.267 7.3 0.57 14.13
12/20/2020 5:15:00 PM 3.45 38.21 0.272 7.31 0.39 14.1
12/20/2020 5:30:00 PM 3.46 38.228 0.302 7.31 0.04 14.04
12/20/2020 5:45:00 PM 3.47 38.246 0.288 7.31 0.68 13.98
12/20/2020 6:00:00 PM 3.47 38.246 0.286 7.31 0.4 13.9
12/20/2020 6:15:00 PM 3.48 38.264 0.259 7.33 0.5 13.85
12/20/2020 6:30:00 PM 3.48 38.264 0.27 7.35 0.65 13.79
12/20/2020 6:45:00 PM 3.49 38.282 0.301 7.34 0.78 13.73
12/20/2020 7:00:00 PM 3.5 38.3 0.262 7.33 1.12 13.69
12/20/2020 7:15:00 PM 3.51 38.318 0.283 7.38 0.28 13.61
12/20/2020 7:30:00 PM 3.52 38.336 0.281 7.37 1.44 13.57
12/20/2020 7:45:00 PM 3.53 38.354 0.261 7.35 0.7 13.52
12/20/2020 8:00:00 PM 3.55 38.39 0.289 7.32 1.78 13.48
12/20/2020 8:15:00 PM 3.56 38.408 0.294 7.36 0.58 13.43
12/20/2020 8:30:00 PM 3.57 38.426 0.308 7.38 0.44 13.37
12/20/2020 8:45:00 PM 3.58 38.444 0.287 7.37 0.81 13.32
12/20/2020 9:00:00 PM 3.59 38.462 0.288 7.36 0.72 13.28
12/20/2020 9:15:00 PM 3.6 38.48 0.309 7.36 0.87 13.24
12/20/2020 9:30:00 PM 3.62 38.516 0.298 7.38 0.52 13.2
12/20/2020 9:45:00 PM 3.63 38.534 0.311 7.36 0.75 13.14
12/20/2020 10:00:00 PM 3.65 38.57 0.311 7.34 0.89 13.13
12/20/2020 10:15:00 PM 3.67 38.606 0.313 7.34 0.85 13.1
12/20/2020 10:30:00 PM 3.69 38.642 0.306 7.34 1.42 13.06
12/20/2020 10:45:00 PM 3.71 38.678 0.315 7.36 1.58 13.01
12/20/2020 11:00:00 PM 3.73 38.714 0.308 7.37 1.45 12.99
12/20/2020 11:15:00 PM 3.75 38.75 0.315 7.35 1.58 12.95
12/20/2020 11:30:00 PM 3.77 38.786 0.316 7.35 1.45 12.94
12/20/2020 11:45:00 PM 3.79 38.822 0.314 7.35 0.94 12.92
12/21/2020 12:00:00 AM 3.8 38.84 0.314 7.35 0.72 12.88
12/21/2020 12:15:00 AM 3.82 38.876 0.301 7.35 0.75 12.85
12/21/2020 12:30:00 AM 3.84 38.912 0.292 7.35 0.88 12.84
12/21/2020 12:45:00 AM 3.85 38.93 0.291 7.34 0.68 12.82
12/21/2020 1:00:00 AM 3.86 38.948 0.273 7.34 1.09 12.79
12/21/2020 1:15:00 AM 3.88 38.984 0.287 7.34 0.99 12.78
12/21/2020 1:30:00 AM 3.9 39.02 0.291 7.36 0.61 12.76
12/21/2020 1:45:00 AM 3.92 39.056 0.3 7.36 0.65 12.73
12/21/2020 2:00:00 AM 3.93 39.074 0.299 7.37 1.66 12.71
12/21/2020 2:15:00 AM 3.95 39.11 0.296 7.39 0.6 12.69
12/21/2020 2:30:00 AM 3.96 39.128 0.3 7.39 1.39 12.66
12/21/2020 2:45:00 AM 3.97 39.146 0.284 7.36 2.3 12.65
12/21/2020 3:00:00 AM 3.98 39.164 0.287 7.39 0.59 12.63
12/21/2020 3:15:00 AM 3.99 39.182 0.291 7.37 0.71 12.62
12/21/2020 3:30:00 AM 4 39.2 0.298 7.38 1.1 12.61
12/21/2020 3:45:00 AM 4 39.2 0.282 7.39 2.02 12.57
12/21/2020 4:00:00 AM 3.98 39.164 0.299 7.44 1.37 12.58
12/21/2020 4:15:00 AM 3.96 39.128 0.286 7.49 1.15 12.58
12/21/2020 4:30:00 AM 3.95 39.11 0.318 7.52 0.64 12.57
12/21/2020 4:45:00 AM 3.93 39.074 0.293 7.53 1.3 12.55
12/21/2020 5:00:00 AM 3.93 39.074 0.278 7.61 0.77 12.54
12/21/2020 5:15:00 AM 3.9 39.02 0.278 7.63 0.43 12.54
12/21/2020 5:30:00 AM 3.89 39.002 0.297 7.62 0.58 12.53
12/21/2020 5:45:00 AM 3.87 38.966 0.276 7.65 0.44 12.54
12/21/2020 6:00:00 AM 3.84 38.912 0.318 7.73 1.26 12.52
12/21/2020 6:15:00 AM 3.83 38.894 0.313 7.77 0.73 12.54
12/21/2020 6:30:00 AM 3.83 38.894 0.314 7.76 1.08 12.53
12/21/2020 6:45:00 AM 3.83 38.894 0.315 7.74 0.78 12.53
12/21/2020 7:00:00 AM 3.82 38.876 0.293 7.71 0.56 12.53
12/21/2020 7:15:00 AM 3.82 38.876 0.316 7.69 0.79 12.52
12/21/2020 7:30:00 AM 3.82 38.876 0.316 7.67 1.49 12.51
12/21/2020 7:45:00 AM 3.81 38.858 0.272 7.65 1.66 12.52
12/21/2020 8:00:00 AM 3.82 38.876 0.281 7.64 2.68 12.54
12/21/2020 8:15:00 AM 3.83 38.894 0.281 7.61 2.16 12.55
12/21/2020 8:30:00 AM 3.84 38.912 0.276 7.59 1.44 12.57
12/21/2020 8:45:00 AM 3.84 38.912 0.302 7.59 11.56 12.62
12/21/2020 9:00:00 AM 3.86 38.948 0.317 7.56 1.63 12.66
12/21/2020 9:15:00 AM 3.87 38.966 0.317 7.56 0.56 12.73
12/21/2020 9:30:00 AM 3.89 39.002 0.316 7.53 0.69 12.76
12/21/2020 9:45:00 AM 3.92 39.056 0.316 7.51 0.55 12.82
12/21/2020 10:00:00 AM 3.96 39.128 0.316 7.51 1.19 12.94
12/21/2020 10:15:00 AM 4.02 39.236 0.316 7.46 0.72 13.01
12/21/2020 10:30:00 AM 4.08 39.344 0.316 7.41 1.15 13.11
12/21/2020 10:45:00 AM 4.16 39.488 0.317 7.31 1.48 13.18
12/21/2020 11:00:00 AM 4.23 39.614 0.317 7.31 2.06 13.27
12/21/2020 11:15:00 AM 4.3 39.74 0.317 7.32 1.15 13.33
12/21/2020 11:30:00 AM 4.37 39.866 0.317 7.28 0.76 13.38
12/21/2020 11:45:00 AM 4.42 39.956 0.317 7.25 1.14 13.44
12/21/2020 12:00:00 PM 4.49 40.082 0.316 7.17 0.76 13.52
12/21/2020 12:15:00 PM 4.55 40.19 0.315 7.08 0.52 13.57
12/21/2020 12:30:00 PM 4.59 40.262 0.315 7.02 1.18 13.61
12/21/2020 12:45:00 PM 4.65 40.37 0.315 6.94 0.64 13.67
12/21/2020 1:00:00 PM 4.69 40.442 0.314 6.86 1.32 13.68
12/21/2020 1:15:00 PM 4.73 40.514 0.314 6.84 1.11 13.74
12/21/2020 1:30:00 PM 4.78 40.604 0.314 6.76 0.5 13.79
12/21/2020 1:45:00 PM 4.81 40.658 0.314 6.78 0.95 13.79
12/21/2020 2:00:00 PM 4.84 40.712 0.314 6.74 0.7 13.84
12/21/2020 2:15:00 PM 4.87 40.766 0.315 6.74 0.77 13.84
12/21/2020 2:30:00 PM 4.91 40.838 0.314 6.73 1.12 13.83
12/21/2020 2:45:00 PM 4.96 40.928 0.314 6.72 0.78 13.86
12/21/2020 3:00:00 PM 4.99 40.982 0.314 6.68 0.78 13.89
12/21/2020 3:15:00 PM 5 41 0.3 6.74 0.98 13.86
12/21/2020 3:30:00 PM 5.01 41.018 0.272 6.81 1.06 13.81
12/21/2020 3:45:00 PM 5.03 41.054 0.272 6.79 0.82 13.75
12/21/2020 4:00:00 PM 5.03 41.054 0.273 6.8 1.17 13.72
12/21/2020 4:15:00 PM 5.04 41.072 0.274 6.84 1.4 13.68
12/21/2020 4:30:00 PM 5.03 41.054 0.273 6.93 1.48 13.6
12/21/2020 4:45:00 PM 5.02 41.036 0.278 7.06 0.89 13.52
12/21/2020 5:00:00 PM 5 41 0.274 7.08 2.44 13.43
12/21/2020 5:15:00 PM 4.99 40.982 0.324 7.19 1.02 13.37
12/21/2020 5:30:00 PM 4.99 40.982 0.273 7.2 0.68 13.29
12/21/2020 5:45:00 PM 4.98 40.964 0.281 7.23 2.05 13.23
12/21/2020 6:00:00 PM 4.97 40.946 0.246 7.22 0.97 13.19
12/21/2020 6:15:00 PM 4.96 40.928 0.264 7.27 0.53 13.12
12/21/2020 6:30:00 PM 4.94 40.892 0.267 7.33 1.22 13.06
12/21/2020 6:45:00 PM 4.93 40.874 0.262 7.41 0.65 13.02
12/21/2020 7:00:00 PM 4.91 40.838 0.28 7.45 1.32 12.96
12/21/2020 7:15:00 PM 4.89 40.802 0.238 7.47 0.56 12.93
12/21/2020 7:30:00 PM 4.88 40.784 0.263 7.5 13.62 12.84
12/21/2020 7:45:00 PM 4.88 40.784 0.292 7.49 0.87 12.82
12/21/2020 8:00:00 PM 4.87 40.766 0.283 7.45 0.95 12.76
12/21/2020 8:15:00 PM 4.86 40.748 0.254 7.42 0.2 12.73
12/21/2020 8:30:00 PM 4.85 40.73 0.255 7.41 1.01 12.65
12/21/2020 8:45:00 PM 4.85 40.73 0.276 7.39 0.5 12.62
12/21/2020 9:00:00 PM 4.84 40.712 0.272 7.39 0.56 12.58
12/21/2020 9:15:00 PM 4.84 40.712 0.248 7.42 0.63 12.56
12/21/2020 9:30:00 PM 4.84 40.712 0.289 7.43 0.23 12.53
12/21/2020 9:45:00 PM 4.84 40.712 0.251 7.35 0.93 12.48
12/21/2020 10:00:00 PM 4.84 40.712 0.265 7.34 0.67 12.48
12/21/2020 10:15:00 PM 4.84 40.712 0.248 7.39 0.72 12.45
12/21/2020 10:30:00 PM 4.84 40.712 0.242 7.4 0.68 12.41
12/21/2020 10:45:00 PM 4.85 40.73 0.23 7.43 0.6 12.39
12/21/2020 11:00:00 PM 4.86 40.748 0.237 7.42 1.78 12.35
12/21/2020 11:15:00 PM 4.86 40.748 0.214 7.39 1.59 12.33
12/21/2020 11:30:00 PM 4.86 40.748 0.241 7.45 0.49 12.32
12/21/2020 11:45:00 PM 4.86 40.748 0.22 7.46 1.31 12.3
12/22/2020 12:00:00 AM 4.87 40.766 0.254 7.42 0.5 12.25
12/22/2020 12:15:00 AM 4.87 40.766 0.27 7.43 1.17 12.25
12/22/2020 12:30:00 AM 4.87 40.766 0.256 7.38 0.7 12.23
12/22/2020 12:45:00 AM 4.88 40.784 0.232 7.37 0.77 12.23
12/22/2020 1:00:00 AM 4.88 40.784 0.279 7.37 0.42 12.21
12/22/2020 1:15:00 AM 4.89 40.802 0.255 7.39 0.57 12.18
12/22/2020 1:30:00 AM 4.89 40.802 0.235 7.38 0.54 12.18
12/22/2020 1:45:00 AM 4.9 40.82 0.252 7.39 1.58 12.16
12/22/2020 2:00:00 AM 4.9 40.82 0.277 7.38 0.55 12.15
12/22/2020 2:15:00 AM 4.91 40.838 0.253 7.36 0.98 12.12
12/22/2020 2:30:00 AM 4.92 40.856 0.281 7.35 0.58 12.12
12/22/2020 2:45:00 AM 4.92 40.856 0.296 7.35 0.62 12.09
12/22/2020 3:00:00 AM 4.92 40.856 0.23 7.39 1.13 12.07
12/22/2020 3:15:00 AM 4.92 40.856 0.276 7.46 0.98 12.07
12/22/2020 3:30:00 AM 4.92 40.856 0.286 7.38 1.15 12.06
12/22/2020 3:45:00 AM 4.92 40.856 0.244 7.4 2.04 12.05
12/22/2020 4:00:00 AM 4.91 40.838 0.245 7.43 1.14 12.05
12/22/2020 4:15:00 AM 4.91 40.838 0.246 7.4 0.7 12.05
12/22/2020 4:30:00 AM 4.91 40.838 0.266 7.38 0.55 12.05
12/22/2020 4:45:00 AM 4.91 40.838 0.274 7.36 1.11 12.01
12/22/2020 5:00:00 AM 4.91 40.838 0.262 7.37 0.6 12.04
12/22/2020 5:15:00 AM 4.9 40.82 0.228 7.4 0.39 12.03
12/22/2020 5:30:00 AM 4.9 40.82 0.253 7.38 0.44 12.01
12/22/2020 5:45:00 AM 4.89 40.802 0.24 7.38 0.28 12.02
12/22/2020 6:00:00 AM 4.87 40.766 0.242 7.4 0.74 12
12/22/2020 6:15:00 AM 4.86 40.748 0.245 7.43 0.67 12.02
12/22/2020 6:30:00 AM 4.85 40.73 0.243 7.41 0.46 12.02
12/22/2020 6:45:00 AM 4.85 40.73 0.245 7.39 0.85 12.02
12/22/2020 7:00:00 AM 4.86 40.748 0.244 7.37 0.89 12.01
12/22/2020 7:15:00 AM 4.86 40.748 0.273 7.35 1.06 12.02
12/22/2020 7:30:00 AM 4.86 40.748 0.287 7.34 0.51 12
12/22/2020 7:45:00 AM 4.87 40.766 0.278 7.32 0.77 12
12/22/2020 8:00:00 AM 4.87 40.766 0.303 7.29 0.95 12
12/22/2020 8:15:00 AM 4.88 40.784 0.3 7.27 0.58 12.04
12/22/2020 8:30:00 AM 4.88 40.784 0.279 7.25 0.63 12.08
12/22/2020 8:45:00 AM 4.9 40.82 0.295 7.21 0.23 12.16
12/22/2020 9:00:00 AM 4.93 40.874 0.292 7.08 0.56 12.22
12/22/2020 9:15:00 AM 4.95 40.91 0.285 6.99 0.37 12.32
12/22/2020 9:30:00 AM 5.02 41.036 0.283 6.88 0.47 12.42
12/22/2020 9:45:00 AM 5.06 41.108 0.283 6.75 0.59 12.51
12/22/2020 10:00:00 AM 5.07 41.126 0.288 6.7 0.86 12.56
12/22/2020 10:15:00 AM 5.08 41.144 0.29 6.68 0.41 12.54
12/22/2020 10:30:00 AM 5.1 41.18 0.298 6.64 0.54 12.56
12/22/2020 10:45:00 AM 5.14 41.252 0.304 6.55 0.62 12.61
12/22/2020 11:00:00 AM 5.18 41.324 0.303 6.49 0.49 12.71
12/22/2020 11:15:00 AM 5.24 41.432 0.306 6.44 0.4 12.79
12/22/2020 11:30:00 AM 5.33 41.594 0.306 6.37 0.48 12.9
12/22/2020 11:45:00 AM 5.38 41.684 0.306 6.32 0.32 12.97
12/22/2020 12:00:00 PM 5.4 41.72 0.306 6.28 0.52 13.03
12/22/2020 12:15:00 PM 5.41 41.738 0.305 6.26 0.35 13.07
12/22/2020 12:30:00 PM 5.44 41.792 0.307 6.23 0.42 13.11
12/22/2020 12:45:00 PM 5.47 41.846 0.305 6.21 0.58 13.17
12/22/2020 1:00:00 PM 5.51 41.918 0.302 6.2 0.27 13.25
12/22/2020 1:15:00 PM 5.56 42.008 0.297 6.18 0.64 13.32
12/22/2020 1:30:00 PM 5.56 42.008 0.3 6.17 0.05 13.34
12/22/2020 1:45:00 PM 5.56 42.008 0.302 6.16 0.28 13.34
12/22/2020 2:00:00 PM 5.58 42.044 0.294 6.15 1.28 13.37
12/22/2020 2:15:00 PM 5.62 42.116 0.307 6.12 3.97 13.38
12/22/2020 2:30:00 PM 5.64 42.152 0.305 6.13 1.42 13.42
12/22/2020 2:45:00 PM 5.67 42.206 0.307 6.13 0.74 13.42
12/22/2020 3:00:00 PM 5.67 42.206 0.306 6.11 0.77 13.41
12/22/2020 3:15:00 PM 5.68 42.224 0.3 6.12 1.16 13.39
12/22/2020 3:30:00 PM 5.69 42.242 0.292 6.13 0.71 13.38
12/22/2020 3:45:00 PM 5.68 42.224 0.293 6.14 0.71 13.37
12/22/2020 4:00:00 PM 5.7 42.26 0.293 6.18 0.53 13.33
12/22/2020 4:15:00 PM 5.7 42.26 0.293 6.2 0.45 13.3
12/22/2020 4:30:00 PM 5.71 42.278 0.296 6.2 0.81 13.25
12/22/2020 4:45:00 PM 5.69 42.242 0.296 6.2 0.57 13.19
12/22/2020 5:00:00 PM 5.69 42.242 0.266 6.27 0.68 13.11
12/22/2020 5:15:00 PM 5.67 42.206 0.285 6.34 0.37 13.06
12/22/2020 5:30:00 PM 5.66 42.188 0.253 6.39 0.9 12.99
12/22/2020 5:45:00 PM 5.65 42.17 0.289 6.46 0.84 12.93
12/22/2020 6:00:00 PM 5.64 42.152 0.294 6.61 0.45 12.88
12/22/2020 6:15:00 PM 5.63 42.134 0.314 6.79 0.43 12.82
12/22/2020 6:30:00 PM 5.61 42.098 0.299 6.95 0.64 12.77
12/22/2020 6:45:00 PM 5.6 42.08 0.291 7.01 0.95 12.71
12/22/2020 7:00:00 PM 5.6 42.08 0.276 6.99 0.68 12.67
12/22/2020 7:15:00 PM 5.6 42.08 0.275 6.92 0.62 12.62
12/22/2020 7:30:00 PM 5.59 42.062 0.276 6.88 1.27 12.56
12/22/2020 7:45:00 PM 5.57 42.026 0.305 6.8 0.62 12.52
12/22/2020 8:00:00 PM 5.55 41.99 0.259 6.79 1.23 12.51
12/22/2020 8:15:00 PM 5.53 41.954 0.265 6.76 1.19 12.46
12/22/2020 8:30:00 PM 5.51 41.918 0.285 6.74 0.88 12.42
12/22/2020 8:45:00 PM 5.49 41.882 0.264 6.73 0.82 12.37
12/22/2020 9:00:00 PM 5.46 41.828 0.29 6.71 0.97 12.36
12/22/2020 9:15:00 PM 5.45 41.81 0.293 6.7 0.86 12.33
12/22/2020 9:30:00 PM 5.44 41.792 0.292 6.72 0.76 12.28
12/22/2020 9:45:00 PM 5.44 41.792 0.273 6.74 0.92 12.28
12/22/2020 10:00:00 PM 5.42 41.756 0.281 6.74 1.14 12.27
12/22/2020 10:15:00 PM 5.43 41.774 0.271 6.73 0.73 12.25
12/22/2020 10:30:00 PM 5.43 41.774 0.273 6.7 1.02 12.22
12/22/2020 10:45:00 PM 5.43 41.774 0.268 6.71 0.99 12.22
12/22/2020 11:00:00 PM 5.42 41.756 0.266 6.71 0.57 12.2
12/22/2020 11:15:00 PM 5.44 41.792 0.277 6.72 0.98 12.18
12/22/2020 11:30:00 PM 5.43 41.774 0.282 6.71 0.84 12.16
12/22/2020 11:45:00 PM 5.41 41.738 0.288 6.73 4.49 12.17
12/23/2020 12:00:00 AM 5.39 41.702 0.272 6.79 0.81 12.16
12/23/2020 12:15:00 AM 5.37 41.666 0.277 6.86 1.5 12.14
12/23/2020 12:30:00 AM 5.34 41.612 0.272 6.93 0.83 12.15
12/23/2020 12:45:00 AM 5.32 41.576 0.273 6.99 1.34 12.12
12/23/2020 1:00:00 AM 5.3 41.54 0.276 7.11 0.8 12.13
12/23/2020 1:15:00 AM 5.29 41.522 0.283 7.15 1.16 12.12
12/23/2020 1:30:00 AM 5.27 41.486 0.284 7.16 0.63 12.1
12/23/2020 1:45:00 AM 5.27 41.486 0.301 7.16 0.95 12.11
12/23/2020 2:00:00 AM 5.25 41.45 0.273 7.16 1.02 12.13
12/23/2020 2:15:00 AM 5.23 41.414 0.271 7.15 1.32 12.11
12/23/2020 2:30:00 AM 5.2 41.36 0.24 7.14 1.17 12.11
12/23/2020 2:45:00 AM 5.17 41.306 0.264 7.15 0.98 12.11
12/23/2020 3:00:00 AM 5.13 41.234 0.295 7.16 0.63 12.12
12/23/2020 3:15:00 AM 5.1 41.18 0.27 7.22 1.2 12.13
12/23/2020 3:30:00 AM 5.06 41.108 0.28 7.29 1.5 12.14
12/23/2020 3:45:00 AM 5.02 41.036 0.301 7.32 1.48 12.14
12/23/2020 4:00:00 AM 4.99 40.982 0.275 7.37 1.69 12.13
12/23/2020 4:15:00 AM 4.94 40.892 0.269 7.41 2.26 12.16
12/23/2020 4:30:00 AM 4.89 40.802 0.296 7.42 1.66 12.16
12/23/2020 4:45:00 AM 4.85 40.73 0.266 7.43 1.24 12.19
12/23/2020 5:00:00 AM 4.79 40.622 0.281 7.42 1.5 12.2
12/23/2020 5:15:00 AM 4.75 40.55 0.239 7.43 2.2 12.21
12/23/2020 5:30:00 AM 4.69 40.442 0.318 7.44 1.66 12.24
12/23/2020 5:45:00 AM 4.64 40.352 0.302 7.46 1.23 12.26
12/23/2020 6:00:00 AM 4.59 40.262 0.286 7.49 1.57 12.27
12/23/2020 6:15:00 AM 4.55 40.19 0.266 7.52 1.59 12.27
12/23/2020 6:30:00 AM 4.5 40.1 0.274 7.54 1.13 12.28
12/23/2020 6:45:00 AM 4.45 40.01 0.249 7.56 1.03 12.31
12/23/2020 7:00:00 AM 4.4 39.92 0.289 7.57 3.21 12.33
12/23/2020 7:15:00 AM 4.35 39.83 0.33 7.58 12.51 12.32
12/23/2020 7:30:00 AM 4.31 39.758 0.278 7.59 1.11 12.34
12/23/2020 7:45:00 AM 4.27 39.686 0.293 7.59 1.14 12.38
12/23/2020 8:00:00 AM 4.23 39.614 0.292 7.6 1.73 12.42
12/23/2020 8:15:00 AM 4.2 39.56 0.291 7.6 1.07 12.47
12/23/2020 8:30:00 AM 4.18 39.524 0.287 7.6 1.24 12.52
12/23/2020 8:45:00 AM 4.16 39.488 0.303 7.58 2.33 12.59
12/23/2020 9:00:00 AM 4.14 39.452 0.306 7.57 1.64 12.63
12/23/2020 9:15:00 AM 4.14 39.452 0.311 7.56 1 12.71
12/23/2020 9:30:00 AM 4.15 39.47 0.321 7.54 0.91 12.8
12/23/2020 9:45:00 AM 4.18 39.524 0.316 7.49 1.21 12.88
12/23/2020 10:00:00 AM 4.21 39.578 0.314 7.44 1.81 12.97
12/23/2020 10:15:00 AM 4.24 39.632 0.313 7.36 1.41 13.04
12/23/2020 10:30:00 AM 4.26 39.668 0.322 7.3 1.43 13.1
12/23/2020 10:45:00 AM 4.3 39.74 0.321 7.22 2.63 13.18
12/23/2020 11:00:00 AM 4.34 39.812 0.321 7.14 1.4 13.27
12/23/2020 11:15:00 AM 4.38 39.884 0.322 7.09 1.41 13.35
12/23/2020 11:30:00 AM 4.43 39.974 0.315 7.03 1.82 13.44
12/23/2020 11:45:00 AM 4.47 40.046 0.311 6.96 1.6 13.49
12/23/2020 12:00:00 PM 4.51 40.118 0.308 6.92 1.53 13.57
12/23/2020 12:15:00 PM 4.56 40.208 0.303 6.86 1.24 13.63
12/23/2020 12:30:00 PM 4.61 40.298 0.304 6.78 1.21 13.68
12/23/2020 12:45:00 PM 4.68 40.424 0.307 6.74 1.17 13.77
12/23/2020 1:00:00 PM 4.73 40.514 0.309 6.68 1.41 13.81
12/23/2020 1:15:00 PM 4.77 40.586 0.309 6.64 1.17 13.85
12/23/2020 1:30:00 PM 4.82 40.676 0.303 6.6 1.48 13.89
12/23/2020 1:45:00 PM 4.87 40.766 0.329 6.56 1 13.87
12/23/2020 2:00:00 PM 4.91 40.838 0.337 6.52 1.07 13.94
12/23/2020 2:15:00 PM 4.94 40.892 0.338 6.47 0.89 13.96
12/23/2020 2:30:00 PM 4.97 40.946 0.339 6.46 0.73 14
12/23/2020 2:45:00 PM 5 41 0.333 6.49 0.6 14.02
12/23/2020 3:00:00 PM 5.02 41.036 0.319 6.45 1.26 14.02
12/23/2020 3:15:00 PM 5.03 41.054 0.309 6.43 0.9 13.99
12/23/2020 3:30:00 PM 5.05 41.09 0.316 6.38 1.53 13.95
12/23/2020 3:45:00 PM 5.06 41.108 0.296 6.41 2.11 13.93
12/23/2020 4:00:00 PM 5.06 41.108 0.316 6.37 0.91 13.88
12/23/2020 4:15:00 PM 5.06 41.108 0.315 6.4 0.72 13.82
12/23/2020 4:30:00 PM 5.06 41.108 0.314 6.36 0.92 13.76
12/23/2020 4:45:00 PM 5.04 41.072 0.315 6.39 1.18 13.71
12/23/2020 5:00:00 PM 5.03 41.054 0.307 6.36 0.8 13.62
12/23/2020 5:15:00 PM 5.02 41.036 0.313 6.33 1.19 13.56
12/23/2020 5:30:00 PM 5.01 41.018 0.292 6.36 1.02 13.5
12/23/2020 5:45:00 PM 5 41 0.286 6.4 1.42 13.42
12/23/2020 6:00:00 PM 4.99 40.982 0.29 6.41 1.02 13.35
12/23/2020 6:15:00 PM 4.98 40.964 0.306 6.45 0.65 13.3
12/23/2020 6:30:00 PM 4.97 40.946 0.289 6.48 1.12 13.23
12/23/2020 6:45:00 PM 4.96 40.928 0.292 6.51 1.31 13.19
12/23/2020 7:00:00 PM 4.94 40.892 0.293 6.56 1.02 13.13
12/23/2020 7:15:00 PM 4.93 40.874 0.292 6.58 0.83 13.08
12/23/2020 7:30:00 PM 4.93 40.874 0.312 6.61 2.48 13.01
12/23/2020 7:45:00 PM 4.92 40.856 0.319 6.63 1.02 12.98
12/23/2020 8:00:00 PM 4.93 40.874 0.317 6.65 0.84 12.93
12/23/2020 8:15:00 PM 4.93 40.874 0.265 6.66 1.19 12.88
12/23/2020 8:30:00 PM 4.92 40.856 0.285 6.65 0.89 12.85
12/23/2020 8:45:00 PM 4.92 40.856 0.266 6.64 2.13 12.8
12/23/2020 9:00:00 PM 4.93 40.874 0.237 6.63 0.81 12.75
12/23/2020 9:15:00 PM 4.94 40.892 0.261 6.63 0.82 12.73
12/23/2020 9:30:00 PM 4.95 40.91 0.26 6.62 1.32 12.69
12/23/2020 9:45:00 PM 4.96 40.928 0.241 6.61 0.79 12.65
12/23/2020 10:00:00 PM 4.98 40.964 0.285 6.58 1.41 12.61
12/23/2020 10:15:00 PM 4.99 40.982 0.26 6.59 1.69 12.59
12/23/2020 10:30:00 PM 5 41 0.234 6.59 0.89 12.56
12/23/2020 10:45:00 PM 5.02 41.036 0.25 6.57 1.49 12.55
12/23/2020 11:00:00 PM 5.03 41.054 0.257 6.56 1.41 12.52
12/23/2020 11:15:00 PM 5.04 41.072 0.28 6.52 2.63 12.49
12/23/2020 11:30:00 PM 5.04 41.072 0.278 6.52 2.15 12.47
12/23/2020 11:45:00 PM 5.04 41.072 0.271 6.53 2.15 12.43
12/24/2020 12:00:00 AM 5.04 41.072 0.276 6.53 0.69 12.44
12/24/2020 12:15:00 AM 5.04 41.072 0.264 6.54 1.29 12.41
12/24/2020 12:30:00 AM 5.05 41.09 0.275 6.56 1.22 12.39
12/24/2020 12:45:00 AM 5.05 41.09 0.268 6.57 2.16 12.36
12/24/2020 1:00:00 AM 5.06 41.108 0.286 6.6 1.4 12.35
12/24/2020 1:15:00 AM 5.07 41.126 0.285 6.64 1.31 12.31
12/24/2020 1:30:00 AM 5.1 41.18 0.298 6.67 0.97 12.3
12/24/2020 1:45:00 AM 5.11 41.198 0.289 6.68 1.22 12.26
12/24/2020 2:00:00 AM 5.12 41.216 0.256 6.69 1.13 12.27
12/24/2020 2:15:00 AM 5.13 41.234 0.28 6.68 1.1 12.26
12/24/2020 2:30:00 AM 5.13 41.234 0.261 6.69 0.87 12.27
12/24/2020 2:45:00 AM 5.14 41.252 0.238 6.66 1.37 12.25
12/24/2020 3:00:00 AM 5.14 41.252 0.231 6.65 0.98 12.23
12/24/2020 3:15:00 AM 5.15 41.27 0.255 6.64 0.92 12.22
12/24/2020 3:30:00 AM 5.16 41.288 0.236 6.62 0.76 12.2
12/24/2020 3:45:00 AM 5.17 41.306 0.231 6.6 1.62 12.2
12/24/2020 4:00:00 AM 5.17 41.306 0.254 6.59 0.75 12.19
12/24/2020 4:15:00 AM 5.17 41.306 0.251 6.59 0.74 12.17
12/24/2020 4:30:00 AM 5.17 41.306 0.248 6.58 1.18 12.17
12/24/2020 4:45:00 AM 5.18 41.324 0.251 6.57 1.19 12.17
12/24/2020 5:00:00 AM 5.18 41.324 0.241 6.55 1.91 12.14
12/24/2020 5:15:00 AM 5.19 41.342 0.247 6.55 1.15 12.14
12/24/2020 5:30:00 AM 5.19 41.342 0.262 6.53 1.3 12.14
12/24/2020 5:45:00 AM 5.2 41.36 0.258 6.51 1.43 12.13
12/24/2020 6:00:00 AM 5.2 41.36 0.26 6.48 1.17 12.11
12/24/2020 6:15:00 AM 5.21 41.378 0.264 6.47 1.11 12.12
12/24/2020 6:30:00 AM 5.22 41.396 0.252 6.47 1.42 12.09
12/24/2020 6:45:00 AM 5.22 41.396 0.226 6.47 0.82 12.09
12/24/2020 7:00:00 AM 5.23 41.414 0.254 6.46 0.97 12.06
12/24/2020 7:15:00 AM 5.24 41.432 0.285 6.45 1.88 12.05
12/24/2020 7:30:00 AM 5.24 41.432 0.304 6.46 1.15 12.08
12/24/2020 7:45:00 AM 5.24 41.432 0.306 6.46 1.87 12.07
12/24/2020 8:00:00 AM 5.23 41.414 0.303 6.49 0.91 12.08
12/24/2020 8:15:00 AM 5.24 41.432 0.286 6.51 1.33 12.09
12/24/2020 8:30:00 AM 5.24 41.432 0.276 6.52 2.41 12.11
12/24/2020 8:45:00 AM 5.24 41.432 0.29 6.53 1.19 12.14
12/24/2020 9:00:00 AM 5.24 41.432 0.295 6.51 1.82 12.16
12/24/2020 9:15:00 AM 5.25 41.45 0.297 6.49 1.62 12.17
12/24/2020 9:30:00 AM 5.26 41.468 0.287 6.48 1.79 12.21
12/24/2020 9:45:00 AM 5.27 41.486 0.301 6.46 2.2 12.22
12/24/2020 10:00:00 AM 5.29 41.522 0.306 6.43 2.94 12.28
12/24/2020 10:15:00 AM 5.3 41.54 0.274 6.42 2.28 12.3
12/24/2020 10:30:00 AM 5.31 41.558 0.272 6.42 2.32 12.37
12/24/2020 10:45:00 AM 5.33 41.594 0.242 6.4 2.66 12.41
12/24/2020 11:00:00 AM 5.34 41.612 0.267 6.36 2.39 12.47
12/24/2020 11:15:00 AM 5.35 41.63 0.292 6.35 2.74 12.51
12/24/2020 11:30:00 AM 5.36 41.648 0.301 6.32 3.36 12.54
12/24/2020 11:45:00 AM 5.35 41.63 0.294 6.3 2.33 12.57
12/24/2020 12:00:00 PM 5.34 41.612 0.298 6.27 4.1 12.59
12/24/2020 12:15:00 PM 5.33 41.594 0.298 6.24 2.92 12.6
12/24/2020 12:30:00 PM 5.31 41.558 0.297 6.21 4.58 12.6
12/24/2020 12:45:00 PM 5.28 41.504 0.272 6.19 10.99 12.59
12/24/2020 1:00:00 PM 5.23 41.414 0.267 6.16 10.07 12.58
12/24/2020 1:15:00 PM 5.18 41.324 0.263 6.13 14.53 12.56
12/24/2020 1:30:00 PM 5.11 41.198 0.262 6.1 26.87 12.58
12/24/2020 1:45:00 PM 5.05 41.09 0.252 6.08 22.61 12.56
12/24/2020 2:00:00 PM 4.97 40.946 0.246 6.05 27.38 12.57
12/24/2020 2:15:00 PM 4.88 40.784 0.248 6.01 29.56 12.56
12/24/2020 2:30:00 PM 4.76 40.568 0.246 5.96 36.99 12.53
12/24/2020 2:45:00 PM 4.66 40.388 0.278 5.92 43.44 12.51
12/24/2020 3:00:00 PM 4.61 40.298 0.256 5.88 49.52 12.51
12/24/2020 3:15:00 PM 4.68 40.424 0.242 5.83 59.44 12.5
12/24/2020 3:30:00 PM 4.71 40.478 0.232 5.81 52.22 12.49
12/24/2020 3:45:00 PM 4.77 40.586 0.264 5.75 70.36 12.44
12/24/2020 4:00:00 PM 4.8 40.64 0.25 5.72 76.01 12.43
12/24/2020 4:15:00 PM 4.82 40.676 0.229 5.71 91.92 12.39
12/24/2020 4:30:00 PM 4.8 40.64 0.254 5.71 37.62 12.39
12/24/2020 4:45:00 PM 4.74 40.532 0.233 5.71 184.4 12.43
12/24/2020 5:00:00 PM 4.67 40.406 0.237 5.72 166.2 12.47
12/24/2020 5:15:00 PM 4.54 40.172 0.251 5.72 98.54 12.5
12/24/2020 5:30:00 PM 4.39 39.902 0.256 5.71 110.7 12.57
12/24/2020 5:45:00 PM 4.24 39.632 0.248 5.75 228.9 12.61
12/24/2020 6:00:00 PM 4.18 39.524 0.241 5.73 163 12.65
12/24/2020 6:15:00 PM 4.11 39.398 0.232 5.67 216.8 12.67
12/24/2020 6:30:00 PM 4.03 39.254 0.223 5.64 139.4 12.7
12/24/2020 6:45:00 PM 3.99 39.182 0.216 5.6 223.1 12.73
12/24/2020 7:00:00 PM 3.96 39.128 0.211 5.6 194.3 12.76
12/24/2020 7:15:00 PM 3.95 39.11 0.201 5.54 96.2 12.74
12/24/2020 7:30:00 PM 3.93 39.074 0.203 5.51 148.1 12.76
12/24/2020 7:45:00 PM 3.92 39.056 0.199 5.47 110.6 12.75
12/24/2020 8:00:00 PM 3.93 39.074 0.196 5.46 128 12.76
12/24/2020 8:15:00 PM 3.95 39.11 0.192 5.45 117.5 12.75
12/24/2020 8:30:00 PM 3.97 39.146 0.188 5.46 155.6 12.74
12/24/2020 8:45:00 PM 3.98 39.164 0.183 5.43 207.5 12.7
12/24/2020 9:00:00 PM 4.01 39.218 0.18 5.41 202.7 12.69
12/24/2020 9:15:00 PM 4.06 39.308 0.178 5.42 175.8 12.65
12/24/2020 9:30:00 PM 4.12 39.416 0.177 5.4 151.7 12.6
12/24/2020 9:45:00 PM 4.2 39.56 0.174 5.39 214.2 12.57
12/24/2020 10:00:00 PM 4.28 39.704 0.173 5.4 214.7 12.5
12/24/2020 10:15:00 PM 4.38 39.884 0.174 5.38 185.5 12.46
12/24/2020 10:30:00 PM 4.47 40.046 0.175 5.4 159.1 12.41
12/24/2020 10:45:00 PM 4.54 40.172 0.175 5.43 183.6 12.35
12/24/2020 11:00:00 PM 4.62 40.316 0.175 5.36 182.4 12.33
12/24/2020 11:15:00 PM 4.69 40.442 0.175 5.41 175.2 12.29
12/24/2020 11:30:00 PM 4.79 40.622 0.176 5.34 114.7 12.24
12/24/2020 11:45:00 PM 4.89 40.802 0.177 5.44 145.9 12.2
12/25/2020 12:00:00 AM 5.01 41.018 0.178 5.43 120.1 12.16
12/25/2020 12:15:00 AM 5.12 41.216 0.179 5.38 105 12.11
12/25/2020 12:30:00 AM 5.22 41.396 0.182 5.46 139.9 12.07
12/25/2020 12:45:00 AM 5.3 41.54 0.183 5.45 125.8 12
12/25/2020 1:00:00 AM 5.39 41.702 0.183 5.46 127.6 11.97
12/25/2020 1:15:00 AM 5.46 41.828 0.181 5.45 87.81 11.93
12/25/2020 1:30:00 AM 5.52 41.936 0.179 5.47 119.9 11.9
12/25/2020 1:45:00 AM 5.56 42.008 0.178 5.46 136.6 11.88
12/25/2020 2:00:00 AM 5.61 42.098 0.178 5.46 92.37 11.87
12/25/2020 2:15:00 AM 5.66 42.188 0.177 5.45 120.6 11.83
12/25/2020 2:30:00 AM 5.71 42.278 0.176 5.46 82.4 11.81
12/25/2020 2:45:00 AM 5.76 42.368 0.176 5.44 134.8 11.75
12/25/2020 3:00:00 AM 5.8 42.44 0.176 5.45 119.6 11.73
12/25/2020 3:15:00 AM 5.84 42.512 0.173 5.45 56.35 11.63
12/25/2020 3:30:00 AM 5.84 42.512 0.17 5.45 100.2 11.6
12/25/2020 3:45:00 AM 5.83 42.494 0.167 5.46 74.51 11.57
12/25/2020 4:00:00 AM 5.81 42.458 0.165 5.43 156.4 11.51
12/25/2020 4:15:00 AM 5.79 42.422 0.163 5.48 112.1 11.45
12/25/2020 4:30:00 AM 5.76 42.368 0.161 5.49 82.49 11.41
12/25/2020 4:45:00 AM 5.74 42.332 0.16 5.48 119.9 11.54
12/25/2020 5:00:00 AM 5.72 42.296 0.159 5.47 109.2 11.48
12/25/2020 5:15:00 AM 5.72 42.296 0.159 5.46 84.99 11.31
12/25/2020 5:30:00 AM 5.72 42.296 0.158 5.44 78.26 11.41
12/25/2020 5:45:00 AM 5.71 42.278 0.155 5.45 80.83 11.36
12/25/2020 6:00:00 AM 5.69 42.242 0.153 5.43 100 11.37
12/25/2020 6:15:00 AM 5.68 42.224 0.151 5.43 100.9 11.43
12/25/2020 6:30:00 AM 5.66 42.188 0.149 5.45 76.55 11.28
12/25/2020 6:45:00 AM 5.64 42.152 0.147 5.42 90.25 11.29
12/25/2020 7:00:00 AM 5.61 42.098 0.146 5.42 84.86 11.21
12/25/2020 7:15:00 AM 5.58 42.044 0.144 5.42 94.14 11.23
12/25/2020 7:30:00 AM 5.56 42.008 0.145 5.41 85.1 11.41
12/25/2020 7:45:00 AM 5.54 41.972 0.144 5.41 80.38 11.04
12/25/2020 8:00:00 AM 5.51 41.918 0.143 5.39 81.01 11.24
12/25/2020 8:15:00 AM 5.47 41.846 0.141 5.39 80.53 10.98
12/25/2020 8:30:00 AM 5.44 41.792 0.14 5.38 69.29 10.88
12/25/2020 8:45:00 AM 5.41 41.738 0.138 5.36 93.94 10.9
12/25/2020 9:00:00 AM 5.38 41.684 0.138 5.37 72.26 10.74
12/25/2020 9:15:00 AM 5.36 41.648 0.137 5.34 93.86 10.95
12/25/2020 9:30:00 AM 5.33 41.594 0.136 5.35 79.38 11.13
12/25/2020 9:45:00 AM 5.31 41.558 0.136 5.37 67.83 10.98
12/25/2020 10:00:00 AM 5.29 41.522 0.136 5.33 87.93 11.1
12/25/2020 10:15:00 AM 5.26 41.468 0.136 5.33 55.16 11.26
12/25/2020 10:30:00 AM 5.22 41.396 0.134 5.34 57.4 10.99
12/25/2020 10:45:00 AM 5.18 41.324 0.133 5.33 60.07 10.64
12/25/2020 11:00:00 AM 5.14 41.252 0.132 5.32 68.98 11.29
12/25/2020 11:15:00 AM 5.1 41.18 0.131 5.31 87.59 11.38
12/25/2020 11:30:00 AM 5.07 41.126 0.13 5.33 67.23 11.54
12/25/2020 11:45:00 AM 5.03 41.054 0.129 5.32 74.13 11.41
12/25/2020 12:00:00 PM 5 41 0.129 5.3 61.65 11.06
12/25/2020 12:15:00 PM 4.97 40.946 0.129 5.28 76.54 11.24
12/25/2020 12:30:00 PM 4.94 40.892 0.129 5.27 52.19 11.38
12/25/2020 12:45:00 PM 4.9 40.82 0.128 5.28 71.06 11.52
12/25/2020 1:00:00 PM 4.85 40.73 0.127 5.28 69.58 11.73
12/25/2020 1:15:00 PM 4.81 40.658 0.126 5.26 81.93 11.74
12/25/2020 1:30:00 PM 4.77 40.586 0.125 5.28 70.62 11.83
12/25/2020 1:45:00 PM 4.74 40.532 0.124 5.27 83.11 11.7
12/25/2020 2:00:00 PM 4.71 40.478 0.123 5.25 62.51 11.53
12/25/2020 2:15:00 PM 4.69 40.442 0.123 5.26 89.64 11.79
12/25/2020 2:30:00 PM 4.67 40.406 0.124 5.25 84.63 11.63
12/25/2020 2:45:00 PM 4.66 40.388 0.124 5.24 75.95 11.79
12/25/2020 3:00:00 PM 4.64 40.352 0.124 5.25 53.38 11.78
12/25/2020 3:15:00 PM 4.6 40.28 0.123 5.26 60.83 11.3
12/25/2020 3:30:00 PM 4.57 40.226 0.121 5.25 54.75 11.69
12/25/2020 3:45:00 PM 4.53 40.154 0.121 5.24 77.08 11.77
12/25/2020 4:00:00 PM 4.51 40.118 0.121 5.25 55.73 11.69
12/25/2020 4:15:00 PM 4.48 40.064 0.12 5.23 75.33 11.68
12/25/2020 4:30:00 PM 4.45 40.01 0.12 5.21 49.38 11.64
12/25/2020 4:45:00 PM 4.43 39.974 0.121 5.22 58.86 11.47
12/25/2020 5:00:00 PM 4.42 39.956 0.123 5.17 53.73 11.79
12/25/2020 5:15:00 PM 4.4 39.92 0.124 5.2 59.06 11.83
12/25/2020 5:30:00 PM 4.37 39.866 0.125 5.21 49.42 11.7
12/25/2020 5:45:00 PM 4.34 39.812 0.122 5.21 54.19 11.57
12/25/2020 6:00:00 PM 4.3 39.74 0.122 5.21 52.15 11.75
12/25/2020 6:15:00 PM 4.28 39.704 0.122 5.19 49 11.49
12/25/2020 6:30:00 PM 4.25 39.65 0.122 5.24 52.35 11.84
12/25/2020 6:45:00 PM 4.23 39.614 0.123 5.21 43.39 11.79
12/25/2020 7:00:00 PM 4.21 39.578 0.123 5.17 47.65 12.01
12/25/2020 7:15:00 PM 4.19 39.542 0.126 5.17 41.81 11.93
12/25/2020 7:30:00 PM 4.18 39.524 0.125 5.16 36.89 11.72
12/25/2020 7:45:00 PM 4.16 39.488 0.126 5.17 49.58 10.77
12/25/2020 8:00:00 PM 4.14 39.452 0.126 5.18 38.54 11.13
12/25/2020 8:15:00 PM 4.1 39.38 0.125 5.18 39.8 10.99
12/25/2020 8:30:00 PM 4.07 39.326 0.125 5.22 39.55 11.69
12/25/2020 8:45:00 PM 4.04 39.272 0.125 5.19 40.66 11.31
12/25/2020 9:00:00 PM 4.01 39.218 0.126 5.19 49.62 11.49
12/25/2020 9:15:00 PM 3.98 39.164 0.128 5.17 42.01 10.78
12/25/2020 9:30:00 PM 3.95 39.11 0.129 5.18 43.06 10.27
12/25/2020 9:45:00 PM 3.92 39.056 0.129 5.16 42.75 10.78
12/25/2020 10:00:00 PM 3.9 39.02 0.131 5.17 34.47 10.84
12/25/2020 10:15:00 PM 3.88 38.984 0.132 5.18 1020 10.98
12/25/2020 10:30:00 PM 3.84 38.912 0.132 5.22 265.8 11.29
12/25/2020 10:45:00 PM 3.81 38.858 0.133 5.24 35.96 10.3
12/25/2020 11:00:00 PM 3.78 38.804 0.133 5.24 34.01 9.38
12/25/2020 11:15:00 PM 3.74 38.732 0.133 5.23 48.17 10.61
12/25/2020 11:30:00 PM 3.71 38.678 0.134 5.24 45.91 10
12/25/2020 11:45:00 PM 3.68 38.624 0.135 5.26 38.81 10.25
12/26/2020 12:00:00 AM 3.65 38.57 0.136 5.26 39.56 9.96
12/26/2020 12:15:00 AM 3.62 38.516 0.138 5.26 33.54 9.5
12/26/2020 12:30:00 AM 3.6 38.48 0.14 5.25 33.06 9.9
12/26/2020 12:45:00 AM 3.57 38.426 0.141 5.25 32.58 10.49
12/26/2020 1:00:00 AM 3.54 38.372 0.142 5.26 37.27 10.05
12/26/2020 1:15:00 AM 3.5 38.3 0.142 5.27 31.85 9.67
12/26/2020 1:30:00 AM 3.46 38.228 0.142 5.27 36.42 9.42
12/26/2020 1:45:00 AM 3.43 38.174 0.143 5.27 47.69 10.06
12/26/2020 2:00:00 AM 3.4 38.12 0.143 5.29 35.66 9.91
12/26/2020 2:15:00 AM 3.36 38.048 0.144 5.31 34.4 10.05
12/26/2020 2:30:00 AM 3.33 37.994 0.145 5.31 38.09 10.98
12/26/2020 2:45:00 AM 3.3 37.94 0.147 5.29 36.68 10.63
12/26/2020 3:00:00 AM 3.28 37.904 0.149 5.27 35.75 10.08
12/26/2020 3:15:00 AM 3.26 37.868 0.151 5.28 85.94 10.79
12/26/2020 3:30:00 AM 3.23 37.814 0.151 5.28 31.99 10.38
12/26/2020 3:45:00 AM 3.19 37.742 0.151 5.28 32.55 10.57
12/26/2020 4:00:00 AM 3.15 37.67 0.152 5.3 30.74 10.37
12/26/2020 4:15:00 AM 3.11 37.598 0.152 5.31 32.62 10.87
12/26/2020 4:30:00 AM 3.09 37.562 0.153 5.31 29.58 11.1
12/26/2020 4:45:00 AM 3.05 37.49 0.153 5.3 34.33 11.31
12/26/2020 5:00:00 AM 3.02 37.436 0.154 5.3 28.45 10.57
12/26/2020 5:15:00 AM 3 37.4 0.156 5.31 34.29 10.36
12/26/2020 5:30:00 AM 2.97 37.346 0.158 5.32 30.7 10.42
12/26/2020 5:45:00 AM 2.95 37.31 0.157 5.31 29.46 10.87
12/26/2020 6:00:00 AM 2.92 37.256 0.159 5.32 35.48 11.33
12/26/2020 6:15:00 AM 2.89 37.202 0.16 5.31 31.52 10.88
12/26/2020 6:30:00 AM 2.85 37.13 0.16 5.32 30.72 10.35
12/26/2020 6:45:00 AM 2.81 37.058 0.162 5.32 25.84 10.54
12/26/2020 7:00:00 AM 2.77 36.986 0.161 5.33 28.42 11.06
12/26/2020 7:15:00 AM 2.74 36.932 0.161 5.33 28.83 10.84
12/26/2020 7:30:00 AM 2.72 36.896 0.162 5.34 30.24 11.05
12/26/2020 7:45:00 AM 2.7 36.86 0.163 5.35 70.67 11.53
12/26/2020 8:00:00 AM 2.69 36.842 0.165 5.32 25.08 10.55
12/26/2020 8:15:00 AM 2.68 36.824 0.166 5.33 4265 10.89
12/26/2020 8:30:00 AM 2.66 36.788 0.167 5.33 22.2 11.41
12/26/2020 8:45:00 AM 2.65 36.77 0.167 5.33 30.11 10.69
12/26/2020 9:00:00 AM 2.64 36.752 0.167 5.34 25.66 10.43
12/26/2020 9:15:00 AM 2.62 36.716 0.168 5.33 30.18 10.24
12/26/2020 9:30:00 AM 2.63 36.734 0.168 5.36 32.42 10.46
12/26/2020 9:45:00 AM 2.63 36.734 0.168 5.36 30.41 10.32
12/26/2020 10:00:00 AM 2.64 36.752 0.169 5.36 27.26 10.12
12/26/2020 10:15:00 AM 2.65 36.77 0.17 5.36 23.61 10.34
12/26/2020 10:30:00 AM 2.66 36.788 0.172 5.36 28.14 10.12
12/26/2020 10:45:00 AM 2.67 36.806 0.173 5.36 28.21 10.41
12/26/2020 11:00:00 AM 2.67 36.806 0.173 5.42 25.31 10.91
12/26/2020 11:15:00 AM 2.68 36.824 0.173 5.42 28.17 10.95
12/26/2020 11:30:00 AM 2.7 36.86 0.174 5.43 26.63 11.43
12/26/2020 11:45:00 AM 2.71 36.878 0.174 5.42 29.25 11.44
12/26/2020 12:00:00 PM 2.72 36.896 0.174 5.43 25.62 10.98
12/26/2020 12:15:00 PM 2.72 36.896 0.175 5.42 26.63 11.37
12/26/2020 12:30:00 PM 2.74 36.932 0.176 5.42 25.63 10.67
12/26/2020 12:45:00 PM 2.74 36.932 0.176 5.42 24.98 11.04
12/26/2020 1:00:00 PM 2.76 36.968 0.178 5.42 24.2 10.98
12/26/2020 1:15:00 PM 2.79 37.022 0.179 5.43 24.81 10.75
12/26/2020 1:30:00 PM 2.8 37.04 0.179 5.45 27.61 10.76
12/26/2020 1:45:00 PM 2.81 37.058 0.18 5.43 28.66 10.92
12/26/2020 2:00:00 PM 2.82 37.076 0.18 5.43 25.99 11.15
12/26/2020 2:15:00 PM 2.82 37.076 0.179 5.44 26.7 10.76
12/26/2020 2:30:00 PM 2.81 37.058 0.169 5.43 24.34 11.69
12/26/2020 2:45:00 PM 2.81 37.058 0.176 5.44 23.94 11.32
12/26/2020 3:00:00 PM 2.81 37.058 0.184 5.43 95.37 11.8
12/26/2020 3:15:00 PM 2.82 37.076 0.183 5.44 25.46 12.19
12/26/2020 3:30:00 PM 2.82 37.076 0.185 5.44 29.22 11.98
12/26/2020 3:45:00 PM 2.83 37.094 0.182 5.44 23.09 11.67
12/26/2020 4:00:00 PM 2.82 37.076 0.186 5.44 27.21 12.05
12/26/2020 4:15:00 PM 2.82 37.076 0.186 5.44 28.68 12.15
12/26/2020 4:30:00 PM 2.82 37.076 0.187 5.44 28.92 12.38
12/26/2020 4:45:00 PM 2.82 37.076 0.187 5.43 28.9 12.36
12/26/2020 5:00:00 PM 2.82 37.076 0.185 5.45 27.99 12.54
12/26/2020 5:15:00 PM 2.82 37.076 0.188 5.46 27.39 11.72
12/26/2020 5:30:00 PM 2.81 37.058 0.189 5.45 28.84 12.29
12/26/2020 5:45:00 PM 2.82 37.076 0.191 5.44 27.68 12
12/26/2020 6:00:00 PM 2.83 37.094 0.193 5.44 28.15 12.37
12/26/2020 6:15:00 PM 2.84 37.112 0.195 5.46 33.88 12.41
12/26/2020 6:30:00 PM 2.83 37.094 0.195 5.48 27.74 11.79
12/26/2020 6:45:00 PM 2.82 37.076 0.195 5.48 4265 12.02
12/26/2020 7:00:00 PM 2.8 37.04 0.194 5.49 23.37 11.49
12/26/2020 7:15:00 PM 2.77 36.986 0.193 5.48 263.1 11.91
12/26/2020 7:30:00 PM 2.75 36.95 0.194 5.48 22.89 12.35
12/26/2020 7:45:00 PM 2.73 36.914 0.195 5.48 26.31 12.11
12/26/2020 8:00:00 PM 2.72 36.896 0.196 5.48 21.84 11.57
12/26/2020 8:15:00 PM 2.71 36.878 0.198 5.48 20.96 11.64
12/26/2020 8:30:00 PM 2.7 36.86 0.2 5.47 20.68 11.24
12/26/2020 8:45:00 PM 2.69 36.842 0.201 5.49 22.78 11.22
12/26/2020 9:00:00 PM 2.67 36.806 0.202 5.49 25.22 11.19
12/26/2020 9:15:00 PM 2.65 36.77 0.202 5.5 26.85 11.53
12/26/2020 9:30:00 PM 2.63 36.734 0.201 5.5 19.74 11.81
12/26/2020 9:45:00 PM 2.6 36.68 0.201 5.52 19.46 11.74
12/26/2020 10:00:00 PM 2.57 36.626 0.201 5.52 20.79 11.38
12/26/2020 10:15:00 PM 2.55 36.59 0.202 5.51 19.54 11.21
12/26/2020 10:30:00 PM 2.53 36.554 0.202 5.49 24.88 11.31
12/26/2020 10:45:00 PM 2.52 36.536 0.204 5.49 22.65 11.35
12/26/2020 11:00:00 PM 2.51 36.518 0.206 5.47 20.61 11.04
12/26/2020 11:15:00 PM 2.5 36.5 0.207 5.48 20.84 10.63
12/26/2020 11:30:00 PM 2.49 36.482 0.207 5.47 20.64 10.79
12/26/2020 11:45:00 PM 2.49 36.482 0.208 5.47 24.2 10.61
12/27/2020 12:00:00 AM 2.48 36.464 0.208 5.48 22.31 10.79
12/27/2020 12:15:00 AM 2.47 36.446 0.207 5.48 20.62 10.87
12/27/2020 12:30:00 AM 2.47 36.446 0.207 5.5 19.3 10.54
12/27/2020 12:45:00 AM 2.46 36.428 0.205 5.49 20.52 10.37
12/27/2020 1:00:00 AM 2.46 36.428 0.207 5.5 49.63 10.61
12/27/2020 1:15:00 AM 2.46 36.428 0.209 5.49 4266 10.67
12/27/2020 1:30:00 AM 2.45 36.41 0.203 5.48 47.95 10.44
12/27/2020 1:45:00 AM 2.45 36.41 0.211 5.5 19.31 9.53
12/27/2020 2:00:00 AM 2.43 36.374 0.211 5.49 20.26 9.49
12/27/2020 2:15:00 AM 2.41 36.338 0.211 5.48 20.96 9.88
12/27/2020 2:30:00 AM 2.39 36.302 0.211 5.5 30.95 10.05
12/27/2020 2:45:00 AM 2.37 36.266 0.211 5.5 32.71 10.19
12/27/2020 3:00:00 AM 2.35 36.23 0.206 5.5 27.17 10.44
12/27/2020 3:15:00 AM 2.33 36.194 0.209 5.5 49.43 9.72
12/27/2020 3:30:00 AM 2.34 36.212 0.208 5.49 56.59 9.83
12/27/2020 3:45:00 AM 2.34 36.212 0.211 5.48 38.84 9.85
12/27/2020 4:00:00 AM 2.35 36.23 0.214 5.49 58.98 10.08
12/27/2020 4:15:00 AM 2.35 36.23 0.215 5.48 154.5 10.59
12/27/2020 4:30:00 AM 2.36 36.248 0.215 5.48 193.4 10.33
12/27/2020 4:45:00 AM 2.36 36.248 0.215 5.48 883 11.28
12/27/2020 5:00:00 AM 2.36 36.248 0.215 5.48 254.2 10.52
12/27/2020 5:15:00 AM 2.36 36.248 0.215 5.51 309 11.16
12/27/2020 5:30:00 AM 2.35 36.23 0.215 5.49 356.6 10.32
12/27/2020 5:45:00 AM 2.34 36.212 0.214 5.5 346.8 10.17
12/27/2020 6:00:00 AM 2.34 36.212 0.216 5.5 25.49 10.53
12/27/2020 6:15:00 AM 2.33 36.194 0.217 5.5 28.36 11.25
12/27/2020 6:30:00 AM 2.32 36.176 0.218 5.52 902.1 10.92
12/27/2020 6:45:00 AM 2.31 36.158 0.218 5.52 27.56 10.79
12/27/2020 7:00:00 AM 2.29 36.122 0.218 5.53 24.08 10.41
12/27/2020 7:15:00 AM 2.28 36.104 0.218 5.53 25.42 10.36
12/27/2020 7:30:00 AM 2.25 36.05 0.218 5.54 31.24 10.16
12/27/2020 7:45:00 AM 2.23 36.014 0.218 5.53 28.05 10.27
12/27/2020 8:00:00 AM 2.22 35.996 0.218 5.55 26.68 10.42
12/27/2020 8:15:00 AM 2.22 35.996 0.219 5.54 24.09 10.21
12/27/2020 8:30:00 AM 2.22 35.996 0.219 5.53 24.11 10.31
12/27/2020 8:45:00 AM 2.23 36.014 0.22 5.53 24.4 10.32
12/27/2020 9:00:00 AM 2.25 36.05 0.221 5.52 303.5 10.44
12/27/2020 9:15:00 AM 2.28 36.104 0.226 5.51 4266 10.05
12/27/2020 9:30:00 AM 2.32 36.176 0.222 5.53 115 8.88
12/27/2020 9:45:00 AM 2.34 36.212 0.221 5.55 133.6 9
12/27/2020 10:00:00 AM 2.37 36.266 0.221 5.54 121.5 9.23
12/27/2020 10:15:00 AM 2.4 36.32 0.221 5.54 127.2 9.21
12/27/2020 10:30:00 AM 2.44 36.392 0.221 5.55 169.2 9.1
12/27/2020 10:45:00 AM 2.47 36.446 0.221 5.56 160.8 10.07
12/27/2020 11:00:00 AM 2.52 36.536 0.222 5.57 157.7 9.7
12/27/2020 11:15:00 AM 2.57 36.626 0.222 5.57 161.1 6.96
12/27/2020 11:30:00 AM 2.62 36.716 0.232 5.56 232.6 8.08
12/27/2020 11:45:00 AM 2.67 36.806 0.227 5.58 229.1 9.37
12/27/2020 12:00:00 PM 2.73 36.914 0.23 5.59 215 8.92
12/27/2020 12:15:00 PM 2.77 36.986 0.225 5.62 198.3 8.23
12/27/2020 12:30:00 PM 2.81 37.058 0.225 5.63 198.7 8.61
12/27/2020 12:45:00 PM 2.86 37.148 0.221 5.63 204.2 8.47
12/27/2020 1:00:00 PM 2.9 37.22 0.23 5.63 208.8 9.58
12/27/2020 1:15:00 PM 2.94 37.292 0.23 5.64 206.8 9.57
12/27/2020 1:30:00 PM 2.98 37.364 0.231 5.66 205.1 9.91
12/27/2020 1:45:00 PM 3.02 37.436 0.229 5.66 205.4 9.81
12/27/2020 2:00:00 PM 3.06 37.508 0.223 5.68 189.2 9.93
12/27/2020 2:15:00 PM 3.09 37.562 0.234 5.69 156.2 9.35
12/27/2020 2:30:00 PM 3.12 37.616 0.226 5.7 110.5 9.4
12/27/2020 2:45:00 PM 3.15 37.67 0.234 5.7 106 10.13
12/27/2020 3:00:00 PM 3.17 37.706 0.234 5.72 103.3 9.8
12/27/2020 3:15:00 PM 3.19 37.742 0.225 5.72 103.9 9.26
12/27/2020 3:30:00 PM 3.2 37.76 0.225 5.73 104.8 9.58
12/27/2020 3:45:00 PM 3.22 37.796 0.234 5.74 104.3 10.29
12/27/2020 4:00:00 PM 3.24 37.832 0.236 5.74 104.5 9.98
12/27/2020 4:15:00 PM 3.25 37.85 0.233 5.75 105 10.19
12/27/2020 4:30:00 PM 3.26 37.868 0.23 5.76 106.4 9.97
12/27/2020 4:45:00 PM 3.27 37.886 0.23 5.77 104.8 10.4
12/27/2020 5:00:00 PM 3.28 37.904 0.227 5.76 106.3 10.61
12/27/2020 5:15:00 PM 3.28 37.904 0.227 5.77 96.08 10.7
12/27/2020 5:30:00 PM 3.28 37.904 0.23 5.77 195.2 10.2
12/27/2020 5:45:00 PM 3.29 37.922 0.215 5.77 183.9 9.94
12/27/2020 6:00:00 PM 3.3 37.94 0.228 5.77 181 9.95
12/27/2020 6:15:00 PM 3.32 37.976 0.229 5.77 179.9 10.4
12/27/2020 6:30:00 PM 3.33 37.994 0.23 5.78 135.7 10.28
12/27/2020 6:45:00 PM 3.35 38.03 0.231 5.79 134 10.91
12/27/2020 7:00:00 PM 3.36 38.048 0.231 5.79 130.9 11.47
12/27/2020 7:15:00 PM 3.36 38.048 0.23 5.79 132.6 10.87
12/27/2020 7:30:00 PM 3.37 38.066 0.23 5.8 131.6 11.12
12/27/2020 7:45:00 PM 3.37 38.066 0.23 5.81 135 10.54
12/27/2020 8:00:00 PM 3.37 38.066 0.23 5.82 132.3 10.79
12/27/2020 8:15:00 PM 3.38 38.084 0.23 5.82 135.9 10.79
12/27/2020 8:30:00 PM 3.39 38.102 0.231 5.82 144.5 10.54
12/27/2020 8:45:00 PM 3.4 38.12 0.233 5.83 137.7 10.5
12/27/2020 9:00:00 PM 3.42 38.156 0.234 5.82 137.6 10.56
12/27/2020 9:15:00 PM 3.42 38.156 0.234 5.84 137.4 10.64
12/27/2020 9:30:00 PM 3.43 38.174 0.234 5.83 147.2 10.91
12/27/2020 9:45:00 PM 3.43 38.174 0.233 5.83 141 11.06
12/27/2020 10:00:00 PM 3.43 38.174 0.233 5.84 143.4 10.12
12/27/2020 10:15:00 PM 3.43 38.174 0.233 5.85 139.9 10.43
12/27/2020 10:30:00 PM 3.43 38.174 0.233 5.86 139.8 10.83
12/27/2020 10:45:00 PM 3.43 38.174 0.234 5.86 139.4 10.29
12/27/2020 11:00:00 PM 3.44 38.192 0.235 5.86 139.7 9.69
12/27/2020 11:15:00 PM 3.44 38.192 0.236 5.85 138.4 9.05
12/27/2020 11:30:00 PM 3.45 38.21 0.237 5.85 140 10.27
12/27/2020 11:45:00 PM 3.45 38.21 0.237 5.87 139.4 10.24
12/28/2020 12:00:00 AM 3.44 38.192 0.237 5.86 74.02 9.57
12/28/2020 12:15:00 AM 3.44 38.192 0.237 5.87 1683 9.75
12/28/2020 12:30:00 AM 3.43 38.174 0.236 5.87 82.9 10.1
12/28/2020 12:45:00 AM 3.43 38.174 0.236 5.87 66.61 10.28
12/28/2020 1:00:00 AM 3.42 38.156 0.237 5.88 34.04 10.02
12/28/2020 1:15:00 AM 3.42 38.156 0.238 5.89 67.86 10.23
12/28/2020 1:30:00 AM 3.42 38.156 0.239 5.87 35.93 10.16
12/28/2020 1:45:00 AM 3.42 38.156 0.223 5.87 36.09 10.08
12/28/2020 2:00:00 AM 3.42 38.156 0.24 5.86 43.43 10.73
12/28/2020 2:15:00 AM 3.41 38.138 0.24 5.87 44.21 10.41
12/28/2020 2:30:00 AM 3.41 38.138 0.24 5.88 46.58 10.02
12/28/2020 2:45:00 AM 3.4 38.12 0.239 5.9 40.34 10.53
12/28/2020 3:00:00 AM 3.4 38.12 0.239 5.89 35.45 10.35
12/28/2020 3:15:00 AM 3.39 38.102 0.239 5.9 34.68 10.39
12/28/2020 3:30:00 AM 3.4 38.12 0.24 5.89 33.44 10.04
12/28/2020 3:45:00 AM 3.4 38.12 0.241 5.9 23.72 10.04
12/28/2020 4:00:00 AM 3.4 38.12 0.242 5.91 26.67 10.07
12/28/2020 4:15:00 AM 3.4 38.12 0.242 5.91 25.56 10.44
12/28/2020 4:30:00 AM 3.41 38.138 0.242 5.92 28.64 10.25
12/28/2020 4:45:00 AM 3.41 38.138 0.242 5.93 26.71 10.85
12/28/2020 5:00:00 AM 3.41 38.138 0.241 5.92 26.93 10.46
12/28/2020 5:15:00 AM 3.41 38.138 0.241 5.92 4241 10.56
12/28/2020 5:30:00 AM 3.41 38.138 0.241 5.93 31.08 9.62
12/28/2020 5:45:00 AM 3.41 38.138 0.241 5.92 32.42 10.45
12/28/2020 6:00:00 AM 3.42 38.156 0.241 5.93 40.14 9.76
12/28/2020 6:15:00 AM 3.44 38.192 0.242 5.93 42.82 10.11
12/28/2020 6:30:00 AM 3.45 38.21 0.243 5.93 52.88 10.3
12/28/2020 6:45:00 AM 3.46 38.228 0.243 5.92 57.36 10.79
12/28/2020 7:00:00 AM 3.46 38.228 0.243 5.92 61.11 11.33
12/28/2020 7:15:00 AM 3.46 38.228 0.243 5.93 73.55 10.55
12/28/2020 7:30:00 AM 3.46 38.228 0.242 5.94 81.16 11.25
12/28/2020 7:45:00 AM 3.45 38.21 0.242 5.95 83.66 10.72
12/28/2020 8:00:00 AM 3.46 38.228 0.242 5.93 84.96 10.21
12/28/2020 8:15:00 AM 3.47 38.246 0.242 5.94 87.47 10.22
12/28/2020 8:30:00 AM 3.49 38.282 0.243 5.95 90.5 10.46
12/28/2020 8:45:00 AM 3.49 38.282 0.243 5.95 88.19 10.58
12/28/2020 9:00:00 AM 3.52 38.336 0.244 5.96 93.18 10.74
12/28/2020 9:15:00 AM 3.55 38.39 0.244 5.96